<?xml version="1.0" encoding="UTF-8" standalone="no" ?>
<gpx xmlns="http://www.topografix.com/GPX/1/1" xmlns:xsi="http://www.w3.org/2001/XMLSchema-instance" xsi:schemaLocation="http://www.topografix.com/GPX/1/1 http://www.topografix.com/GPX/1/1/gpx.xsd" version="1.1" creator="VisuGPX - https://www.visugpx.com">
  <metadata>
    <name>Première sortie vélo 2019</name>
    <desc><![CDATA[Tullins Voiron Le Grand Ratz Grenoble]]></desc>
  </metadata>
  <trk>
    <name><![CDATA[Première sortie vélo 2019_1]]></name>
    <trkseg>
      <trkpt lat="45.30111" lon="5.49213">
        <ele>258.928</ele>
        <time>2019-02-24T12:52:03Z</time>
      </trkpt>
      <trkpt lat="45.30113" lon="5.4922">
        <ele>258.904</ele>
        <time>2019-02-24T12:52:13Z</time>
      </trkpt>
      <trkpt lat="45.30113" lon="5.4922">
        <ele>256.818</ele>
        <time>2019-02-24T12:52:29Z</time>
      </trkpt>
      <trkpt lat="45.30113" lon="5.4922">
        <ele>256.801</ele>
        <time>2019-02-24T12:52:40Z</time>
      </trkpt>
      <trkpt lat="45.30113" lon="5.4922">
        <ele>256.742</ele>
        <time>2019-02-24T12:52:51Z</time>
      </trkpt>
      <trkpt lat="45.30113" lon="5.4922">
        <ele>256.675</ele>
        <time>2019-02-24T12:53:01Z</time>
      </trkpt>
      <trkpt lat="45.30113" lon="5.4922">
        <ele>256.546</ele>
        <time>2019-02-24T12:53:11Z</time>
      </trkpt>
      <trkpt lat="45.30103" lon="5.49192">
        <ele>255.946</ele>
        <time>2019-02-24T12:53:22Z</time>
      </trkpt>
      <trkpt lat="45.30118" lon="5.49152">
        <ele>254.656</ele>
        <time>2019-02-24T12:53:33Z</time>
      </trkpt>
      <trkpt lat="45.30148" lon="5.49171">
        <ele>251.468</ele>
        <time>2019-02-24T12:53:43Z</time>
      </trkpt>
      <trkpt lat="45.30202" lon="5.49209">
        <ele>254.802</ele>
        <time>2019-02-24T12:53:53Z</time>
      </trkpt>
      <trkpt lat="45.30245" lon="5.49241">
        <ele>257.542</ele>
        <time>2019-02-24T12:54:04Z</time>
      </trkpt>
      <trkpt lat="45.30237" lon="5.49225">
        <ele>256.518</ele>
        <time>2019-02-24T12:54:15Z</time>
      </trkpt>
      <trkpt lat="45.30235" lon="5.49223">
        <ele>255.103</ele>
        <time>2019-02-24T12:54:25Z</time>
      </trkpt>
      <trkpt lat="45.30235" lon="5.49222">
        <ele>254.998</ele>
        <time>2019-02-24T12:54:35Z</time>
      </trkpt>
      <trkpt lat="45.30235" lon="5.49222">
        <ele>254.925</ele>
        <time>2019-02-24T12:54:46Z</time>
      </trkpt>
      <trkpt lat="45.30235" lon="5.49221">
        <ele>254.795</ele>
        <time>2019-02-24T12:54:57Z</time>
      </trkpt>
      <trkpt lat="45.30234" lon="5.49221">
        <ele>254.58</ele>
        <time>2019-02-24T12:55:07Z</time>
      </trkpt>
      <trkpt lat="45.30234" lon="5.4922">
        <ele>254.422</ele>
        <time>2019-02-24T12:55:18Z</time>
      </trkpt>
      <trkpt lat="45.30234" lon="5.4922">
        <ele>254.3</ele>
        <time>2019-02-24T12:55:28Z</time>
      </trkpt>
      <trkpt lat="45.30234" lon="5.49219">
        <ele>254.199</ele>
        <time>2019-02-24T12:55:39Z</time>
      </trkpt>
      <trkpt lat="45.30234" lon="5.49219">
        <ele>253.626</ele>
        <time>2019-02-24T12:55:50Z</time>
      </trkpt>
      <trkpt lat="45.30254" lon="5.49192">
        <ele>251.022</ele>
        <time>2019-02-24T12:56:01Z</time>
      </trkpt>
      <trkpt lat="45.30234" lon="5.49134">
        <ele>243.167</ele>
        <time>2019-02-24T12:56:11Z</time>
      </trkpt>
      <trkpt lat="45.3027" lon="5.49143">
        <ele>244.151</ele>
        <time>2019-02-24T12:56:22Z</time>
      </trkpt>
      <trkpt lat="45.30303" lon="5.49214">
        <ele>243.77</ele>
        <time>2019-02-24T12:56:33Z</time>
      </trkpt>
      <trkpt lat="45.30335" lon="5.49286">
        <ele>243.011</ele>
        <time>2019-02-24T12:56:44Z</time>
      </trkpt>
      <trkpt lat="45.30367" lon="5.4935">
        <ele>245.836</ele>
        <time>2019-02-24T12:56:54Z</time>
      </trkpt>
      <trkpt lat="45.30404" lon="5.49413">
        <ele>250.02</ele>
        <time>2019-02-24T12:57:05Z</time>
      </trkpt>
      <trkpt lat="45.30439" lon="5.49476">
        <ele>251.209</ele>
        <time>2019-02-24T12:57:16Z</time>
      </trkpt>
      <trkpt lat="45.30468" lon="5.49529">
        <ele>250.392</ele>
        <time>2019-02-24T12:57:26Z</time>
      </trkpt>
      <trkpt lat="45.30499" lon="5.49581">
        <ele>249.432</ele>
        <time>2019-02-24T12:57:37Z</time>
      </trkpt>
      <trkpt lat="45.30518" lon="5.49649">
        <ele>249.132</ele>
        <time>2019-02-24T12:57:48Z</time>
      </trkpt>
      <trkpt lat="45.30552" lon="5.49693">
        <ele>249.137</ele>
        <time>2019-02-24T12:57:58Z</time>
      </trkpt>
      <trkpt lat="45.3059" lon="5.4971">
        <ele>251.09</ele>
        <time>2019-02-24T12:58:09Z</time>
      </trkpt>
      <trkpt lat="45.30618" lon="5.49661">
        <ele>244.123</ele>
        <time>2019-02-24T12:58:20Z</time>
      </trkpt>
      <trkpt lat="45.30644" lon="5.49617">
        <ele>240.688</ele>
        <time>2019-02-24T12:58:30Z</time>
      </trkpt>
      <trkpt lat="45.3067" lon="5.49581">
        <ele>241.001</ele>
        <time>2019-02-24T12:58:40Z</time>
      </trkpt>
      <trkpt lat="45.30696" lon="5.49548">
        <ele>242.324</ele>
        <time>2019-02-24T12:58:51Z</time>
      </trkpt>
      <trkpt lat="45.30721" lon="5.49531">
        <ele>244.214</ele>
        <time>2019-02-24T12:59:01Z</time>
      </trkpt>
      <trkpt lat="45.30745" lon="5.49503">
        <ele>246.431</ele>
        <time>2019-02-24T12:59:11Z</time>
      </trkpt>
      <trkpt lat="45.30769" lon="5.4948">
        <ele>249.343</ele>
        <time>2019-02-24T12:59:22Z</time>
      </trkpt>
      <trkpt lat="45.3079" lon="5.49496">
        <ele>256.767</ele>
        <time>2019-02-24T12:59:33Z</time>
      </trkpt>
      <trkpt lat="45.30852" lon="5.49549">
        <ele>260.59</ele>
        <time>2019-02-24T12:59:44Z</time>
      </trkpt>
      <trkpt lat="45.30889" lon="5.49582">
        <ele>260.063</ele>
        <time>2019-02-24T12:59:55Z</time>
      </trkpt>
      <trkpt lat="45.30918" lon="5.49539">
        <ele>260.1</ele>
        <time>2019-02-24T13:00:05Z</time>
      </trkpt>
      <trkpt lat="45.30953" lon="5.49487">
        <ele>259.313</ele>
        <time>2019-02-24T13:00:16Z</time>
      </trkpt>
      <trkpt lat="45.30985" lon="5.49434">
        <ele>260.367</ele>
        <time>2019-02-24T13:00:27Z</time>
      </trkpt>
      <trkpt lat="45.31001" lon="5.4938">
        <ele>262.56</ele>
        <time>2019-02-24T13:00:37Z</time>
      </trkpt>
      <trkpt lat="45.31005" lon="5.49316">
        <ele>260.876</ele>
        <time>2019-02-24T13:00:48Z</time>
      </trkpt>
      <trkpt lat="45.31014" lon="5.4925">
        <ele>263.286</ele>
        <time>2019-02-24T13:00:59Z</time>
      </trkpt>
      <trkpt lat="45.31028" lon="5.49191">
        <ele>264.355</ele>
        <time>2019-02-24T13:01:10Z</time>
      </trkpt>
      <trkpt lat="45.31066" lon="5.4915">
        <ele>267.65</ele>
        <time>2019-02-24T13:01:21Z</time>
      </trkpt>
      <trkpt lat="45.31091" lon="5.49091">
        <ele>266.617</ele>
        <time>2019-02-24T13:01:32Z</time>
      </trkpt>
      <trkpt lat="45.31099" lon="5.49029">
        <ele>266.792</ele>
        <time>2019-02-24T13:01:42Z</time>
      </trkpt>
      <trkpt lat="45.31094" lon="5.48962">
        <ele>265.485</ele>
        <time>2019-02-24T13:01:53Z</time>
      </trkpt>
      <trkpt lat="45.31074" lon="5.48907">
        <ele>264.4</ele>
        <time>2019-02-24T13:02:03Z</time>
      </trkpt>
      <trkpt lat="45.31098" lon="5.48874">
        <ele>265.255</ele>
        <time>2019-02-24T13:02:14Z</time>
      </trkpt>
      <trkpt lat="45.31131" lon="5.48843">
        <ele>266.629</ele>
        <time>2019-02-24T13:02:25Z</time>
      </trkpt>
      <trkpt lat="45.31148" lon="5.48787">
        <ele>267.424</ele>
        <time>2019-02-24T13:02:35Z</time>
      </trkpt>
      <trkpt lat="45.31179" lon="5.48752">
        <ele>269.26</ele>
        <time>2019-02-24T13:02:46Z</time>
      </trkpt>
      <trkpt lat="45.31215" lon="5.48719">
        <ele>275.681</ele>
        <time>2019-02-24T13:02:56Z</time>
      </trkpt>
      <trkpt lat="45.31263" lon="5.48708">
        <ele>267.49</ele>
        <time>2019-02-24T13:03:07Z</time>
      </trkpt>
      <trkpt lat="45.313" lon="5.48681">
        <ele>261.231</ele>
        <time>2019-02-24T13:03:17Z</time>
      </trkpt>
      <trkpt lat="45.3133" lon="5.48637">
        <ele>264.626</ele>
        <time>2019-02-24T13:03:28Z</time>
      </trkpt>
      <trkpt lat="45.31363" lon="5.48635">
        <ele>270.357</ele>
        <time>2019-02-24T13:03:39Z</time>
      </trkpt>
      <trkpt lat="45.31386" lon="5.48647">
        <ele>273.95</ele>
        <time>2019-02-24T13:03:49Z</time>
      </trkpt>
      <trkpt lat="45.31412" lon="5.48674">
        <ele>276.903</ele>
        <time>2019-02-24T13:04:00Z</time>
      </trkpt>
      <trkpt lat="45.31428" lon="5.487">
        <ele>279.681</ele>
        <time>2019-02-24T13:04:10Z</time>
      </trkpt>
      <trkpt lat="45.31445" lon="5.48735">
        <ele>281.463</ele>
        <time>2019-02-24T13:04:20Z</time>
      </trkpt>
      <trkpt lat="45.31455" lon="5.48785">
        <ele>283.479</ele>
        <time>2019-02-24T13:04:31Z</time>
      </trkpt>
      <trkpt lat="45.31466" lon="5.48833">
        <ele>286.26</ele>
        <time>2019-02-24T13:04:42Z</time>
      </trkpt>
      <trkpt lat="45.31489" lon="5.48871">
        <ele>286.47</ele>
        <time>2019-02-24T13:04:53Z</time>
      </trkpt>
      <trkpt lat="45.31517" lon="5.48913">
        <ele>284.446</ele>
        <time>2019-02-24T13:05:04Z</time>
      </trkpt>
      <trkpt lat="45.31556" lon="5.48943">
        <ele>282.302</ele>
        <time>2019-02-24T13:05:15Z</time>
      </trkpt>
      <trkpt lat="45.31585" lon="5.48989">
        <ele>284.09</ele>
        <time>2019-02-24T13:05:26Z</time>
      </trkpt>
      <trkpt lat="45.31625" lon="5.48999">
        <ele>291.852</ele>
        <time>2019-02-24T13:05:37Z</time>
      </trkpt>
      <trkpt lat="45.31666" lon="5.48998">
        <ele>303.905</ele>
        <time>2019-02-24T13:05:47Z</time>
      </trkpt>
      <trkpt lat="45.31712" lon="5.49005">
        <ele>306.59</ele>
        <time>2019-02-24T13:05:58Z</time>
      </trkpt>
      <trkpt lat="45.3175" lon="5.49023">
        <ele>308.268</ele>
        <time>2019-02-24T13:06:08Z</time>
      </trkpt>
      <trkpt lat="45.31795" lon="5.49051">
        <ele>305.993</ele>
        <time>2019-02-24T13:06:19Z</time>
      </trkpt>
      <trkpt lat="45.31824" lon="5.49088">
        <ele>304.546</ele>
        <time>2019-02-24T13:06:29Z</time>
      </trkpt>
      <trkpt lat="45.31855" lon="5.49117">
        <ele>304.239</ele>
        <time>2019-02-24T13:06:40Z</time>
      </trkpt>
      <trkpt lat="45.31888" lon="5.49148">
        <ele>305.883</ele>
        <time>2019-02-24T13:06:50Z</time>
      </trkpt>
      <trkpt lat="45.31921" lon="5.49187">
        <ele>310.977</ele>
        <time>2019-02-24T13:07:00Z</time>
      </trkpt>
      <trkpt lat="45.31949" lon="5.49226">
        <ele>314.405</ele>
        <time>2019-02-24T13:07:11Z</time>
      </trkpt>
      <trkpt lat="45.31988" lon="5.49247">
        <ele>316.255</ele>
        <time>2019-02-24T13:07:22Z</time>
      </trkpt>
      <trkpt lat="45.32022" lon="5.49253">
        <ele>318.054</ele>
        <time>2019-02-24T13:07:33Z</time>
      </trkpt>
      <trkpt lat="45.32069" lon="5.49274">
        <ele>320.403</ele>
        <time>2019-02-24T13:07:44Z</time>
      </trkpt>
      <trkpt lat="45.32105" lon="5.49312">
        <ele>320.677</ele>
        <time>2019-02-24T13:07:55Z</time>
      </trkpt>
      <trkpt lat="45.32138" lon="5.49304">
        <ele>322.467</ele>
        <time>2019-02-24T13:08:06Z</time>
      </trkpt>
      <trkpt lat="45.32159" lon="5.49263">
        <ele>324.935</ele>
        <time>2019-02-24T13:08:16Z</time>
      </trkpt>
      <trkpt lat="45.32174" lon="5.4921">
        <ele>328.16</ele>
        <time>2019-02-24T13:08:27Z</time>
      </trkpt>
      <trkpt lat="45.32197" lon="5.49165">
        <ele>331.456</ele>
        <time>2019-02-24T13:08:37Z</time>
      </trkpt>
      <trkpt lat="45.32231" lon="5.49123">
        <ele>339.988</ele>
        <time>2019-02-24T13:08:48Z</time>
      </trkpt>
      <trkpt lat="45.32267" lon="5.4908">
        <ele>347.265</ele>
        <time>2019-02-24T13:08:59Z</time>
      </trkpt>
      <trkpt lat="45.32299" lon="5.49048">
        <ele>347.647</ele>
        <time>2019-02-24T13:09:10Z</time>
      </trkpt>
      <trkpt lat="45.32332" lon="5.49022">
        <ele>347.532</ele>
        <time>2019-02-24T13:09:21Z</time>
      </trkpt>
      <trkpt lat="45.32367" lon="5.48993">
        <ele>347.279</ele>
        <time>2019-02-24T13:09:31Z</time>
      </trkpt>
      <trkpt lat="45.32408" lon="5.48981">
        <ele>347.352</ele>
        <time>2019-02-24T13:09:41Z</time>
      </trkpt>
      <trkpt lat="45.32451" lon="5.48982">
        <ele>349.238</ele>
        <time>2019-02-24T13:09:52Z</time>
      </trkpt>
      <trkpt lat="45.32488" lon="5.4896">
        <ele>351.254</ele>
        <time>2019-02-24T13:10:03Z</time>
      </trkpt>
      <trkpt lat="45.32522" lon="5.48926">
        <ele>352.77</ele>
        <time>2019-02-24T13:10:14Z</time>
      </trkpt>
      <trkpt lat="45.32555" lon="5.48936">
        <ele>354.022</ele>
        <time>2019-02-24T13:10:25Z</time>
      </trkpt>
      <trkpt lat="45.32591" lon="5.48958">
        <ele>356.142</ele>
        <time>2019-02-24T13:10:35Z</time>
      </trkpt>
      <trkpt lat="45.32633" lon="5.4897">
        <ele>357.846</ele>
        <time>2019-02-24T13:10:46Z</time>
      </trkpt>
      <trkpt lat="45.3267" lon="5.48979">
        <ele>359.07</ele>
        <time>2019-02-24T13:10:56Z</time>
      </trkpt>
      <trkpt lat="45.32713" lon="5.48977">
        <ele>362.795</ele>
        <time>2019-02-24T13:11:07Z</time>
      </trkpt>
      <trkpt lat="45.32752" lon="5.48971">
        <ele>364.82</ele>
        <time>2019-02-24T13:11:17Z</time>
      </trkpt>
      <trkpt lat="45.32787" lon="5.48959">
        <ele>364.759</ele>
        <time>2019-02-24T13:11:28Z</time>
      </trkpt>
      <trkpt lat="45.32819" lon="5.48917">
        <ele>364.476</ele>
        <time>2019-02-24T13:11:39Z</time>
      </trkpt>
      <trkpt lat="45.32844" lon="5.48883">
        <ele>364.305</ele>
        <time>2019-02-24T13:11:49Z</time>
      </trkpt>
      <trkpt lat="45.3287" lon="5.48846">
        <ele>364.694</ele>
        <time>2019-02-24T13:11:59Z</time>
      </trkpt>
      <trkpt lat="45.329" lon="5.48815">
        <ele>365.095</ele>
        <time>2019-02-24T13:12:10Z</time>
      </trkpt>
      <trkpt lat="45.32935" lon="5.48791">
        <ele>365.549</ele>
        <time>2019-02-24T13:12:21Z</time>
      </trkpt>
      <trkpt lat="45.32956" lon="5.4873">
        <ele>367.523</ele>
        <time>2019-02-24T13:12:32Z</time>
      </trkpt>
      <trkpt lat="45.33001" lon="5.48697">
        <ele>367.107</ele>
        <time>2019-02-24T13:12:43Z</time>
      </trkpt>
      <trkpt lat="45.33056" lon="5.48687">
        <ele>366.972</ele>
        <time>2019-02-24T13:12:53Z</time>
      </trkpt>
      <trkpt lat="45.33115" lon="5.48666">
        <ele>370.213</ele>
        <time>2019-02-24T13:13:04Z</time>
      </trkpt>
      <trkpt lat="45.33165" lon="5.48628">
        <ele>375.461</ele>
        <time>2019-02-24T13:13:15Z</time>
      </trkpt>
      <trkpt lat="45.33209" lon="5.48582">
        <ele>370.451</ele>
        <time>2019-02-24T13:13:26Z</time>
      </trkpt>
      <trkpt lat="45.33247" lon="5.48532">
        <ele>373.519</ele>
        <time>2019-02-24T13:13:36Z</time>
      </trkpt>
      <trkpt lat="45.33276" lon="5.4847">
        <ele>372.584</ele>
        <time>2019-02-24T13:13:47Z</time>
      </trkpt>
      <trkpt lat="45.33297" lon="5.48404">
        <ele>373.193</ele>
        <time>2019-02-24T13:13:58Z</time>
      </trkpt>
      <trkpt lat="45.33338" lon="5.48356">
        <ele>373.907</ele>
        <time>2019-02-24T13:14:09Z</time>
      </trkpt>
      <trkpt lat="45.33394" lon="5.48339">
        <ele>382.394</ele>
        <time>2019-02-24T13:14:20Z</time>
      </trkpt>
      <trkpt lat="45.33419" lon="5.4834">
        <ele>381.164</ele>
        <time>2019-02-24T13:14:30Z</time>
      </trkpt>
      <trkpt lat="45.33419" lon="5.48341">
        <ele>380.939</ele>
        <time>2019-02-24T13:14:41Z</time>
      </trkpt>
      <trkpt lat="45.33419" lon="5.48341">
        <ele>380.845</ele>
        <time>2019-02-24T13:14:51Z</time>
      </trkpt>
      <trkpt lat="45.33419" lon="5.48342">
        <ele>380.76</ele>
        <time>2019-02-24T13:15:02Z</time>
      </trkpt>
      <trkpt lat="45.33418" lon="5.48342">
        <ele>380.617</ele>
        <time>2019-02-24T13:15:13Z</time>
      </trkpt>
      <trkpt lat="45.33418" lon="5.48341">
        <ele>380.49</ele>
        <time>2019-02-24T13:15:24Z</time>
      </trkpt>
      <trkpt lat="45.33417" lon="5.48341">
        <ele>380.332</ele>
        <time>2019-02-24T13:15:35Z</time>
      </trkpt>
      <trkpt lat="45.33416" lon="5.48341">
        <ele>380.265</ele>
        <time>2019-02-24T13:15:46Z</time>
      </trkpt>
      <trkpt lat="45.33416" lon="5.48341">
        <ele>380.141</ele>
        <time>2019-02-24T13:15:56Z</time>
      </trkpt>
      <trkpt lat="45.33416" lon="5.48341">
        <ele>379.999</ele>
        <time>2019-02-24T13:16:06Z</time>
      </trkpt>
      <trkpt lat="45.33416" lon="5.48342">
        <ele>379.796</ele>
        <time>2019-02-24T13:16:17Z</time>
      </trkpt>
      <trkpt lat="45.33419" lon="5.48343">
        <ele>379.456</ele>
        <time>2019-02-24T13:16:28Z</time>
      </trkpt>
      <trkpt lat="45.33419" lon="5.48343">
        <ele>378.296</ele>
        <time>2019-02-24T13:16:38Z</time>
      </trkpt>
      <trkpt lat="45.33418" lon="5.48343">
        <ele>378.097</ele>
        <time>2019-02-24T13:16:49Z</time>
      </trkpt>
      <trkpt lat="45.33421" lon="5.48338">
        <ele>377.235</ele>
        <time>2019-02-24T13:16:59Z</time>
      </trkpt>
      <trkpt lat="45.33467" lon="5.48341">
        <ele>377.704</ele>
        <time>2019-02-24T13:17:10Z</time>
      </trkpt>
      <trkpt lat="45.33521" lon="5.48319">
        <ele>379.771</ele>
        <time>2019-02-24T13:17:21Z</time>
      </trkpt>
      <trkpt lat="45.33573" lon="5.48301">
        <ele>377.995</ele>
        <time>2019-02-24T13:17:32Z</time>
      </trkpt>
      <trkpt lat="45.33624" lon="5.4832">
        <ele>378.701</ele>
        <time>2019-02-24T13:17:43Z</time>
      </trkpt>
      <trkpt lat="45.3366" lon="5.4835">
        <ele>378.075</ele>
        <time>2019-02-24T13:17:53Z</time>
      </trkpt>
      <trkpt lat="45.33704" lon="5.48344">
        <ele>376.452</ele>
        <time>2019-02-24T13:18:04Z</time>
      </trkpt>
      <trkpt lat="45.33737" lon="5.48385">
        <ele>379.767</ele>
        <time>2019-02-24T13:18:15Z</time>
      </trkpt>
      <trkpt lat="45.33762" lon="5.48433">
        <ele>376.214</ele>
        <time>2019-02-24T13:18:25Z</time>
      </trkpt>
      <trkpt lat="45.33794" lon="5.48488">
        <ele>375.055</ele>
        <time>2019-02-24T13:18:36Z</time>
      </trkpt>
      <trkpt lat="45.33827" lon="5.4853">
        <ele>370.135</ele>
        <time>2019-02-24T13:18:46Z</time>
      </trkpt>
      <trkpt lat="45.33865" lon="5.48577">
        <ele>371.988</ele>
        <time>2019-02-24T13:18:57Z</time>
      </trkpt>
      <trkpt lat="45.3388" lon="5.48636">
        <ele>373.436</ele>
        <time>2019-02-24T13:19:07Z</time>
      </trkpt>
      <trkpt lat="45.3388" lon="5.48656">
        <ele>373.773</ele>
        <time>2019-02-24T13:19:18Z</time>
      </trkpt>
      <trkpt lat="45.33894" lon="5.48723">
        <ele>377.832</ele>
        <time>2019-02-24T13:19:29Z</time>
      </trkpt>
      <trkpt lat="45.33907" lon="5.48807">
        <ele>381.103</ele>
        <time>2019-02-24T13:19:40Z</time>
      </trkpt>
      <trkpt lat="45.33917" lon="5.48879">
        <ele>382.999</ele>
        <time>2019-02-24T13:19:50Z</time>
      </trkpt>
      <trkpt lat="45.33928" lon="5.48949">
        <ele>385.46</ele>
        <time>2019-02-24T13:20:00Z</time>
      </trkpt>
      <trkpt lat="45.33941" lon="5.49027">
        <ele>384.547</ele>
        <time>2019-02-24T13:20:11Z</time>
      </trkpt>
      <trkpt lat="45.33953" lon="5.49106">
        <ele>385.775</ele>
        <time>2019-02-24T13:20:22Z</time>
      </trkpt>
      <trkpt lat="45.33966" lon="5.49177">
        <ele>383.257</ele>
        <time>2019-02-24T13:20:33Z</time>
      </trkpt>
      <trkpt lat="45.33991" lon="5.49235">
        <ele>381.212</ele>
        <time>2019-02-24T13:20:43Z</time>
      </trkpt>
      <trkpt lat="45.3402" lon="5.49291">
        <ele>382.095</ele>
        <time>2019-02-24T13:20:53Z</time>
      </trkpt>
      <trkpt lat="45.34027" lon="5.49307">
        <ele>382.607</ele>
        <time>2019-02-24T13:21:04Z</time>
      </trkpt>
      <trkpt lat="45.34028" lon="5.49307">
        <ele>382.801</ele>
        <time>2019-02-24T13:21:15Z</time>
      </trkpt>
      <trkpt lat="45.34028" lon="5.49308">
        <ele>383.131</ele>
        <time>2019-02-24T13:21:26Z</time>
      </trkpt>
      <trkpt lat="45.34028" lon="5.4931">
        <ele>383.483</ele>
        <time>2019-02-24T13:21:36Z</time>
      </trkpt>
      <trkpt lat="45.34028" lon="5.49309">
        <ele>383.833</ele>
        <time>2019-02-24T13:21:47Z</time>
      </trkpt>
      <trkpt lat="45.34028" lon="5.49308">
        <ele>383.908</ele>
        <time>2019-02-24T13:21:57Z</time>
      </trkpt>
      <trkpt lat="45.34028" lon="5.49308">
        <ele>384.028</ele>
        <time>2019-02-24T13:22:08Z</time>
      </trkpt>
      <trkpt lat="45.34029" lon="5.49308">
        <ele>384.122</ele>
        <time>2019-02-24T13:22:18Z</time>
      </trkpt>
      <trkpt lat="45.3403" lon="5.4931">
        <ele>384.997</ele>
        <time>2019-02-24T13:22:29Z</time>
      </trkpt>
      <trkpt lat="45.34063" lon="5.49349">
        <ele>384.036</ele>
        <time>2019-02-24T13:22:40Z</time>
      </trkpt>
      <trkpt lat="45.34099" lon="5.49391">
        <ele>381.127</ele>
        <time>2019-02-24T13:22:50Z</time>
      </trkpt>
      <trkpt lat="45.34136" lon="5.49435">
        <ele>378.837</ele>
        <time>2019-02-24T13:23:01Z</time>
      </trkpt>
      <trkpt lat="45.34169" lon="5.49482">
        <ele>377.874</ele>
        <time>2019-02-24T13:23:11Z</time>
      </trkpt>
      <trkpt lat="45.34208" lon="5.49528">
        <ele>383.162</ele>
        <time>2019-02-24T13:23:22Z</time>
      </trkpt>
      <trkpt lat="45.34242" lon="5.49571">
        <ele>385.691</ele>
        <time>2019-02-24T13:23:32Z</time>
      </trkpt>
      <trkpt lat="45.34287" lon="5.49605">
        <ele>380.3</ele>
        <time>2019-02-24T13:23:43Z</time>
      </trkpt>
      <trkpt lat="45.34334" lon="5.49621">
        <ele>380.875</ele>
        <time>2019-02-24T13:23:53Z</time>
      </trkpt>
      <trkpt lat="45.3438" lon="5.49637">
        <ele>387.295</ele>
        <time>2019-02-24T13:24:04Z</time>
      </trkpt>
      <trkpt lat="45.34418" lon="5.4966">
        <ele>387.962</ele>
        <time>2019-02-24T13:24:14Z</time>
      </trkpt>
      <trkpt lat="45.34409" lon="5.49746">
        <ele>382.974</ele>
        <time>2019-02-24T13:24:25Z</time>
      </trkpt>
      <trkpt lat="45.34395" lon="5.4983">
        <ele>385.825</ele>
        <time>2019-02-24T13:24:36Z</time>
      </trkpt>
      <trkpt lat="45.34389" lon="5.49895">
        <ele>384.925</ele>
        <time>2019-02-24T13:24:46Z</time>
      </trkpt>
      <trkpt lat="45.34389" lon="5.50011">
        <ele>379.74</ele>
        <time>2019-02-24T13:24:57Z</time>
      </trkpt>
      <trkpt lat="45.34425" lon="5.50151">
        <ele>371.368</ele>
        <time>2019-02-24T13:25:07Z</time>
      </trkpt>
      <trkpt lat="45.34417" lon="5.50238">
        <ele>363.346</ele>
        <time>2019-02-24T13:25:18Z</time>
      </trkpt>
      <trkpt lat="45.34354" lon="5.50221">
        <ele>362.058</ele>
        <time>2019-02-24T13:25:29Z</time>
      </trkpt>
      <trkpt lat="45.34305" lon="5.5021">
        <ele>360.145</ele>
        <time>2019-02-24T13:25:39Z</time>
      </trkpt>
      <trkpt lat="45.34227" lon="5.50234">
        <ele>351.562</ele>
        <time>2019-02-24T13:25:49Z</time>
      </trkpt>
      <trkpt lat="45.34166" lon="5.50239">
        <ele>353.133</ele>
        <time>2019-02-24T13:26:00Z</time>
      </trkpt>
      <trkpt lat="45.34131" lon="5.50272">
        <ele>355.981</ele>
        <time>2019-02-24T13:26:11Z</time>
      </trkpt>
      <trkpt lat="45.34118" lon="5.50298">
        <ele>358.233</ele>
        <time>2019-02-24T13:26:21Z</time>
      </trkpt>
      <trkpt lat="45.34107" lon="5.5032">
        <ele>361.363</ele>
        <time>2019-02-24T13:26:32Z</time>
      </trkpt>
      <trkpt lat="45.34096" lon="5.50343">
        <ele>364.886</ele>
        <time>2019-02-24T13:26:43Z</time>
      </trkpt>
      <trkpt lat="45.34089" lon="5.50366">
        <ele>368.229</ele>
        <time>2019-02-24T13:26:54Z</time>
      </trkpt>
      <trkpt lat="45.3408" lon="5.50384">
        <ele>370.585</ele>
        <time>2019-02-24T13:27:04Z</time>
      </trkpt>
      <trkpt lat="45.3407" lon="5.50402">
        <ele>373.028</ele>
        <time>2019-02-24T13:27:14Z</time>
      </trkpt>
      <trkpt lat="45.34059" lon="5.50429">
        <ele>375.199</ele>
        <time>2019-02-24T13:27:25Z</time>
      </trkpt>
      <trkpt lat="45.34049" lon="5.50455">
        <ele>376.981</ele>
        <time>2019-02-24T13:27:36Z</time>
      </trkpt>
      <trkpt lat="45.34039" lon="5.50497">
        <ele>378.85</ele>
        <time>2019-02-24T13:27:47Z</time>
      </trkpt>
      <trkpt lat="45.34025" lon="5.50537">
        <ele>380.38</ele>
        <time>2019-02-24T13:27:57Z</time>
      </trkpt>
      <trkpt lat="45.34008" lon="5.50569">
        <ele>381.481</ele>
        <time>2019-02-24T13:28:07Z</time>
      </trkpt>
      <trkpt lat="45.33981" lon="5.50603">
        <ele>382.182</ele>
        <time>2019-02-24T13:28:18Z</time>
      </trkpt>
      <trkpt lat="45.33948" lon="5.5065">
        <ele>382.74</ele>
        <time>2019-02-24T13:28:29Z</time>
      </trkpt>
      <trkpt lat="45.33912" lon="5.50692">
        <ele>379.15</ele>
        <time>2019-02-24T13:28:40Z</time>
      </trkpt>
      <trkpt lat="45.33876" lon="5.50719">
        <ele>378.632</ele>
        <time>2019-02-24T13:28:51Z</time>
      </trkpt>
      <trkpt lat="45.33846" lon="5.50742">
        <ele>377.75</ele>
        <time>2019-02-24T13:29:01Z</time>
      </trkpt>
      <trkpt lat="45.33804" lon="5.5077">
        <ele>373.982</ele>
        <time>2019-02-24T13:29:11Z</time>
      </trkpt>
      <trkpt lat="45.3376" lon="5.50803">
        <ele>372.124</ele>
        <time>2019-02-24T13:29:22Z</time>
      </trkpt>
      <trkpt lat="45.33719" lon="5.50828">
        <ele>372.024</ele>
        <time>2019-02-24T13:29:33Z</time>
      </trkpt>
      <trkpt lat="45.33673" lon="5.50851">
        <ele>373.423</ele>
        <time>2019-02-24T13:29:44Z</time>
      </trkpt>
      <trkpt lat="45.33637" lon="5.5087">
        <ele>376.058</ele>
        <time>2019-02-24T13:29:54Z</time>
      </trkpt>
      <trkpt lat="45.33604" lon="5.50887">
        <ele>379.09</ele>
        <time>2019-02-24T13:30:05Z</time>
      </trkpt>
      <trkpt lat="45.33597" lon="5.50888">
        <ele>380.425</ele>
        <time>2019-02-24T13:30:15Z</time>
      </trkpt>
      <trkpt lat="45.33597" lon="5.50887">
        <ele>380.725</ele>
        <time>2019-02-24T13:30:26Z</time>
      </trkpt>
      <trkpt lat="45.33597" lon="5.50887">
        <ele>381.071</ele>
        <time>2019-02-24T13:30:37Z</time>
      </trkpt>
      <trkpt lat="45.33595" lon="5.5089">
        <ele>383.249</ele>
        <time>2019-02-24T13:30:48Z</time>
      </trkpt>
      <trkpt lat="45.336" lon="5.50927">
        <ele>386.222</ele>
        <time>2019-02-24T13:30:59Z</time>
      </trkpt>
      <trkpt lat="45.3361" lon="5.50975">
        <ele>387.744</ele>
        <time>2019-02-24T13:31:09Z</time>
      </trkpt>
      <trkpt lat="45.33626" lon="5.51008">
        <ele>388.674</ele>
        <time>2019-02-24T13:31:19Z</time>
      </trkpt>
      <trkpt lat="45.33625" lon="5.51043">
        <ele>390.091</ele>
        <time>2019-02-24T13:31:30Z</time>
      </trkpt>
      <trkpt lat="45.33624" lon="5.51045">
        <ele>391.083</ele>
        <time>2019-02-24T13:31:41Z</time>
      </trkpt>
      <trkpt lat="45.33623" lon="5.51047">
        <ele>391.978</ele>
        <time>2019-02-24T13:31:52Z</time>
      </trkpt>
      <trkpt lat="45.33623" lon="5.51048">
        <ele>392.767</ele>
        <time>2019-02-24T13:32:03Z</time>
      </trkpt>
      <trkpt lat="45.33624" lon="5.51048">
        <ele>394.47</ele>
        <time>2019-02-24T13:32:13Z</time>
      </trkpt>
      <trkpt lat="45.33626" lon="5.51051">
        <ele>396.057</ele>
        <time>2019-02-24T13:32:24Z</time>
      </trkpt>
      <trkpt lat="45.33627" lon="5.51046">
        <ele>397.243</ele>
        <time>2019-02-24T13:32:34Z</time>
      </trkpt>
      <trkpt lat="45.33628" lon="5.51073">
        <ele>398.361</ele>
        <time>2019-02-24T13:32:45Z</time>
      </trkpt>
      <trkpt lat="45.33632" lon="5.51105">
        <ele>397.679</ele>
        <time>2019-02-24T13:32:55Z</time>
      </trkpt>
      <trkpt lat="45.33646" lon="5.51147">
        <ele>395.567</ele>
        <time>2019-02-24T13:33:06Z</time>
      </trkpt>
      <trkpt lat="45.33662" lon="5.51183">
        <ele>393</ele>
        <time>2019-02-24T13:33:17Z</time>
      </trkpt>
      <trkpt lat="45.33683" lon="5.51233">
        <ele>390.562</ele>
        <time>2019-02-24T13:33:28Z</time>
      </trkpt>
      <trkpt lat="45.33698" lon="5.51269">
        <ele>388.554</ele>
        <time>2019-02-24T13:33:38Z</time>
      </trkpt>
      <trkpt lat="45.33717" lon="5.51315">
        <ele>386.842</ele>
        <time>2019-02-24T13:33:49Z</time>
      </trkpt>
      <trkpt lat="45.33735" lon="5.51354">
        <ele>385.718</ele>
        <time>2019-02-24T13:33:59Z</time>
      </trkpt>
      <trkpt lat="45.33753" lon="5.51389">
        <ele>384.733</ele>
        <time>2019-02-24T13:34:09Z</time>
      </trkpt>
      <trkpt lat="45.33774" lon="5.51431">
        <ele>385.844</ele>
        <time>2019-02-24T13:34:19Z</time>
      </trkpt>
      <trkpt lat="45.33795" lon="5.51477">
        <ele>387.479</ele>
        <time>2019-02-24T13:34:30Z</time>
      </trkpt>
      <trkpt lat="45.33816" lon="5.51528">
        <ele>390.164</ele>
        <time>2019-02-24T13:34:41Z</time>
      </trkpt>
      <trkpt lat="45.33869" lon="5.5158">
        <ele>402.929</ele>
        <time>2019-02-24T13:34:52Z</time>
      </trkpt>
      <trkpt lat="45.33911" lon="5.51624">
        <ele>413.509</ele>
        <time>2019-02-24T13:35:03Z</time>
      </trkpt>
      <trkpt lat="45.33946" lon="5.51652">
        <ele>411.707</ele>
        <time>2019-02-24T13:35:13Z</time>
      </trkpt>
      <trkpt lat="45.33974" lon="5.51679">
        <ele>411.408</ele>
        <time>2019-02-24T13:35:24Z</time>
      </trkpt>
      <trkpt lat="45.33989" lon="5.51703">
        <ele>410.913</ele>
        <time>2019-02-24T13:35:35Z</time>
      </trkpt>
      <trkpt lat="45.34012" lon="5.51733">
        <ele>410.602</ele>
        <time>2019-02-24T13:35:46Z</time>
      </trkpt>
      <trkpt lat="45.34029" lon="5.51763">
        <ele>410.54</ele>
        <time>2019-02-24T13:35:56Z</time>
      </trkpt>
      <trkpt lat="45.34051" lon="5.51792">
        <ele>409.612</ele>
        <time>2019-02-24T13:36:07Z</time>
      </trkpt>
      <trkpt lat="45.34073" lon="5.51796">
        <ele>407.399</ele>
        <time>2019-02-24T13:36:17Z</time>
      </trkpt>
      <trkpt lat="45.34104" lon="5.51806">
        <ele>403.817</ele>
        <time>2019-02-24T13:36:28Z</time>
      </trkpt>
      <trkpt lat="45.34125" lon="5.51832">
        <ele>401.082</ele>
        <time>2019-02-24T13:36:38Z</time>
      </trkpt>
      <trkpt lat="45.34148" lon="5.51865">
        <ele>398.385</ele>
        <time>2019-02-24T13:36:49Z</time>
      </trkpt>
      <trkpt lat="45.3418" lon="5.51927">
        <ele>374.522</ele>
        <time>2019-02-24T13:37:00Z</time>
      </trkpt>
      <trkpt lat="45.34258" lon="5.52018">
        <ele>390.378</ele>
        <time>2019-02-24T13:37:11Z</time>
      </trkpt>
      <trkpt lat="45.343" lon="5.52077">
        <ele>400.951</ele>
        <time>2019-02-24T13:37:21Z</time>
      </trkpt>
      <trkpt lat="45.34311" lon="5.52094">
        <ele>401.621</ele>
        <time>2019-02-24T13:37:32Z</time>
      </trkpt>
      <trkpt lat="45.34311" lon="5.52094">
        <ele>402.216</ele>
        <time>2019-02-24T13:37:42Z</time>
      </trkpt>
      <trkpt lat="45.34311" lon="5.52094">
        <ele>402.792</ele>
        <time>2019-02-24T13:37:53Z</time>
      </trkpt>
      <trkpt lat="45.34311" lon="5.52094">
        <ele>403.236</ele>
        <time>2019-02-24T13:38:03Z</time>
      </trkpt>
      <trkpt lat="45.34311" lon="5.52094">
        <ele>403.8</ele>
        <time>2019-02-24T13:38:14Z</time>
      </trkpt>
      <trkpt lat="45.34311" lon="5.52094">
        <ele>404.322</ele>
        <time>2019-02-24T13:38:24Z</time>
      </trkpt>
      <trkpt lat="45.34311" lon="5.52094">
        <ele>404.877</ele>
        <time>2019-02-24T13:38:35Z</time>
      </trkpt>
      <trkpt lat="45.34311" lon="5.52094">
        <ele>405.417</ele>
        <time>2019-02-24T13:38:46Z</time>
      </trkpt>
      <trkpt lat="45.34311" lon="5.52094">
        <ele>405.995</ele>
        <time>2019-02-24T13:38:57Z</time>
      </trkpt>
      <trkpt lat="45.34311" lon="5.52094">
        <ele>406.595</ele>
        <time>2019-02-24T13:39:08Z</time>
      </trkpt>
      <trkpt lat="45.34311" lon="5.52094">
        <ele>407.177</ele>
        <time>2019-02-24T13:39:19Z</time>
      </trkpt>
      <trkpt lat="45.34311" lon="5.52094">
        <ele>407.678</ele>
        <time>2019-02-24T13:39:29Z</time>
      </trkpt>
      <trkpt lat="45.34311" lon="5.52094">
        <ele>408.2</ele>
        <time>2019-02-24T13:39:40Z</time>
      </trkpt>
      <trkpt lat="45.34311" lon="5.52094">
        <ele>408.692</ele>
        <time>2019-02-24T13:39:51Z</time>
      </trkpt>
      <trkpt lat="45.34313" lon="5.52102">
        <ele>410.894</ele>
        <time>2019-02-24T13:40:02Z</time>
      </trkpt>
      <trkpt lat="45.34336" lon="5.5206">
        <ele>424.618</ele>
        <time>2019-02-24T13:40:13Z</time>
      </trkpt>
      <trkpt lat="45.34367" lon="5.51999">
        <ele>425.597</ele>
        <time>2019-02-24T13:40:24Z</time>
      </trkpt>
      <trkpt lat="45.344" lon="5.51949">
        <ele>426.306</ele>
        <time>2019-02-24T13:40:34Z</time>
      </trkpt>
      <trkpt lat="45.34434" lon="5.51881">
        <ele>422.58</ele>
        <time>2019-02-24T13:40:44Z</time>
      </trkpt>
      <trkpt lat="45.34497" lon="5.51857">
        <ele>419.619</ele>
        <time>2019-02-24T13:40:55Z</time>
      </trkpt>
      <trkpt lat="45.34514" lon="5.51887">
        <ele>420.268</ele>
        <time>2019-02-24T13:41:06Z</time>
      </trkpt>
      <trkpt lat="45.34559" lon="5.51904">
        <ele>419.801</ele>
        <time>2019-02-24T13:41:16Z</time>
      </trkpt>
      <trkpt lat="45.34538" lon="5.5196">
        <ele>421.388</ele>
        <time>2019-02-24T13:41:27Z</time>
      </trkpt>
      <trkpt lat="45.34515" lon="5.52018">
        <ele>422.592</ele>
        <time>2019-02-24T13:41:38Z</time>
      </trkpt>
      <trkpt lat="45.34496" lon="5.52071">
        <ele>423.606</ele>
        <time>2019-02-24T13:41:49Z</time>
      </trkpt>
      <trkpt lat="45.34476" lon="5.52122">
        <ele>424.416</ele>
        <time>2019-02-24T13:42:00Z</time>
      </trkpt>
      <trkpt lat="45.34458" lon="5.52177">
        <ele>426.016</ele>
        <time>2019-02-24T13:42:11Z</time>
      </trkpt>
      <trkpt lat="45.34437" lon="5.52233">
        <ele>427.873</ele>
        <time>2019-02-24T13:42:22Z</time>
      </trkpt>
      <trkpt lat="45.3442" lon="5.52281">
        <ele>428.816</ele>
        <time>2019-02-24T13:42:33Z</time>
      </trkpt>
      <trkpt lat="45.34406" lon="5.52325">
        <ele>431.51</ele>
        <time>2019-02-24T13:42:44Z</time>
      </trkpt>
      <trkpt lat="45.34392" lon="5.524">
        <ele>430.91</ele>
        <time>2019-02-24T13:42:55Z</time>
      </trkpt>
      <trkpt lat="45.34381" lon="5.5251">
        <ele>429.606</ele>
        <time>2019-02-24T13:43:05Z</time>
      </trkpt>
      <trkpt lat="45.34358" lon="5.52638">
        <ele>425.233</ele>
        <time>2019-02-24T13:43:16Z</time>
      </trkpt>
      <trkpt lat="45.34349" lon="5.5272">
        <ele>423.782</ele>
        <time>2019-02-24T13:43:27Z</time>
      </trkpt>
      <trkpt lat="45.34348" lon="5.52787">
        <ele>422.137</ele>
        <time>2019-02-24T13:43:38Z</time>
      </trkpt>
      <trkpt lat="45.34393" lon="5.52812">
        <ele>423.886</ele>
        <time>2019-02-24T13:43:49Z</time>
      </trkpt>
      <trkpt lat="45.34427" lon="5.52824">
        <ele>419.686</ele>
        <time>2019-02-24T13:44:00Z</time>
      </trkpt>
      <trkpt lat="45.34457" lon="5.52843">
        <ele>417.616</ele>
        <time>2019-02-24T13:44:11Z</time>
      </trkpt>
      <trkpt lat="45.3449" lon="5.52851">
        <ele>416.664</ele>
        <time>2019-02-24T13:44:22Z</time>
      </trkpt>
      <trkpt lat="45.34521" lon="5.5287">
        <ele>416.487</ele>
        <time>2019-02-24T13:44:33Z</time>
      </trkpt>
      <trkpt lat="45.34543" lon="5.5288">
        <ele>417.566</ele>
        <time>2019-02-24T13:44:43Z</time>
      </trkpt>
      <trkpt lat="45.34577" lon="5.52913">
        <ele>421.091</ele>
        <time>2019-02-24T13:44:54Z</time>
      </trkpt>
      <trkpt lat="45.34614" lon="5.5295">
        <ele>415.577</ele>
        <time>2019-02-24T13:45:04Z</time>
      </trkpt>
      <trkpt lat="45.34638" lon="5.52974">
        <ele>415.137</ele>
        <time>2019-02-24T13:45:15Z</time>
      </trkpt>
      <trkpt lat="45.34641" lon="5.52975">
        <ele>415.462</ele>
        <time>2019-02-24T13:45:26Z</time>
      </trkpt>
      <trkpt lat="45.34641" lon="5.52975">
        <ele>416.242</ele>
        <time>2019-02-24T13:45:37Z</time>
      </trkpt>
      <trkpt lat="45.34641" lon="5.52975">
        <ele>416.647</ele>
        <time>2019-02-24T13:45:47Z</time>
      </trkpt>
      <trkpt lat="45.34645" lon="5.52973">
        <ele>417.11</ele>
        <time>2019-02-24T13:45:58Z</time>
      </trkpt>
      <trkpt lat="45.34645" lon="5.52973">
        <ele>417.581</ele>
        <time>2019-02-24T13:46:09Z</time>
      </trkpt>
      <trkpt lat="45.34645" lon="5.52973">
        <ele>418.444</ele>
        <time>2019-02-24T13:46:20Z</time>
      </trkpt>
      <trkpt lat="45.34646" lon="5.52983">
        <ele>421.796</ele>
        <time>2019-02-24T13:46:31Z</time>
      </trkpt>
      <trkpt lat="45.34659" lon="5.5304">
        <ele>433.545</ele>
        <time>2019-02-24T13:46:41Z</time>
      </trkpt>
      <trkpt lat="45.34667" lon="5.53101">
        <ele>435.951</ele>
        <time>2019-02-24T13:46:52Z</time>
      </trkpt>
      <trkpt lat="45.34675" lon="5.53157">
        <ele>435.548</ele>
        <time>2019-02-24T13:47:02Z</time>
      </trkpt>
      <trkpt lat="45.34684" lon="5.53212">
        <ele>434.966</ele>
        <time>2019-02-24T13:47:13Z</time>
      </trkpt>
      <trkpt lat="45.34691" lon="5.53248">
        <ele>434.54</ele>
        <time>2019-02-24T13:47:23Z</time>
      </trkpt>
      <trkpt lat="45.34691" lon="5.53248">
        <ele>434.445</ele>
        <time>2019-02-24T13:47:34Z</time>
      </trkpt>
      <trkpt lat="45.34691" lon="5.53248">
        <ele>434.556</ele>
        <time>2019-02-24T13:47:45Z</time>
      </trkpt>
      <trkpt lat="45.34691" lon="5.53255">
        <ele>434.69</ele>
        <time>2019-02-24T13:47:56Z</time>
      </trkpt>
      <trkpt lat="45.34691" lon="5.53255">
        <ele>434.781</ele>
        <time>2019-02-24T13:48:06Z</time>
      </trkpt>
      <trkpt lat="45.34691" lon="5.53255">
        <ele>434.877</ele>
        <time>2019-02-24T13:48:17Z</time>
      </trkpt>
      <trkpt lat="45.34689" lon="5.53255">
        <ele>434.989</ele>
        <time>2019-02-24T13:48:27Z</time>
      </trkpt>
      <trkpt lat="45.34689" lon="5.53256">
        <ele>435.165</ele>
        <time>2019-02-24T13:48:37Z</time>
      </trkpt>
      <trkpt lat="45.34692" lon="5.53257">
        <ele>436.336</ele>
        <time>2019-02-24T13:48:48Z</time>
      </trkpt>
      <trkpt lat="45.34717" lon="5.53272">
        <ele>437.546</ele>
        <time>2019-02-24T13:48:58Z</time>
      </trkpt>
      <trkpt lat="45.34747" lon="5.53297">
        <ele>439.013</ele>
        <time>2019-02-24T13:49:08Z</time>
      </trkpt>
      <trkpt lat="45.34783" lon="5.53335">
        <ele>440.633</ele>
        <time>2019-02-24T13:49:19Z</time>
      </trkpt>
      <trkpt lat="45.34819" lon="5.53385">
        <ele>442.227</ele>
        <time>2019-02-24T13:49:30Z</time>
      </trkpt>
      <trkpt lat="45.34863" lon="5.53451">
        <ele>440.367</ele>
        <time>2019-02-24T13:49:40Z</time>
      </trkpt>
      <trkpt lat="45.34921" lon="5.53549">
        <ele>439.775</ele>
        <time>2019-02-24T13:49:51Z</time>
      </trkpt>
      <trkpt lat="45.34979" lon="5.53569">
        <ele>438.516</ele>
        <time>2019-02-24T13:50:02Z</time>
      </trkpt>
      <trkpt lat="45.35041" lon="5.53578">
        <ele>434.631</ele>
        <time>2019-02-24T13:50:13Z</time>
      </trkpt>
      <trkpt lat="45.35085" lon="5.5361">
        <ele>431.734</ele>
        <time>2019-02-24T13:50:23Z</time>
      </trkpt>
      <trkpt lat="45.35129" lon="5.53629">
        <ele>431.495</ele>
        <time>2019-02-24T13:50:34Z</time>
      </trkpt>
      <trkpt lat="45.35157" lon="5.5364">
        <ele>430.612</ele>
        <time>2019-02-24T13:50:45Z</time>
      </trkpt>
      <trkpt lat="45.35193" lon="5.53671">
        <ele>425.504</ele>
        <time>2019-02-24T13:50:55Z</time>
      </trkpt>
      <trkpt lat="45.35233" lon="5.53746">
        <ele>419.51</ele>
        <time>2019-02-24T13:51:06Z</time>
      </trkpt>
      <trkpt lat="45.35276" lon="5.53819">
        <ele>413.866</ele>
        <time>2019-02-24T13:51:16Z</time>
      </trkpt>
      <trkpt lat="45.35288" lon="5.53917">
        <ele>412.425</ele>
        <time>2019-02-24T13:51:27Z</time>
      </trkpt>
      <trkpt lat="45.3531" lon="5.54011">
        <ele>413.245</ele>
        <time>2019-02-24T13:51:37Z</time>
      </trkpt>
      <trkpt lat="45.35335" lon="5.54113">
        <ele>414.674</ele>
        <time>2019-02-24T13:51:48Z</time>
      </trkpt>
      <trkpt lat="45.35381" lon="5.542">
        <ele>420.251</ele>
        <time>2019-02-24T13:51:59Z</time>
      </trkpt>
      <trkpt lat="45.3541" lon="5.54295">
        <ele>414.527</ele>
        <time>2019-02-24T13:52:10Z</time>
      </trkpt>
      <trkpt lat="45.35432" lon="5.54402">
        <ele>410.077</ele>
        <time>2019-02-24T13:52:21Z</time>
      </trkpt>
      <trkpt lat="45.3544" lon="5.54499">
        <ele>414.16</ele>
        <time>2019-02-24T13:52:31Z</time>
      </trkpt>
      <trkpt lat="45.35442" lon="5.546">
        <ele>418.586</ele>
        <time>2019-02-24T13:52:41Z</time>
      </trkpt>
      <trkpt lat="45.35459" lon="5.54711">
        <ele>416.613</ele>
        <time>2019-02-24T13:52:52Z</time>
      </trkpt>
      <trkpt lat="45.35476" lon="5.54792">
        <ele>415.271</ele>
        <time>2019-02-24T13:53:03Z</time>
      </trkpt>
      <trkpt lat="45.35512" lon="5.54858">
        <ele>417.243</ele>
        <time>2019-02-24T13:53:13Z</time>
      </trkpt>
      <trkpt lat="45.35553" lon="5.54942">
        <ele>416.929</ele>
        <time>2019-02-24T13:53:24Z</time>
      </trkpt>
      <trkpt lat="45.35564" lon="5.54975">
        <ele>417.18</ele>
        <time>2019-02-24T13:53:35Z</time>
      </trkpt>
      <trkpt lat="45.35564" lon="5.54975">
        <ele>417.207</ele>
        <time>2019-02-24T13:53:46Z</time>
      </trkpt>
      <trkpt lat="45.35564" lon="5.54975">
        <ele>417.258</ele>
        <time>2019-02-24T13:53:56Z</time>
      </trkpt>
      <trkpt lat="45.35564" lon="5.54975">
        <ele>417.308</ele>
        <time>2019-02-24T13:54:07Z</time>
      </trkpt>
      <trkpt lat="45.35564" lon="5.54975">
        <ele>417.335</ele>
        <time>2019-02-24T13:54:17Z</time>
      </trkpt>
      <trkpt lat="45.35564" lon="5.54975">
        <ele>417.332</ele>
        <time>2019-02-24T13:54:28Z</time>
      </trkpt>
      <trkpt lat="45.35561" lon="5.54984">
        <ele>417.201</ele>
        <time>2019-02-24T13:54:39Z</time>
      </trkpt>
      <trkpt lat="45.35567" lon="5.5504">
        <ele>413.819</ele>
        <time>2019-02-24T13:54:50Z</time>
      </trkpt>
      <trkpt lat="45.35565" lon="5.55132">
        <ele>404.157</ele>
        <time>2019-02-24T13:55:01Z</time>
      </trkpt>
      <trkpt lat="45.35578" lon="5.55212">
        <ele>402.283</ele>
        <time>2019-02-24T13:55:11Z</time>
      </trkpt>
      <trkpt lat="45.35592" lon="5.55303">
        <ele>400.947</ele>
        <time>2019-02-24T13:55:22Z</time>
      </trkpt>
      <trkpt lat="45.35604" lon="5.55376">
        <ele>400.08</ele>
        <time>2019-02-24T13:55:33Z</time>
      </trkpt>
      <trkpt lat="45.35616" lon="5.55441">
        <ele>402.743</ele>
        <time>2019-02-24T13:55:44Z</time>
      </trkpt>
      <trkpt lat="45.35637" lon="5.55512">
        <ele>404.027</ele>
        <time>2019-02-24T13:55:55Z</time>
      </trkpt>
      <trkpt lat="45.35675" lon="5.55587">
        <ele>397.889</ele>
        <time>2019-02-24T13:56:06Z</time>
      </trkpt>
      <trkpt lat="45.35669" lon="5.55694">
        <ele>393.279</ele>
        <time>2019-02-24T13:56:17Z</time>
      </trkpt>
      <trkpt lat="45.35719" lon="5.55788">
        <ele>384.743</ele>
        <time>2019-02-24T13:56:28Z</time>
      </trkpt>
      <trkpt lat="45.3572" lon="5.55838">
        <ele>385.531</ele>
        <time>2019-02-24T13:56:38Z</time>
      </trkpt>
      <trkpt lat="45.35731" lon="5.55878">
        <ele>387.412</ele>
        <time>2019-02-24T13:56:49Z</time>
      </trkpt>
      <trkpt lat="45.35753" lon="5.55894">
        <ele>389.892</ele>
        <time>2019-02-24T13:57:00Z</time>
      </trkpt>
      <trkpt lat="45.3576" lon="5.55924">
        <ele>391.647</ele>
        <time>2019-02-24T13:57:11Z</time>
      </trkpt>
      <trkpt lat="45.35772" lon="5.55954">
        <ele>392.967</ele>
        <time>2019-02-24T13:57:21Z</time>
      </trkpt>
      <trkpt lat="45.35781" lon="5.55989">
        <ele>393.881</ele>
        <time>2019-02-24T13:57:31Z</time>
      </trkpt>
      <trkpt lat="45.35797" lon="5.56015">
        <ele>395.015</ele>
        <time>2019-02-24T13:57:42Z</time>
      </trkpt>
      <trkpt lat="45.35797" lon="5.56017">
        <ele>395.441</ele>
        <time>2019-02-24T13:57:52Z</time>
      </trkpt>
      <trkpt lat="45.35801" lon="5.56029">
        <ele>395.824</ele>
        <time>2019-02-24T13:58:03Z</time>
      </trkpt>
      <trkpt lat="45.35801" lon="5.56029">
        <ele>396.285</ele>
        <time>2019-02-24T13:58:14Z</time>
      </trkpt>
      <trkpt lat="45.35801" lon="5.56029">
        <ele>397.438</ele>
        <time>2019-02-24T13:58:25Z</time>
      </trkpt>
      <trkpt lat="45.35805" lon="5.5603">
        <ele>398.291</ele>
        <time>2019-02-24T13:58:35Z</time>
      </trkpt>
      <trkpt lat="45.35814" lon="5.56062">
        <ele>401.236</ele>
        <time>2019-02-24T13:58:45Z</time>
      </trkpt>
      <trkpt lat="45.35826" lon="5.56115">
        <ele>405.511</ele>
        <time>2019-02-24T13:58:56Z</time>
      </trkpt>
      <trkpt lat="45.35831" lon="5.56187">
        <ele>408.9</ele>
        <time>2019-02-24T13:59:07Z</time>
      </trkpt>
      <trkpt lat="45.35841" lon="5.56298">
        <ele>408.889</ele>
        <time>2019-02-24T13:59:18Z</time>
      </trkpt>
      <trkpt lat="45.35859" lon="5.56395">
        <ele>402.827</ele>
        <time>2019-02-24T13:59:28Z</time>
      </trkpt>
      <trkpt lat="45.35889" lon="5.56496">
        <ele>401.174</ele>
        <time>2019-02-24T13:59:39Z</time>
      </trkpt>
      <trkpt lat="45.35919" lon="5.56594">
        <ele>403.597</ele>
        <time>2019-02-24T13:59:50Z</time>
      </trkpt>
      <trkpt lat="45.35948" lon="5.56683">
        <ele>407.909</ele>
        <time>2019-02-24T14:00:01Z</time>
      </trkpt>
      <trkpt lat="45.35967" lon="5.56758">
        <ele>411.002</ele>
        <time>2019-02-24T14:00:11Z</time>
      </trkpt>
      <trkpt lat="45.35961" lon="5.56825">
        <ele>412.606</ele>
        <time>2019-02-24T14:00:22Z</time>
      </trkpt>
      <trkpt lat="45.35992" lon="5.56879">
        <ele>409.193</ele>
        <time>2019-02-24T14:00:33Z</time>
      </trkpt>
      <trkpt lat="45.36041" lon="5.56908">
        <ele>409.586</ele>
        <time>2019-02-24T14:00:44Z</time>
      </trkpt>
      <trkpt lat="45.36077" lon="5.5696">
        <ele>411.334</ele>
        <time>2019-02-24T14:00:54Z</time>
      </trkpt>
      <trkpt lat="45.36108" lon="5.57035">
        <ele>409.166</ele>
        <time>2019-02-24T14:01:05Z</time>
      </trkpt>
      <trkpt lat="45.36119" lon="5.57118">
        <ele>410.639</ele>
        <time>2019-02-24T14:01:15Z</time>
      </trkpt>
      <trkpt lat="45.36137" lon="5.57209">
        <ele>411.696</ele>
        <time>2019-02-24T14:01:26Z</time>
      </trkpt>
      <trkpt lat="45.36172" lon="5.57312">
        <ele>412.681</ele>
        <time>2019-02-24T14:01:37Z</time>
      </trkpt>
      <trkpt lat="45.3621" lon="5.57401">
        <ele>411.667</ele>
        <time>2019-02-24T14:01:47Z</time>
      </trkpt>
      <trkpt lat="45.36277" lon="5.57483">
        <ele>406.82</ele>
        <time>2019-02-24T14:01:58Z</time>
      </trkpt>
      <trkpt lat="45.36358" lon="5.57579">
        <ele>404.376</ele>
        <time>2019-02-24T14:02:09Z</time>
      </trkpt>
      <trkpt lat="45.36393" lon="5.57708">
        <ele>399.803</ele>
        <time>2019-02-24T14:02:19Z</time>
      </trkpt>
      <trkpt lat="45.36451" lon="5.57827">
        <ele>402.609</ele>
        <time>2019-02-24T14:02:29Z</time>
      </trkpt>
      <trkpt lat="45.36523" lon="5.57938">
        <ele>401.515</ele>
        <time>2019-02-24T14:02:40Z</time>
      </trkpt>
      <trkpt lat="45.36608" lon="5.58004">
        <ele>393.253</ele>
        <time>2019-02-24T14:02:50Z</time>
      </trkpt>
      <trkpt lat="45.36631" lon="5.5812">
        <ele>395.721</ele>
        <time>2019-02-24T14:03:01Z</time>
      </trkpt>
      <trkpt lat="45.36634" lon="5.58138">
        <ele>394.058</ele>
        <time>2019-02-24T14:03:12Z</time>
      </trkpt>
      <trkpt lat="45.36634" lon="5.58138">
        <ele>392.395</ele>
        <time>2019-02-24T14:03:22Z</time>
      </trkpt>
      <trkpt lat="45.36626" lon="5.58131">
        <ele>391.733</ele>
        <time>2019-02-24T14:03:33Z</time>
      </trkpt>
      <trkpt lat="45.36626" lon="5.58131">
        <ele>391.058</ele>
        <time>2019-02-24T14:03:44Z</time>
      </trkpt>
      <trkpt lat="45.36626" lon="5.58131">
        <ele>389.898</ele>
        <time>2019-02-24T14:03:55Z</time>
      </trkpt>
      <trkpt lat="45.36634" lon="5.58156">
        <ele>374.038</ele>
        <time>2019-02-24T14:04:05Z</time>
      </trkpt>
      <trkpt lat="45.36656" lon="5.58238">
        <ele>362.82</ele>
        <time>2019-02-24T14:04:16Z</time>
      </trkpt>
      <trkpt lat="45.36677" lon="5.58331">
        <ele>358.208</ele>
        <time>2019-02-24T14:04:27Z</time>
      </trkpt>
      <trkpt lat="45.3669" lon="5.58388">
        <ele>356.928</ele>
        <time>2019-02-24T14:04:38Z</time>
      </trkpt>
      <trkpt lat="45.36698" lon="5.58446">
        <ele>352.075</ele>
        <time>2019-02-24T14:04:48Z</time>
      </trkpt>
      <trkpt lat="45.36697" lon="5.58511">
        <ele>343.7</ele>
        <time>2019-02-24T14:04:58Z</time>
      </trkpt>
      <trkpt lat="45.36712" lon="5.58581">
        <ele>336.866</ele>
        <time>2019-02-24T14:05:09Z</time>
      </trkpt>
      <trkpt lat="45.36692" lon="5.58692">
        <ele>340.246</ele>
        <time>2019-02-24T14:05:20Z</time>
      </trkpt>
      <trkpt lat="45.36686" lon="5.58754">
        <ele>344.072</ele>
        <time>2019-02-24T14:05:30Z</time>
      </trkpt>
      <trkpt lat="45.36689" lon="5.58834">
        <ele>342.422</ele>
        <time>2019-02-24T14:05:41Z</time>
      </trkpt>
      <trkpt lat="45.36717" lon="5.58883">
        <ele>339.862</ele>
        <time>2019-02-24T14:05:52Z</time>
      </trkpt>
      <trkpt lat="45.3675" lon="5.58911">
        <ele>329.253</ele>
        <time>2019-02-24T14:06:03Z</time>
      </trkpt>
      <trkpt lat="45.36753" lon="5.5893">
        <ele>328.045</ele>
        <time>2019-02-24T14:06:14Z</time>
      </trkpt>
      <trkpt lat="45.36733" lon="5.58998">
        <ele>320.71</ele>
        <time>2019-02-24T14:06:24Z</time>
      </trkpt>
      <trkpt lat="45.36707" lon="5.5907">
        <ele>314.471</ele>
        <time>2019-02-24T14:06:34Z</time>
      </trkpt>
      <trkpt lat="45.36701" lon="5.59104">
        <ele>318.705</ele>
        <time>2019-02-24T14:06:45Z</time>
      </trkpt>
      <trkpt lat="45.36701" lon="5.59104">
        <ele>319.212</ele>
        <time>2019-02-24T14:06:55Z</time>
      </trkpt>
      <trkpt lat="45.36701" lon="5.59104">
        <ele>319.52</ele>
        <time>2019-02-24T14:07:06Z</time>
      </trkpt>
      <trkpt lat="45.36701" lon="5.59104">
        <ele>319.891</ele>
        <time>2019-02-24T14:07:17Z</time>
      </trkpt>
      <trkpt lat="45.36701" lon="5.59104">
        <ele>320.233</ele>
        <time>2019-02-24T14:07:27Z</time>
      </trkpt>
      <trkpt lat="45.36699" lon="5.59117">
        <ele>320.413</ele>
        <time>2019-02-24T14:07:38Z</time>
      </trkpt>
      <trkpt lat="45.36699" lon="5.59117">
        <ele>320.874</ele>
        <time>2019-02-24T14:07:49Z</time>
      </trkpt>
      <trkpt lat="45.36695" lon="5.59133">
        <ele>321.628</ele>
        <time>2019-02-24T14:08:00Z</time>
      </trkpt>
      <trkpt lat="45.36705" lon="5.59148">
        <ele>324.85</ele>
        <time>2019-02-24T14:08:11Z</time>
      </trkpt>
      <trkpt lat="45.36706" lon="5.59149">
        <ele>325.981</ele>
        <time>2019-02-24T14:08:21Z</time>
      </trkpt>
      <trkpt lat="45.36706" lon="5.59149">
        <ele>326.69</ele>
        <time>2019-02-24T14:08:32Z</time>
      </trkpt>
      <trkpt lat="45.36706" lon="5.59149">
        <ele>326.967</ele>
        <time>2019-02-24T14:08:43Z</time>
      </trkpt>
      <trkpt lat="45.36706" lon="5.59149">
        <ele>327.832</ele>
        <time>2019-02-24T14:08:54Z</time>
      </trkpt>
      <trkpt lat="45.36706" lon="5.59149">
        <ele>328.075</ele>
        <time>2019-02-24T14:09:05Z</time>
      </trkpt>
      <trkpt lat="45.36706" lon="5.59149">
        <ele>328.326</ele>
        <time>2019-02-24T14:09:16Z</time>
      </trkpt>
      <trkpt lat="45.3671" lon="5.59144">
        <ele>328.58</ele>
        <time>2019-02-24T14:09:27Z</time>
      </trkpt>
      <trkpt lat="45.3671" lon="5.59144">
        <ele>328.803</ele>
        <time>2019-02-24T14:09:38Z</time>
      </trkpt>
      <trkpt lat="45.36711" lon="5.59143">
        <ele>329.069</ele>
        <time>2019-02-24T14:09:49Z</time>
      </trkpt>
      <trkpt lat="45.36711" lon="5.59143">
        <ele>329.308</ele>
        <time>2019-02-24T14:09:59Z</time>
      </trkpt>
      <trkpt lat="45.36711" lon="5.59143">
        <ele>329.643</ele>
        <time>2019-02-24T14:10:10Z</time>
      </trkpt>
      <trkpt lat="45.36711" lon="5.59143">
        <ele>329.973</ele>
        <time>2019-02-24T14:10:20Z</time>
      </trkpt>
      <trkpt lat="45.36711" lon="5.59143">
        <ele>330.319</ele>
        <time>2019-02-24T14:10:30Z</time>
      </trkpt>
      <trkpt lat="45.36711" lon="5.59143">
        <ele>330.621</ele>
        <time>2019-02-24T14:10:40Z</time>
      </trkpt>
      <trkpt lat="45.36711" lon="5.59143">
        <ele>330.871</ele>
        <time>2019-02-24T14:10:50Z</time>
      </trkpt>
      <trkpt lat="45.36711" lon="5.59143">
        <ele>331.089</ele>
        <time>2019-02-24T14:11:01Z</time>
      </trkpt>
      <trkpt lat="45.36711" lon="5.59143">
        <ele>331.257</ele>
        <time>2019-02-24T14:11:11Z</time>
      </trkpt>
      <trkpt lat="45.36711" lon="5.59143">
        <ele>331.436</ele>
        <time>2019-02-24T14:11:22Z</time>
      </trkpt>
      <trkpt lat="45.36711" lon="5.59143">
        <ele>331.636</ele>
        <time>2019-02-24T14:11:33Z</time>
      </trkpt>
      <trkpt lat="45.36711" lon="5.59143">
        <ele>331.842</ele>
        <time>2019-02-24T14:11:44Z</time>
      </trkpt>
      <trkpt lat="45.36711" lon="5.59143">
        <ele>332.027</ele>
        <time>2019-02-24T14:11:54Z</time>
      </trkpt>
      <trkpt lat="45.36711" lon="5.59143">
        <ele>332.207</ele>
        <time>2019-02-24T14:12:05Z</time>
      </trkpt>
      <trkpt lat="45.3671" lon="5.59143">
        <ele>332.36</ele>
        <time>2019-02-24T14:12:16Z</time>
      </trkpt>
      <trkpt lat="45.3671" lon="5.59143">
        <ele>332.542</ele>
        <time>2019-02-24T14:12:27Z</time>
      </trkpt>
      <trkpt lat="45.36709" lon="5.59143">
        <ele>332.757</ele>
        <time>2019-02-24T14:12:37Z</time>
      </trkpt>
      <trkpt lat="45.36709" lon="5.59143">
        <ele>333.221</ele>
        <time>2019-02-24T14:12:48Z</time>
      </trkpt>
      <trkpt lat="45.36708" lon="5.59145">
        <ele>333.63</ele>
        <time>2019-02-24T14:12:58Z</time>
      </trkpt>
      <trkpt lat="45.3671" lon="5.59149">
        <ele>334.303</ele>
        <time>2019-02-24T14:13:08Z</time>
      </trkpt>
      <trkpt lat="45.36701" lon="5.59156">
        <ele>335.023</ele>
        <time>2019-02-24T14:13:19Z</time>
      </trkpt>
      <trkpt lat="45.3669" lon="5.59171">
        <ele>335.503</ele>
        <time>2019-02-24T14:13:29Z</time>
      </trkpt>
      <trkpt lat="45.36677" lon="5.59219">
        <ele>336.223</ele>
        <time>2019-02-24T14:13:40Z</time>
      </trkpt>
      <trkpt lat="45.3668" lon="5.59271">
        <ele>335.068</ele>
        <time>2019-02-24T14:13:51Z</time>
      </trkpt>
      <trkpt lat="45.36647" lon="5.59299">
        <ele>335.394</ele>
        <time>2019-02-24T14:14:01Z</time>
      </trkpt>
      <trkpt lat="45.36603" lon="5.59296">
        <ele>335.835</ele>
        <time>2019-02-24T14:14:12Z</time>
      </trkpt>
      <trkpt lat="45.36556" lon="5.59291">
        <ele>335.087</ele>
        <time>2019-02-24T14:14:23Z</time>
      </trkpt>
      <trkpt lat="45.36541" lon="5.59291">
        <ele>333.934</ele>
        <time>2019-02-24T14:14:34Z</time>
      </trkpt>
      <trkpt lat="45.36526" lon="5.59294">
        <ele>333.605</ele>
        <time>2019-02-24T14:14:45Z</time>
      </trkpt>
      <trkpt lat="45.36511" lon="5.59333">
        <ele>333.419</ele>
        <time>2019-02-24T14:14:55Z</time>
      </trkpt>
      <trkpt lat="45.36497" lon="5.59379">
        <ele>333.171</ele>
        <time>2019-02-24T14:15:06Z</time>
      </trkpt>
      <trkpt lat="45.36479" lon="5.59433">
        <ele>333.011</ele>
        <time>2019-02-24T14:15:17Z</time>
      </trkpt>
      <trkpt lat="45.36469" lon="5.59446">
        <ele>333.153</ele>
        <time>2019-02-24T14:15:28Z</time>
      </trkpt>
      <trkpt lat="45.36466" lon="5.59449">
        <ele>333.142</ele>
        <time>2019-02-24T14:15:39Z</time>
      </trkpt>
      <trkpt lat="45.36465" lon="5.59449">
        <ele>333.15</ele>
        <time>2019-02-24T14:15:50Z</time>
      </trkpt>
      <trkpt lat="45.36465" lon="5.59449">
        <ele>333.191</ele>
        <time>2019-02-24T14:16:00Z</time>
      </trkpt>
      <trkpt lat="45.36465" lon="5.59449">
        <ele>333.26</ele>
        <time>2019-02-24T14:16:11Z</time>
      </trkpt>
      <trkpt lat="45.36465" lon="5.5945">
        <ele>333.267</ele>
        <time>2019-02-24T14:16:22Z</time>
      </trkpt>
      <trkpt lat="45.36459" lon="5.59459">
        <ele>333.249</ele>
        <time>2019-02-24T14:16:32Z</time>
      </trkpt>
      <trkpt lat="45.36438" lon="5.59515">
        <ele>333.521</ele>
        <time>2019-02-24T14:16:43Z</time>
      </trkpt>
      <trkpt lat="45.36404" lon="5.5958">
        <ele>337.314</ele>
        <time>2019-02-24T14:16:53Z</time>
      </trkpt>
      <trkpt lat="45.36366" lon="5.5965">
        <ele>338.616</ele>
        <time>2019-02-24T14:17:04Z</time>
      </trkpt>
      <trkpt lat="45.36349" lon="5.59712">
        <ele>335.465</ele>
        <time>2019-02-24T14:17:15Z</time>
      </trkpt>
      <trkpt lat="45.36376" lon="5.59772">
        <ele>328.884</ele>
        <time>2019-02-24T14:17:25Z</time>
      </trkpt>
      <trkpt lat="45.3635" lon="5.59823">
        <ele>324.13</ele>
        <time>2019-02-24T14:17:36Z</time>
      </trkpt>
      <trkpt lat="45.36315" lon="5.59864">
        <ele>323.254</ele>
        <time>2019-02-24T14:17:46Z</time>
      </trkpt>
      <trkpt lat="45.36283" lon="5.59927">
        <ele>329.703</ele>
        <time>2019-02-24T14:17:57Z</time>
      </trkpt>
      <trkpt lat="45.36262" lon="5.59997">
        <ele>332.352</ele>
        <time>2019-02-24T14:18:08Z</time>
      </trkpt>
      <trkpt lat="45.36241" lon="5.60044">
        <ele>336.098</ele>
        <time>2019-02-24T14:18:18Z</time>
      </trkpt>
      <trkpt lat="45.3622" lon="5.60098">
        <ele>336.455</ele>
        <time>2019-02-24T14:18:29Z</time>
      </trkpt>
      <trkpt lat="45.36202" lon="5.60146">
        <ele>336.956</ele>
        <time>2019-02-24T14:18:39Z</time>
      </trkpt>
      <trkpt lat="45.36189" lon="5.60197">
        <ele>338.047</ele>
        <time>2019-02-24T14:18:49Z</time>
      </trkpt>
      <trkpt lat="45.36174" lon="5.60256">
        <ele>337.75</ele>
        <time>2019-02-24T14:18:59Z</time>
      </trkpt>
      <trkpt lat="45.36174" lon="5.60322">
        <ele>338.728</ele>
        <time>2019-02-24T14:19:10Z</time>
      </trkpt>
      <trkpt lat="45.36177" lon="5.60382">
        <ele>340.111</ele>
        <time>2019-02-24T14:19:20Z</time>
      </trkpt>
      <trkpt lat="45.36166" lon="5.60428">
        <ele>340.412</ele>
        <time>2019-02-24T14:19:30Z</time>
      </trkpt>
      <trkpt lat="45.36153" lon="5.6045">
        <ele>340.993</ele>
        <time>2019-02-24T14:19:41Z</time>
      </trkpt>
      <trkpt lat="45.3615" lon="5.60454">
        <ele>342.071</ele>
        <time>2019-02-24T14:19:51Z</time>
      </trkpt>
      <trkpt lat="45.36144" lon="5.6046">
        <ele>343.583</ele>
        <time>2019-02-24T14:20:01Z</time>
      </trkpt>
      <trkpt lat="45.36129" lon="5.60472">
        <ele>345.031</ele>
        <time>2019-02-24T14:20:12Z</time>
      </trkpt>
      <trkpt lat="45.36107" lon="5.60492">
        <ele>346.286</ele>
        <time>2019-02-24T14:20:23Z</time>
      </trkpt>
      <trkpt lat="45.36081" lon="5.60516">
        <ele>347.404</ele>
        <time>2019-02-24T14:20:33Z</time>
      </trkpt>
      <trkpt lat="45.36048" lon="5.60545">
        <ele>348.334</ele>
        <time>2019-02-24T14:20:44Z</time>
      </trkpt>
      <trkpt lat="45.3602" lon="5.60567">
        <ele>347.804</ele>
        <time>2019-02-24T14:20:54Z</time>
      </trkpt>
      <trkpt lat="45.35983" lon="5.60595">
        <ele>344.194</ele>
        <time>2019-02-24T14:21:05Z</time>
      </trkpt>
      <trkpt lat="45.35945" lon="5.60635">
        <ele>339.119</ele>
        <time>2019-02-24T14:21:16Z</time>
      </trkpt>
      <trkpt lat="45.35905" lon="5.60681">
        <ele>337.269</ele>
        <time>2019-02-24T14:21:27Z</time>
      </trkpt>
      <trkpt lat="45.35865" lon="5.60724">
        <ele>338.688</ele>
        <time>2019-02-24T14:21:37Z</time>
      </trkpt>
      <trkpt lat="45.35825" lon="5.60778">
        <ele>342.186</ele>
        <time>2019-02-24T14:21:48Z</time>
      </trkpt>
      <trkpt lat="45.3579" lon="5.60827">
        <ele>346.803</ele>
        <time>2019-02-24T14:21:58Z</time>
      </trkpt>
      <trkpt lat="45.35755" lon="5.60871">
        <ele>349.447</ele>
        <time>2019-02-24T14:22:08Z</time>
      </trkpt>
      <trkpt lat="45.35717" lon="5.60922">
        <ele>352.622</ele>
        <time>2019-02-24T14:22:19Z</time>
      </trkpt>
      <trkpt lat="45.35686" lon="5.60972">
        <ele>353.108</ele>
        <time>2019-02-24T14:22:29Z</time>
      </trkpt>
      <trkpt lat="45.35655" lon="5.6103">
        <ele>352.262</ele>
        <time>2019-02-24T14:22:40Z</time>
      </trkpt>
      <trkpt lat="45.35627" lon="5.61065">
        <ele>352.723</ele>
        <time>2019-02-24T14:22:50Z</time>
      </trkpt>
      <trkpt lat="45.35602" lon="5.61087">
        <ele>352.348</ele>
        <time>2019-02-24T14:23:01Z</time>
      </trkpt>
      <trkpt lat="45.35603" lon="5.61106">
        <ele>352.429</ele>
        <time>2019-02-24T14:23:11Z</time>
      </trkpt>
      <trkpt lat="45.35603" lon="5.61106">
        <ele>352.541</ele>
        <time>2019-02-24T14:23:22Z</time>
      </trkpt>
      <trkpt lat="45.35603" lon="5.61106">
        <ele>352.751</ele>
        <time>2019-02-24T14:23:33Z</time>
      </trkpt>
      <trkpt lat="45.35603" lon="5.61106">
        <ele>352.918</ele>
        <time>2019-02-24T14:23:44Z</time>
      </trkpt>
      <trkpt lat="45.35604" lon="5.61105">
        <ele>353.538</ele>
        <time>2019-02-24T14:23:55Z</time>
      </trkpt>
      <trkpt lat="45.35605" lon="5.6111">
        <ele>354.022</ele>
        <time>2019-02-24T14:24:06Z</time>
      </trkpt>
      <trkpt lat="45.35592" lon="5.61146">
        <ele>354.911</ele>
        <time>2019-02-24T14:24:16Z</time>
      </trkpt>
      <trkpt lat="45.35567" lon="5.61189">
        <ele>355.976</ele>
        <time>2019-02-24T14:24:27Z</time>
      </trkpt>
      <trkpt lat="45.3554" lon="5.61226">
        <ele>357.176</ele>
        <time>2019-02-24T14:24:37Z</time>
      </trkpt>
      <trkpt lat="45.35512" lon="5.61265">
        <ele>359.092</ele>
        <time>2019-02-24T14:24:48Z</time>
      </trkpt>
      <trkpt lat="45.35493" lon="5.61317">
        <ele>359.909</ele>
        <time>2019-02-24T14:24:59Z</time>
      </trkpt>
      <trkpt lat="45.35484" lon="5.61368">
        <ele>361.047</ele>
        <time>2019-02-24T14:25:09Z</time>
      </trkpt>
      <trkpt lat="45.35476" lon="5.61409">
        <ele>362.779</ele>
        <time>2019-02-24T14:25:20Z</time>
      </trkpt>
      <trkpt lat="45.3547" lon="5.61453">
        <ele>363.778</ele>
        <time>2019-02-24T14:25:31Z</time>
      </trkpt>
      <trkpt lat="45.3546" lon="5.61495">
        <ele>365.343</ele>
        <time>2019-02-24T14:25:42Z</time>
      </trkpt>
      <trkpt lat="45.35469" lon="5.61528">
        <ele>366.835</ele>
        <time>2019-02-24T14:25:52Z</time>
      </trkpt>
      <trkpt lat="45.35499" lon="5.61522">
        <ele>367.546</ele>
        <time>2019-02-24T14:26:03Z</time>
      </trkpt>
      <trkpt lat="45.35526" lon="5.61516">
        <ele>369.013</ele>
        <time>2019-02-24T14:26:14Z</time>
      </trkpt>
      <trkpt lat="45.3555" lon="5.61521">
        <ele>370.182</ele>
        <time>2019-02-24T14:26:24Z</time>
      </trkpt>
      <trkpt lat="45.35575" lon="5.61535">
        <ele>371.663</ele>
        <time>2019-02-24T14:26:35Z</time>
      </trkpt>
      <trkpt lat="45.35592" lon="5.61557">
        <ele>373.072</ele>
        <time>2019-02-24T14:26:45Z</time>
      </trkpt>
      <trkpt lat="45.35607" lon="5.61584">
        <ele>374.419</ele>
        <time>2019-02-24T14:26:56Z</time>
      </trkpt>
      <trkpt lat="45.35604" lon="5.61621">
        <ele>377.105</ele>
        <time>2019-02-24T14:27:07Z</time>
      </trkpt>
      <trkpt lat="45.35584" lon="5.61642">
        <ele>380.005</ele>
        <time>2019-02-24T14:27:17Z</time>
      </trkpt>
      <trkpt lat="45.3556" lon="5.61653">
        <ele>383.251</ele>
        <time>2019-02-24T14:27:28Z</time>
      </trkpt>
      <trkpt lat="45.35555" lon="5.61688">
        <ele>385.524</ele>
        <time>2019-02-24T14:27:38Z</time>
      </trkpt>
      <trkpt lat="45.35576" lon="5.61749">
        <ele>393.519</ele>
        <time>2019-02-24T14:27:48Z</time>
      </trkpt>
      <trkpt lat="45.35583" lon="5.61822">
        <ele>390.073</ele>
        <time>2019-02-24T14:27:59Z</time>
      </trkpt>
      <trkpt lat="45.35581" lon="5.61886">
        <ele>389.96</ele>
        <time>2019-02-24T14:28:09Z</time>
      </trkpt>
      <trkpt lat="45.3558" lon="5.61946">
        <ele>392.499</ele>
        <time>2019-02-24T14:28:20Z</time>
      </trkpt>
      <trkpt lat="45.35582" lon="5.62012">
        <ele>396.268</ele>
        <time>2019-02-24T14:28:31Z</time>
      </trkpt>
      <trkpt lat="45.35597" lon="5.62066">
        <ele>396.877</ele>
        <time>2019-02-24T14:28:42Z</time>
      </trkpt>
      <trkpt lat="45.35617" lon="5.62111">
        <ele>398.134</ele>
        <time>2019-02-24T14:28:53Z</time>
      </trkpt>
      <trkpt lat="45.35637" lon="5.62144">
        <ele>398.092</ele>
        <time>2019-02-24T14:29:03Z</time>
      </trkpt>
      <trkpt lat="45.35664" lon="5.62171">
        <ele>396.933</ele>
        <time>2019-02-24T14:29:14Z</time>
      </trkpt>
      <trkpt lat="45.35696" lon="5.62179">
        <ele>396.343</ele>
        <time>2019-02-24T14:29:24Z</time>
      </trkpt>
      <trkpt lat="45.35729" lon="5.62179">
        <ele>396.435</ele>
        <time>2019-02-24T14:29:34Z</time>
      </trkpt>
      <trkpt lat="45.35761" lon="5.62195">
        <ele>397.342</ele>
        <time>2019-02-24T14:29:45Z</time>
      </trkpt>
      <trkpt lat="45.35789" lon="5.62215">
        <ele>398.372</ele>
        <time>2019-02-24T14:29:56Z</time>
      </trkpt>
      <trkpt lat="45.35816" lon="5.62239">
        <ele>399.638</ele>
        <time>2019-02-24T14:30:07Z</time>
      </trkpt>
      <trkpt lat="45.35838" lon="5.6226">
        <ele>400.772</ele>
        <time>2019-02-24T14:30:17Z</time>
      </trkpt>
      <trkpt lat="45.35863" lon="5.62279">
        <ele>401.824</ele>
        <time>2019-02-24T14:30:27Z</time>
      </trkpt>
      <trkpt lat="45.35896" lon="5.62285">
        <ele>403.44</ele>
        <time>2019-02-24T14:30:38Z</time>
      </trkpt>
      <trkpt lat="45.35925" lon="5.62286">
        <ele>404.822</ele>
        <time>2019-02-24T14:30:48Z</time>
      </trkpt>
      <trkpt lat="45.35959" lon="5.62284">
        <ele>406.035</ele>
        <time>2019-02-24T14:30:59Z</time>
      </trkpt>
      <trkpt lat="45.3599" lon="5.62271">
        <ele>407.667</ele>
        <time>2019-02-24T14:31:10Z</time>
      </trkpt>
      <trkpt lat="45.36018" lon="5.6226">
        <ele>409.178</ele>
        <time>2019-02-24T14:31:20Z</time>
      </trkpt>
      <trkpt lat="45.36051" lon="5.62249">
        <ele>410.984</ele>
        <time>2019-02-24T14:31:31Z</time>
      </trkpt>
      <trkpt lat="45.36078" lon="5.62235">
        <ele>412.315</ele>
        <time>2019-02-24T14:31:41Z</time>
      </trkpt>
      <trkpt lat="45.3611" lon="5.62217">
        <ele>413.727</ele>
        <time>2019-02-24T14:31:52Z</time>
      </trkpt>
      <trkpt lat="45.36141" lon="5.62204">
        <ele>416.061</ele>
        <time>2019-02-24T14:32:02Z</time>
      </trkpt>
      <trkpt lat="45.36169" lon="5.62193">
        <ele>418.444</ele>
        <time>2019-02-24T14:32:13Z</time>
      </trkpt>
      <trkpt lat="45.36197" lon="5.62189">
        <ele>420.519</ele>
        <time>2019-02-24T14:32:23Z</time>
      </trkpt>
      <trkpt lat="45.36226" lon="5.62187">
        <ele>422.285</ele>
        <time>2019-02-24T14:32:34Z</time>
      </trkpt>
      <trkpt lat="45.36257" lon="5.62176">
        <ele>423.18</ele>
        <time>2019-02-24T14:32:45Z</time>
      </trkpt>
      <trkpt lat="45.36281" lon="5.62168">
        <ele>424.149</ele>
        <time>2019-02-24T14:32:55Z</time>
      </trkpt>
      <trkpt lat="45.36311" lon="5.62161">
        <ele>425.694</ele>
        <time>2019-02-24T14:33:05Z</time>
      </trkpt>
      <trkpt lat="45.36341" lon="5.62157">
        <ele>426.813</ele>
        <time>2019-02-24T14:33:16Z</time>
      </trkpt>
      <trkpt lat="45.36371" lon="5.62151">
        <ele>427.716</ele>
        <time>2019-02-24T14:33:26Z</time>
      </trkpt>
      <trkpt lat="45.36397" lon="5.62131">
        <ele>429.3</ele>
        <time>2019-02-24T14:33:36Z</time>
      </trkpt>
      <trkpt lat="45.36424" lon="5.62113">
        <ele>431.33</ele>
        <time>2019-02-24T14:33:47Z</time>
      </trkpt>
      <trkpt lat="45.36454" lon="5.62112">
        <ele>433.113</ele>
        <time>2019-02-24T14:33:58Z</time>
      </trkpt>
      <trkpt lat="45.36483" lon="5.6211">
        <ele>435.34</ele>
        <time>2019-02-24T14:34:09Z</time>
      </trkpt>
      <trkpt lat="45.36496" lon="5.62119">
        <ele>437.738</ele>
        <time>2019-02-24T14:34:19Z</time>
      </trkpt>
      <trkpt lat="45.36462" lon="5.62139">
        <ele>440.33</ele>
        <time>2019-02-24T14:34:30Z</time>
      </trkpt>
      <trkpt lat="45.36432" lon="5.62142">
        <ele>442.287</ele>
        <time>2019-02-24T14:34:41Z</time>
      </trkpt>
      <trkpt lat="45.36405" lon="5.62157">
        <ele>444.036</ele>
        <time>2019-02-24T14:34:51Z</time>
      </trkpt>
      <trkpt lat="45.36381" lon="5.62177">
        <ele>447.005</ele>
        <time>2019-02-24T14:35:01Z</time>
      </trkpt>
      <trkpt lat="45.36356" lon="5.62197">
        <ele>449.559</ele>
        <time>2019-02-24T14:35:12Z</time>
      </trkpt>
      <trkpt lat="45.36351" lon="5.62215">
        <ele>450.489</ele>
        <time>2019-02-24T14:35:22Z</time>
      </trkpt>
      <trkpt lat="45.3635" lon="5.62218">
        <ele>451.111</ele>
        <time>2019-02-24T14:35:33Z</time>
      </trkpt>
      <trkpt lat="45.36348" lon="5.62227">
        <ele>452.23</ele>
        <time>2019-02-24T14:35:44Z</time>
      </trkpt>
      <trkpt lat="45.36336" lon="5.62259">
        <ele>453.633</ele>
        <time>2019-02-24T14:35:55Z</time>
      </trkpt>
      <trkpt lat="45.36346" lon="5.62222">
        <ele>453.975</ele>
        <time>2019-02-24T14:36:06Z</time>
      </trkpt>
      <trkpt lat="45.36346" lon="5.62219">
        <ele>453.958</ele>
        <time>2019-02-24T14:36:16Z</time>
      </trkpt>
      <trkpt lat="45.36348" lon="5.62218">
        <ele>454.558</ele>
        <time>2019-02-24T14:36:27Z</time>
      </trkpt>
      <trkpt lat="45.36349" lon="5.62217">
        <ele>454.983</ele>
        <time>2019-02-24T14:36:37Z</time>
      </trkpt>
      <trkpt lat="45.36348" lon="5.62216">
        <ele>455.095</ele>
        <time>2019-02-24T14:36:48Z</time>
      </trkpt>
      <trkpt lat="45.36345" lon="5.62222">
        <ele>455.761</ele>
        <time>2019-02-24T14:36:58Z</time>
      </trkpt>
      <trkpt lat="45.36347" lon="5.62222">
        <ele>456.106</ele>
        <time>2019-02-24T14:37:08Z</time>
      </trkpt>
      <trkpt lat="45.36346" lon="5.62222">
        <ele>456.757</ele>
        <time>2019-02-24T14:37:19Z</time>
      </trkpt>
      <trkpt lat="45.36348" lon="5.6222">
        <ele>457.257</ele>
        <time>2019-02-24T14:37:29Z</time>
      </trkpt>
      <trkpt lat="45.36348" lon="5.62219">
        <ele>457.694</ele>
        <time>2019-02-24T14:37:40Z</time>
      </trkpt>
      <trkpt lat="45.36347" lon="5.62221">
        <ele>458.347</ele>
        <time>2019-02-24T14:37:51Z</time>
      </trkpt>
      <trkpt lat="45.36354" lon="5.62226">
        <ele>458.994</ele>
        <time>2019-02-24T14:38:02Z</time>
      </trkpt>
      <trkpt lat="45.36356" lon="5.62226">
        <ele>459.351</ele>
        <time>2019-02-24T14:38:13Z</time>
      </trkpt>
      <trkpt lat="45.36357" lon="5.62227">
        <ele>459.37</ele>
        <time>2019-02-24T14:38:23Z</time>
      </trkpt>
      <trkpt lat="45.36353" lon="5.62227">
        <ele>459.106</ele>
        <time>2019-02-24T14:38:33Z</time>
      </trkpt>
      <trkpt lat="45.36334" lon="5.62255">
        <ele>458.497</ele>
        <time>2019-02-24T14:38:44Z</time>
      </trkpt>
      <trkpt lat="45.36323" lon="5.623">
        <ele>455.553</ele>
        <time>2019-02-24T14:38:55Z</time>
      </trkpt>
      <trkpt lat="45.36305" lon="5.62328">
        <ele>453.966</ele>
        <time>2019-02-24T14:39:05Z</time>
      </trkpt>
      <trkpt lat="45.36285" lon="5.62359">
        <ele>454.156</ele>
        <time>2019-02-24T14:39:16Z</time>
      </trkpt>
      <trkpt lat="45.36263" lon="5.62395">
        <ele>454.068</ele>
        <time>2019-02-24T14:39:27Z</time>
      </trkpt>
      <trkpt lat="45.36241" lon="5.62421">
        <ele>453.199</ele>
        <time>2019-02-24T14:39:37Z</time>
      </trkpt>
      <trkpt lat="45.3621" lon="5.62436">
        <ele>451.319</ele>
        <time>2019-02-24T14:39:47Z</time>
      </trkpt>
      <trkpt lat="45.36179" lon="5.62451">
        <ele>449.864</ele>
        <time>2019-02-24T14:39:57Z</time>
      </trkpt>
      <trkpt lat="45.36147" lon="5.62467">
        <ele>448.033</ele>
        <time>2019-02-24T14:40:08Z</time>
      </trkpt>
      <trkpt lat="45.36111" lon="5.62492">
        <ele>443.141</ele>
        <time>2019-02-24T14:40:19Z</time>
      </trkpt>
      <trkpt lat="45.36077" lon="5.62533">
        <ele>438.721</ele>
        <time>2019-02-24T14:40:30Z</time>
      </trkpt>
      <trkpt lat="45.36052" lon="5.62586">
        <ele>438.202</ele>
        <time>2019-02-24T14:40:40Z</time>
      </trkpt>
      <trkpt lat="45.36033" lon="5.62652">
        <ele>436.86</ele>
        <time>2019-02-24T14:40:51Z</time>
      </trkpt>
      <trkpt lat="45.36017" lon="5.6272">
        <ele>443.427</ele>
        <time>2019-02-24T14:41:02Z</time>
      </trkpt>
      <trkpt lat="45.36007" lon="5.62771">
        <ele>443.11</ele>
        <time>2019-02-24T14:41:12Z</time>
      </trkpt>
      <trkpt lat="45.35999" lon="5.6283">
        <ele>444.089</ele>
        <time>2019-02-24T14:41:23Z</time>
      </trkpt>
      <trkpt lat="45.35988" lon="5.62878">
        <ele>445.094</ele>
        <time>2019-02-24T14:41:34Z</time>
      </trkpt>
      <trkpt lat="45.35982" lon="5.62915">
        <ele>447.604</ele>
        <time>2019-02-24T14:41:44Z</time>
      </trkpt>
      <trkpt lat="45.35966" lon="5.62955">
        <ele>449.32</ele>
        <time>2019-02-24T14:41:55Z</time>
      </trkpt>
      <trkpt lat="45.35949" lon="5.6298">
        <ele>450.352</ele>
        <time>2019-02-24T14:42:05Z</time>
      </trkpt>
      <trkpt lat="45.35929" lon="5.62997">
        <ele>450.917</ele>
        <time>2019-02-24T14:42:16Z</time>
      </trkpt>
      <trkpt lat="45.35912" lon="5.63009">
        <ele>451.261</ele>
        <time>2019-02-24T14:42:26Z</time>
      </trkpt>
      <trkpt lat="45.35892" lon="5.63034">
        <ele>452.977</ele>
        <time>2019-02-24T14:42:36Z</time>
      </trkpt>
      <trkpt lat="45.35873" lon="5.63048">
        <ele>454.278</ele>
        <time>2019-02-24T14:42:47Z</time>
      </trkpt>
      <trkpt lat="45.35854" lon="5.63069">
        <ele>454.627</ele>
        <time>2019-02-24T14:42:57Z</time>
      </trkpt>
      <trkpt lat="45.35829" lon="5.63084">
        <ele>454.512</ele>
        <time>2019-02-24T14:43:07Z</time>
      </trkpt>
      <trkpt lat="45.35804" lon="5.63089">
        <ele>453.601</ele>
        <time>2019-02-24T14:43:18Z</time>
      </trkpt>
      <trkpt lat="45.35785" lon="5.63091">
        <ele>452.7</ele>
        <time>2019-02-24T14:43:28Z</time>
      </trkpt>
      <trkpt lat="45.35769" lon="5.63084">
        <ele>451.435</ele>
        <time>2019-02-24T14:43:38Z</time>
      </trkpt>
      <trkpt lat="45.35744" lon="5.63075">
        <ele>449.163</ele>
        <time>2019-02-24T14:43:49Z</time>
      </trkpt>
      <trkpt lat="45.35722" lon="5.63066">
        <ele>446.469</ele>
        <time>2019-02-24T14:44:00Z</time>
      </trkpt>
      <trkpt lat="45.35711" lon="5.63067">
        <ele>443.677</ele>
        <time>2019-02-24T14:44:10Z</time>
      </trkpt>
      <trkpt lat="45.35688" lon="5.63066">
        <ele>440.597</ele>
        <time>2019-02-24T14:44:20Z</time>
      </trkpt>
      <trkpt lat="45.3565" lon="5.63056">
        <ele>437.628</ele>
        <time>2019-02-24T14:44:31Z</time>
      </trkpt>
      <trkpt lat="45.35619" lon="5.63044">
        <ele>435.328</ele>
        <time>2019-02-24T14:44:41Z</time>
      </trkpt>
      <trkpt lat="45.35601" lon="5.6304">
        <ele>434.4</ele>
        <time>2019-02-24T14:44:52Z</time>
      </trkpt>
      <trkpt lat="45.35563" lon="5.6303">
        <ele>435.404</ele>
        <time>2019-02-24T14:45:03Z</time>
      </trkpt>
      <trkpt lat="45.35535" lon="5.63016">
        <ele>438.065</ele>
        <time>2019-02-24T14:45:13Z</time>
      </trkpt>
      <trkpt lat="45.35502" lon="5.63011">
        <ele>440.901</ele>
        <time>2019-02-24T14:45:24Z</time>
      </trkpt>
      <trkpt lat="45.3547" lon="5.63002">
        <ele>444.466</ele>
        <time>2019-02-24T14:45:34Z</time>
      </trkpt>
      <trkpt lat="45.35454" lon="5.62998">
        <ele>448.566</ele>
        <time>2019-02-24T14:45:45Z</time>
      </trkpt>
      <trkpt lat="45.35437" lon="5.62999">
        <ele>452.692</ele>
        <time>2019-02-24T14:45:55Z</time>
      </trkpt>
      <trkpt lat="45.35412" lon="5.63003">
        <ele>455.711</ele>
        <time>2019-02-24T14:46:07Z</time>
      </trkpt>
      <trkpt lat="45.35384" lon="5.62998">
        <ele>458.082</ele>
        <time>2019-02-24T14:46:17Z</time>
      </trkpt>
      <trkpt lat="45.35365" lon="5.63002">
        <ele>461.075</ele>
        <time>2019-02-24T14:46:27Z</time>
      </trkpt>
      <trkpt lat="45.35346" lon="5.63011">
        <ele>462.513</ele>
        <time>2019-02-24T14:46:38Z</time>
      </trkpt>
      <trkpt lat="45.3533" lon="5.63015">
        <ele>462.883</ele>
        <time>2019-02-24T14:46:48Z</time>
      </trkpt>
      <trkpt lat="45.353" lon="5.63017">
        <ele>463.182</ele>
        <time>2019-02-24T14:46:59Z</time>
      </trkpt>
      <trkpt lat="45.35284" lon="5.63018">
        <ele>463.524</ele>
        <time>2019-02-24T14:47:09Z</time>
      </trkpt>
      <trkpt lat="45.35264" lon="5.63037">
        <ele>464.823</ele>
        <time>2019-02-24T14:47:19Z</time>
      </trkpt>
      <trkpt lat="45.35237" lon="5.63044">
        <ele>470.855</ele>
        <time>2019-02-24T14:47:29Z</time>
      </trkpt>
      <trkpt lat="45.35211" lon="5.63048">
        <ele>470.458</ele>
        <time>2019-02-24T14:47:40Z</time>
      </trkpt>
      <trkpt lat="45.35208" lon="5.6305">
        <ele>468.266</ele>
        <time>2019-02-24T14:47:51Z</time>
      </trkpt>
      <trkpt lat="45.35193" lon="5.6305">
        <ele>447.415</ele>
        <time>2019-02-24T14:48:02Z</time>
      </trkpt>
      <trkpt lat="45.35163" lon="5.63042">
        <ele>441.612</ele>
        <time>2019-02-24T14:48:13Z</time>
      </trkpt>
      <trkpt lat="45.35138" lon="5.63046">
        <ele>434.464</ele>
        <time>2019-02-24T14:48:23Z</time>
      </trkpt>
      <trkpt lat="45.35109" lon="5.63051">
        <ele>424.535</ele>
        <time>2019-02-24T14:48:33Z</time>
      </trkpt>
      <trkpt lat="45.35096" lon="5.6307">
        <ele>416.327</ele>
        <time>2019-02-24T14:48:44Z</time>
      </trkpt>
      <trkpt lat="45.35063" lon="5.63087">
        <ele>408.044</ele>
        <time>2019-02-24T14:48:54Z</time>
      </trkpt>
      <trkpt lat="45.35051" lon="5.63113">
        <ele>397.639</ele>
        <time>2019-02-24T14:49:05Z</time>
      </trkpt>
      <trkpt lat="45.35011" lon="5.63131">
        <ele>395.574</ele>
        <time>2019-02-24T14:49:16Z</time>
      </trkpt>
      <trkpt lat="45.35003" lon="5.63157">
        <ele>394.132</ele>
        <time>2019-02-24T14:49:26Z</time>
      </trkpt>
      <trkpt lat="45.34978" lon="5.63172">
        <ele>390.869</ele>
        <time>2019-02-24T14:49:38Z</time>
      </trkpt>
      <trkpt lat="45.34945" lon="5.63177">
        <ele>388.176</ele>
        <time>2019-02-24T14:49:48Z</time>
      </trkpt>
      <trkpt lat="45.3491" lon="5.63174">
        <ele>384.24</ele>
        <time>2019-02-24T14:49:59Z</time>
      </trkpt>
      <trkpt lat="45.34892" lon="5.63199">
        <ele>384.7</ele>
        <time>2019-02-24T14:50:09Z</time>
      </trkpt>
      <trkpt lat="45.34871" lon="5.63199">
        <ele>385.028</ele>
        <time>2019-02-24T14:50:21Z</time>
      </trkpt>
      <trkpt lat="45.34862" lon="5.63211">
        <ele>383.838</ele>
        <time>2019-02-24T14:50:31Z</time>
      </trkpt>
      <trkpt lat="45.34846" lon="5.63229">
        <ele>381.131</ele>
        <time>2019-02-24T14:50:41Z</time>
      </trkpt>
      <trkpt lat="45.34835" lon="5.63237">
        <ele>370.784</ele>
        <time>2019-02-24T14:50:52Z</time>
      </trkpt>
      <trkpt lat="45.34815" lon="5.63245">
        <ele>370.467</ele>
        <time>2019-02-24T14:51:03Z</time>
      </trkpt>
      <trkpt lat="45.34795" lon="5.63264">
        <ele>369.582</ele>
        <time>2019-02-24T14:51:13Z</time>
      </trkpt>
      <trkpt lat="45.34777" lon="5.63262">
        <ele>368.323</ele>
        <time>2019-02-24T14:51:24Z</time>
      </trkpt>
      <trkpt lat="45.34753" lon="5.63262">
        <ele>365.627</ele>
        <time>2019-02-24T14:51:34Z</time>
      </trkpt>
      <trkpt lat="45.34746" lon="5.6327">
        <ele>356.968</ele>
        <time>2019-02-24T14:51:45Z</time>
      </trkpt>
      <trkpt lat="45.34731" lon="5.63275">
        <ele>355.532</ele>
        <time>2019-02-24T14:51:55Z</time>
      </trkpt>
      <trkpt lat="45.34714" lon="5.63285">
        <ele>352.668</ele>
        <time>2019-02-24T14:52:06Z</time>
      </trkpt>
      <trkpt lat="45.34691" lon="5.63298">
        <ele>348.325</ele>
        <time>2019-02-24T14:52:16Z</time>
      </trkpt>
      <trkpt lat="45.34666" lon="5.63305">
        <ele>343.719</ele>
        <time>2019-02-24T14:52:26Z</time>
      </trkpt>
      <trkpt lat="45.34563" lon="5.63277">
        <ele>358.027</ele>
        <time>2019-02-24T14:52:37Z</time>
      </trkpt>
      <trkpt lat="45.34537" lon="5.63288">
        <ele>378.119</ele>
        <time>2019-02-24T14:52:47Z</time>
      </trkpt>
      <trkpt lat="45.34536" lon="5.63305">
        <ele>398.018</ele>
        <time>2019-02-24T14:52:57Z</time>
      </trkpt>
      <trkpt lat="45.34542" lon="5.6332">
        <ele>415.103</ele>
        <time>2019-02-24T14:53:08Z</time>
      </trkpt>
      <trkpt lat="45.34527" lon="5.63321">
        <ele>438.591</ele>
        <time>2019-02-24T14:53:18Z</time>
      </trkpt>
      <trkpt lat="45.34538" lon="5.6333">
        <ele>452.388</ele>
        <time>2019-02-24T14:53:30Z</time>
      </trkpt>
      <trkpt lat="45.34553" lon="5.63346">
        <ele>500.853</ele>
        <time>2019-02-24T14:53:40Z</time>
      </trkpt>
      <trkpt lat="45.34572" lon="5.63389">
        <ele>506.57</ele>
        <time>2019-02-24T14:53:50Z</time>
      </trkpt>
      <trkpt lat="45.34583" lon="5.63421">
        <ele>510.927</ele>
        <time>2019-02-24T14:54:02Z</time>
      </trkpt>
      <trkpt lat="45.34591" lon="5.63431">
        <ele>514.637</ele>
        <time>2019-02-24T14:54:14Z</time>
      </trkpt>
      <trkpt lat="45.34594" lon="5.63431">
        <ele>516.297</ele>
        <time>2019-02-24T14:54:25Z</time>
      </trkpt>
      <trkpt lat="45.34601" lon="5.63439">
        <ele>516.267</ele>
        <time>2019-02-24T14:54:36Z</time>
      </trkpt>
      <trkpt lat="45.34603" lon="5.63475">
        <ele>512.063</ele>
        <time>2019-02-24T14:54:46Z</time>
      </trkpt>
      <trkpt lat="45.34609" lon="5.63523">
        <ele>493.99</ele>
        <time>2019-02-24T14:54:56Z</time>
      </trkpt>
      <trkpt lat="45.34593" lon="5.63584">
        <ele>476.981</ele>
        <time>2019-02-24T14:55:07Z</time>
      </trkpt>
      <trkpt lat="45.34581" lon="5.6364">
        <ele>481.884</ele>
        <time>2019-02-24T14:55:18Z</time>
      </trkpt>
      <trkpt lat="45.3455" lon="5.63669">
        <ele>485.567</ele>
        <time>2019-02-24T14:55:29Z</time>
      </trkpt>
      <trkpt lat="45.34515" lon="5.63678">
        <ele>495.18</ele>
        <time>2019-02-24T14:55:39Z</time>
      </trkpt>
      <trkpt lat="45.34489" lon="5.63674">
        <ele>496.225</ele>
        <time>2019-02-24T14:55:50Z</time>
      </trkpt>
      <trkpt lat="45.34473" lon="5.63678">
        <ele>491.529</ele>
        <time>2019-02-24T14:56:00Z</time>
      </trkpt>
      <trkpt lat="45.34455" lon="5.63682">
        <ele>477.422</ele>
        <time>2019-02-24T14:56:11Z</time>
      </trkpt>
      <trkpt lat="45.34446" lon="5.63695">
        <ele>469.69</ele>
        <time>2019-02-24T14:56:22Z</time>
      </trkpt>
      <trkpt lat="45.34447" lon="5.63708">
        <ele>459.053</ele>
        <time>2019-02-24T14:56:32Z</time>
      </trkpt>
      <trkpt lat="45.34442" lon="5.63733">
        <ele>449.674</ele>
        <time>2019-02-24T14:56:45Z</time>
      </trkpt>
      <trkpt lat="45.34388" lon="5.6371">
        <ele>460.193</ele>
        <time>2019-02-24T14:56:55Z</time>
      </trkpt>
      <trkpt lat="45.34348" lon="5.63735">
        <ele>489.411</ele>
        <time>2019-02-24T14:57:12Z</time>
      </trkpt>
      <trkpt lat="45.34346" lon="5.63732">
        <ele>489.02</ele>
        <time>2019-02-24T14:57:23Z</time>
      </trkpt>
      <trkpt lat="45.34335" lon="5.63708">
        <ele>504.744</ele>
        <time>2019-02-24T14:57:34Z</time>
      </trkpt>
      <trkpt lat="45.34333" lon="5.63719">
        <ele>504.605</ele>
        <time>2019-02-24T14:57:44Z</time>
      </trkpt>
      <trkpt lat="45.34325" lon="5.63751">
        <ele>499.148</ele>
        <time>2019-02-24T14:57:54Z</time>
      </trkpt>
      <trkpt lat="45.34321" lon="5.63784">
        <ele>495.497</ele>
        <time>2019-02-24T14:58:06Z</time>
      </trkpt>
      <trkpt lat="45.34326" lon="5.63822">
        <ele>485.16</ele>
        <time>2019-02-24T14:58:16Z</time>
      </trkpt>
      <trkpt lat="45.34334" lon="5.63858">
        <ele>471.417</ele>
        <time>2019-02-24T14:58:27Z</time>
      </trkpt>
      <trkpt lat="45.34333" lon="5.63886">
        <ele>464.669</ele>
        <time>2019-02-24T14:58:37Z</time>
      </trkpt>
      <trkpt lat="45.34337" lon="5.63904">
        <ele>462.946</ele>
        <time>2019-02-24T14:58:47Z</time>
      </trkpt>
      <trkpt lat="45.3434" lon="5.63939">
        <ele>457.689</ele>
        <time>2019-02-24T14:58:58Z</time>
      </trkpt>
      <trkpt lat="45.34354" lon="5.63962">
        <ele>454.63</ele>
        <time>2019-02-24T14:59:09Z</time>
      </trkpt>
      <trkpt lat="45.34362" lon="5.63984">
        <ele>455.602</ele>
        <time>2019-02-24T14:59:19Z</time>
      </trkpt>
      <trkpt lat="45.34364" lon="5.64005">
        <ele>455.373</ele>
        <time>2019-02-24T14:59:29Z</time>
      </trkpt>
      <trkpt lat="45.34384" lon="5.64034">
        <ele>455.306</ele>
        <time>2019-02-24T14:59:40Z</time>
      </trkpt>
      <trkpt lat="45.34409" lon="5.64076">
        <ele>454.162</ele>
        <time>2019-02-24T14:59:50Z</time>
      </trkpt>
      <trkpt lat="45.34597" lon="5.64182">
        <ele>455.054</ele>
        <time>2019-02-24T15:01:28Z</time>
      </trkpt>
      <trkpt lat="45.34623" lon="5.64247">
        <ele>597.693</ele>
        <time>2019-02-24T15:01:38Z</time>
      </trkpt>
      <trkpt lat="45.34613" lon="5.64251">
        <ele>621.641</ele>
        <time>2019-02-24T15:01:49Z</time>
      </trkpt>
      <trkpt lat="45.34608" lon="5.64249">
        <ele>629.427</ele>
        <time>2019-02-24T15:02:00Z</time>
      </trkpt>
      <trkpt lat="45.3461" lon="5.64256">
        <ele>642.982</ele>
        <time>2019-02-24T15:02:11Z</time>
      </trkpt>
      <trkpt lat="45.34616" lon="5.64263">
        <ele>645.133</ele>
        <time>2019-02-24T15:02:21Z</time>
      </trkpt>
      <trkpt lat="45.34628" lon="5.64272">
        <ele>644.421</ele>
        <time>2019-02-24T15:02:32Z</time>
      </trkpt>
      <trkpt lat="45.34647" lon="5.64288">
        <ele>641.365</ele>
        <time>2019-02-24T15:02:42Z</time>
      </trkpt>
      <trkpt lat="45.3465" lon="5.64293">
        <ele>628.87</ele>
        <time>2019-02-24T15:02:52Z</time>
      </trkpt>
      <trkpt lat="45.34678" lon="5.64276">
        <ele>623.878</ele>
        <time>2019-02-24T15:03:03Z</time>
      </trkpt>
      <trkpt lat="45.3469" lon="5.64281">
        <ele>621.202</ele>
        <time>2019-02-24T15:03:14Z</time>
      </trkpt>
      <trkpt lat="45.34702" lon="5.64293">
        <ele>617.332</ele>
        <time>2019-02-24T15:03:24Z</time>
      </trkpt>
      <trkpt lat="45.34756" lon="5.64338">
        <ele>619.338</ele>
        <time>2019-02-24T15:03:35Z</time>
      </trkpt>
      <trkpt lat="45.34764" lon="5.64354">
        <ele>623.184</ele>
        <time>2019-02-24T15:03:46Z</time>
      </trkpt>
      <trkpt lat="45.34748" lon="5.64355">
        <ele>622.632</ele>
        <time>2019-02-24T15:03:57Z</time>
      </trkpt>
      <trkpt lat="45.3473" lon="5.64348">
        <ele>621.262</ele>
        <time>2019-02-24T15:04:08Z</time>
      </trkpt>
      <trkpt lat="45.34708" lon="5.64344">
        <ele>619.137</ele>
        <time>2019-02-24T15:04:19Z</time>
      </trkpt>
      <trkpt lat="45.34697" lon="5.6434">
        <ele>615.034</ele>
        <time>2019-02-24T15:04:30Z</time>
      </trkpt>
      <trkpt lat="45.34692" lon="5.6434">
        <ele>610.832</ele>
        <time>2019-02-24T15:04:40Z</time>
      </trkpt>
      <trkpt lat="45.34678" lon="5.64337">
        <ele>607.635</ele>
        <time>2019-02-24T15:04:50Z</time>
      </trkpt>
      <trkpt lat="45.34664" lon="5.6434">
        <ele>606.034</ele>
        <time>2019-02-24T15:05:01Z</time>
      </trkpt>
      <trkpt lat="45.34643" lon="5.64347">
        <ele>603.572</ele>
        <time>2019-02-24T15:05:11Z</time>
      </trkpt>
      <trkpt lat="45.34627" lon="5.64342">
        <ele>601.275</ele>
        <time>2019-02-24T15:05:22Z</time>
      </trkpt>
      <trkpt lat="45.34606" lon="5.64344">
        <ele>599.572</ele>
        <time>2019-02-24T15:05:32Z</time>
      </trkpt>
      <trkpt lat="45.34587" lon="5.64349">
        <ele>595.737</ele>
        <time>2019-02-24T15:05:43Z</time>
      </trkpt>
      <trkpt lat="45.34546" lon="5.64359">
        <ele>591.343</ele>
        <time>2019-02-24T15:05:54Z</time>
      </trkpt>
      <trkpt lat="45.34499" lon="5.64354">
        <ele>594.852</ele>
        <time>2019-02-24T15:06:05Z</time>
      </trkpt>
      <trkpt lat="45.34472" lon="5.64368">
        <ele>599.01</ele>
        <time>2019-02-24T15:06:16Z</time>
      </trkpt>
      <trkpt lat="45.34445" lon="5.64386">
        <ele>601.145</ele>
        <time>2019-02-24T15:06:27Z</time>
      </trkpt>
      <trkpt lat="45.34418" lon="5.64414">
        <ele>603.402</ele>
        <time>2019-02-24T15:06:37Z</time>
      </trkpt>
      <trkpt lat="45.34394" lon="5.64447">
        <ele>602.253</ele>
        <time>2019-02-24T15:06:48Z</time>
      </trkpt>
      <trkpt lat="45.34367" lon="5.64491">
        <ele>598.394</ele>
        <time>2019-02-24T15:06:58Z</time>
      </trkpt>
      <trkpt lat="45.34348" lon="5.64528">
        <ele>594.853</ele>
        <time>2019-02-24T15:07:08Z</time>
      </trkpt>
      <trkpt lat="45.34329" lon="5.64551">
        <ele>593.647</ele>
        <time>2019-02-24T15:07:19Z</time>
      </trkpt>
      <trkpt lat="45.34298" lon="5.64568">
        <ele>595.468</ele>
        <time>2019-02-24T15:07:29Z</time>
      </trkpt>
      <trkpt lat="45.34275" lon="5.646">
        <ele>600.427</ele>
        <time>2019-02-24T15:07:39Z</time>
      </trkpt>
      <trkpt lat="45.3426" lon="5.64631">
        <ele>606.967</ele>
        <time>2019-02-24T15:07:50Z</time>
      </trkpt>
      <trkpt lat="45.34243" lon="5.6467">
        <ele>616.214</ele>
        <time>2019-02-24T15:08:01Z</time>
      </trkpt>
      <trkpt lat="45.34232" lon="5.64709">
        <ele>629.008</ele>
        <time>2019-02-24T15:08:12Z</time>
      </trkpt>
      <trkpt lat="45.34221" lon="5.64752">
        <ele>642.448</ele>
        <time>2019-02-24T15:08:24Z</time>
      </trkpt>
      <trkpt lat="45.34204" lon="5.64788">
        <ele>655.006</ele>
        <time>2019-02-24T15:08:34Z</time>
      </trkpt>
      <trkpt lat="45.34187" lon="5.64821">
        <ele>665.342</ele>
        <time>2019-02-24T15:08:45Z</time>
      </trkpt>
      <trkpt lat="45.34169" lon="5.64854">
        <ele>673.711</ele>
        <time>2019-02-24T15:08:56Z</time>
      </trkpt>
      <trkpt lat="45.34157" lon="5.64883">
        <ele>679.961</ele>
        <time>2019-02-24T15:09:06Z</time>
      </trkpt>
      <trkpt lat="45.34141" lon="5.64917">
        <ele>685.835</ele>
        <time>2019-02-24T15:09:16Z</time>
      </trkpt>
      <trkpt lat="45.34131" lon="5.64941">
        <ele>691.245</ele>
        <time>2019-02-24T15:09:27Z</time>
      </trkpt>
      <trkpt lat="45.34117" lon="5.64959">
        <ele>695.95</ele>
        <time>2019-02-24T15:09:38Z</time>
      </trkpt>
      <trkpt lat="45.34097" lon="5.64969">
        <ele>700.939</ele>
        <time>2019-02-24T15:09:49Z</time>
      </trkpt>
      <trkpt lat="45.34084" lon="5.64971">
        <ele>705.799</ele>
        <time>2019-02-24T15:09:59Z</time>
      </trkpt>
      <trkpt lat="45.34057" lon="5.64971">
        <ele>710.223</ele>
        <time>2019-02-24T15:10:10Z</time>
      </trkpt>
      <trkpt lat="45.34034" lon="5.64975">
        <ele>713.319</ele>
        <time>2019-02-24T15:10:20Z</time>
      </trkpt>
      <trkpt lat="45.34049" lon="5.64978">
        <ele>715.8</ele>
        <time>2019-02-24T15:10:31Z</time>
      </trkpt>
      <trkpt lat="45.34071" lon="5.64982">
        <ele>718.604</ele>
        <time>2019-02-24T15:10:42Z</time>
      </trkpt>
      <trkpt lat="45.34089" lon="5.64979">
        <ele>720.865</ele>
        <time>2019-02-24T15:10:53Z</time>
      </trkpt>
      <trkpt lat="45.34089" lon="5.64974">
        <ele>721.3</ele>
        <time>2019-02-24T15:11:04Z</time>
      </trkpt>
      <trkpt lat="45.34089" lon="5.64974">
        <ele>721.71</ele>
        <time>2019-02-24T15:11:15Z</time>
      </trkpt>
      <trkpt lat="45.34089" lon="5.64973">
        <ele>722.182</ele>
        <time>2019-02-24T15:11:26Z</time>
      </trkpt>
      <trkpt lat="45.34086" lon="5.64973">
        <ele>725.224</ele>
        <time>2019-02-24T15:11:36Z</time>
      </trkpt>
      <trkpt lat="45.34086" lon="5.6498">
        <ele>728.229</ele>
        <time>2019-02-24T15:11:47Z</time>
      </trkpt>
      <trkpt lat="45.34086" lon="5.64982">
        <ele>729.59</ele>
        <time>2019-02-24T15:11:58Z</time>
      </trkpt>
      <trkpt lat="45.34083" lon="5.64984">
        <ele>731.01</ele>
        <time>2019-02-24T15:12:09Z</time>
      </trkpt>
      <trkpt lat="45.34083" lon="5.64984">
        <ele>731.541</ele>
        <time>2019-02-24T15:12:20Z</time>
      </trkpt>
      <trkpt lat="45.34083" lon="5.64985">
        <ele>731.871</ele>
        <time>2019-02-24T15:12:31Z</time>
      </trkpt>
      <trkpt lat="45.34084" lon="5.64985">
        <ele>732.825</ele>
        <time>2019-02-24T15:12:41Z</time>
      </trkpt>
      <trkpt lat="45.34084" lon="5.64986">
        <ele>733.145</ele>
        <time>2019-02-24T15:12:52Z</time>
      </trkpt>
      <trkpt lat="45.34084" lon="5.64986">
        <ele>733.5</ele>
        <time>2019-02-24T15:13:03Z</time>
      </trkpt>
      <trkpt lat="45.34085" lon="5.64986">
        <ele>733.861</ele>
        <time>2019-02-24T15:13:13Z</time>
      </trkpt>
      <trkpt lat="45.34084" lon="5.64988">
        <ele>735.352</ele>
        <time>2019-02-24T15:13:24Z</time>
      </trkpt>
      <trkpt lat="45.34084" lon="5.6499">
        <ele>737.867</ele>
        <time>2019-02-24T15:13:34Z</time>
      </trkpt>
      <trkpt lat="45.34087" lon="5.64984">
        <ele>739.553</ele>
        <time>2019-02-24T15:13:45Z</time>
      </trkpt>
      <trkpt lat="45.34087" lon="5.64984">
        <ele>739.727</ele>
        <time>2019-02-24T15:13:55Z</time>
      </trkpt>
      <trkpt lat="45.34088" lon="5.64984">
        <ele>740.796</ele>
        <time>2019-02-24T15:14:05Z</time>
      </trkpt>
      <trkpt lat="45.34087" lon="5.64981">
        <ele>741.739</ele>
        <time>2019-02-24T15:14:16Z</time>
      </trkpt>
      <trkpt lat="45.34087" lon="5.6498">
        <ele>742.011</ele>
        <time>2019-02-24T15:14:26Z</time>
      </trkpt>
      <trkpt lat="45.34087" lon="5.6498">
        <ele>742.223</ele>
        <time>2019-02-24T15:14:36Z</time>
      </trkpt>
      <trkpt lat="45.34087" lon="5.6498">
        <ele>742.32</ele>
        <time>2019-02-24T15:14:47Z</time>
      </trkpt>
      <trkpt lat="45.34087" lon="5.64982">
        <ele>742.608</ele>
        <time>2019-02-24T15:14:59Z</time>
      </trkpt>
      <trkpt lat="45.34086" lon="5.64985">
        <ele>743.811</ele>
        <time>2019-02-24T15:15:10Z</time>
      </trkpt>
      <trkpt lat="45.34085" lon="5.6499">
        <ele>744.761</ele>
        <time>2019-02-24T15:15:20Z</time>
      </trkpt>
      <trkpt lat="45.34089" lon="5.64994">
        <ele>746.228</ele>
        <time>2019-02-24T15:15:30Z</time>
      </trkpt>
      <trkpt lat="45.34088" lon="5.64992">
        <ele>747.135</ele>
        <time>2019-02-24T15:15:40Z</time>
      </trkpt>
      <trkpt lat="45.34087" lon="5.6499">
        <ele>747.14</ele>
        <time>2019-02-24T15:15:50Z</time>
      </trkpt>
      <trkpt lat="45.34087" lon="5.64985">
        <ele>747.077</ele>
        <time>2019-02-24T15:16:01Z</time>
      </trkpt>
      <trkpt lat="45.34087" lon="5.64985">
        <ele>747.038</ele>
        <time>2019-02-24T15:16:12Z</time>
      </trkpt>
      <trkpt lat="45.34086" lon="5.64984">
        <ele>747.026</ele>
        <time>2019-02-24T15:16:22Z</time>
      </trkpt>
      <trkpt lat="45.34085" lon="5.64984">
        <ele>747.031</ele>
        <time>2019-02-24T15:16:33Z</time>
      </trkpt>
      <trkpt lat="45.34085" lon="5.64983">
        <ele>747.09</ele>
        <time>2019-02-24T15:16:44Z</time>
      </trkpt>
      <trkpt lat="45.34085" lon="5.64983">
        <ele>747.121</ele>
        <time>2019-02-24T15:16:54Z</time>
      </trkpt>
      <trkpt lat="45.34085" lon="5.64982">
        <ele>747.157</ele>
        <time>2019-02-24T15:17:04Z</time>
      </trkpt>
      <trkpt lat="45.34085" lon="5.64983">
        <ele>747.138</ele>
        <time>2019-02-24T15:17:15Z</time>
      </trkpt>
      <trkpt lat="45.34084" lon="5.64983">
        <ele>747.089</ele>
        <time>2019-02-24T15:17:25Z</time>
      </trkpt>
      <trkpt lat="45.34085" lon="5.64983">
        <ele>747.042</ele>
        <time>2019-02-24T15:17:36Z</time>
      </trkpt>
      <trkpt lat="45.34085" lon="5.64982">
        <ele>747.006</ele>
        <time>2019-02-24T15:17:47Z</time>
      </trkpt>
      <trkpt lat="45.34085" lon="5.64982">
        <ele>746.973</ele>
        <time>2019-02-24T15:17:57Z</time>
      </trkpt>
      <trkpt lat="45.34085" lon="5.64982">
        <ele>747.015</ele>
        <time>2019-02-24T15:18:08Z</time>
      </trkpt>
      <trkpt lat="45.34085" lon="5.64981">
        <ele>747.062</ele>
        <time>2019-02-24T15:18:19Z</time>
      </trkpt>
      <trkpt lat="45.34085" lon="5.64981">
        <ele>747.115</ele>
        <time>2019-02-24T15:18:29Z</time>
      </trkpt>
      <trkpt lat="45.34085" lon="5.64981">
        <ele>747.143</ele>
        <time>2019-02-24T15:18:40Z</time>
      </trkpt>
      <trkpt lat="45.34084" lon="5.64981">
        <ele>747.2</ele>
        <time>2019-02-24T15:18:50Z</time>
      </trkpt>
      <trkpt lat="45.34084" lon="5.64981">
        <ele>747.53</ele>
        <time>2019-02-24T15:19:01Z</time>
      </trkpt>
      <trkpt lat="45.34085" lon="5.64982">
        <ele>747.668</ele>
        <time>2019-02-24T15:19:12Z</time>
      </trkpt>
      <trkpt lat="45.34085" lon="5.6498">
        <ele>748.119</ele>
        <time>2019-02-24T15:19:23Z</time>
      </trkpt>
      <trkpt lat="45.34071" lon="5.64971">
        <ele>748.627</ele>
        <time>2019-02-24T15:19:33Z</time>
      </trkpt>
      <trkpt lat="45.34062" lon="5.6497">
        <ele>748.724</ele>
        <time>2019-02-24T15:19:44Z</time>
      </trkpt>
      <trkpt lat="45.34039" lon="5.64967">
        <ele>748.697</ele>
        <time>2019-02-24T15:19:55Z</time>
      </trkpt>
      <trkpt lat="45.33987" lon="5.64994">
        <ele>747.11</ele>
        <time>2019-02-24T15:20:06Z</time>
      </trkpt>
      <trkpt lat="45.33943" lon="5.65094">
        <ele>740.912</ele>
        <time>2019-02-24T15:20:17Z</time>
      </trkpt>
      <trkpt lat="45.33846" lon="5.6514">
        <ele>734.605</ele>
        <time>2019-02-24T15:20:28Z</time>
      </trkpt>
      <trkpt lat="45.33775" lon="5.65107">
        <ele>731.754</ele>
        <time>2019-02-24T15:20:39Z</time>
      </trkpt>
      <trkpt lat="45.33779" lon="5.65017">
        <ele>731.055</ele>
        <time>2019-02-24T15:20:49Z</time>
      </trkpt>
      <trkpt lat="45.33763" lon="5.64923">
        <ele>729.432</ele>
        <time>2019-02-24T15:21:00Z</time>
      </trkpt>
      <trkpt lat="45.33709" lon="5.64885">
        <ele>731.413</ele>
        <time>2019-02-24T15:21:10Z</time>
      </trkpt>
      <trkpt lat="45.33664" lon="5.64882">
        <ele>732.741</ele>
        <time>2019-02-24T15:21:20Z</time>
      </trkpt>
      <trkpt lat="45.33665" lon="5.64937">
        <ele>731.419</ele>
        <time>2019-02-24T15:21:32Z</time>
      </trkpt>
      <trkpt lat="45.33665" lon="5.64937">
        <ele>730.981</ele>
        <time>2019-02-24T15:21:42Z</time>
      </trkpt>
      <trkpt lat="45.33664" lon="5.64939">
        <ele>730.437</ele>
        <time>2019-02-24T15:21:53Z</time>
      </trkpt>
      <trkpt lat="45.33618" lon="5.64992">
        <ele>723.612</ele>
        <time>2019-02-24T15:22:04Z</time>
      </trkpt>
      <trkpt lat="45.33503" lon="5.64985">
        <ele>720.287</ele>
        <time>2019-02-24T15:22:15Z</time>
      </trkpt>
      <trkpt lat="45.33384" lon="5.64951">
        <ele>715.041</ele>
        <time>2019-02-24T15:22:26Z</time>
      </trkpt>
      <trkpt lat="45.33326" lon="5.65058">
        <ele>709.146</ele>
        <time>2019-02-24T15:22:37Z</time>
      </trkpt>
      <trkpt lat="45.33286" lon="5.65196">
        <ele>698.408</ele>
        <time>2019-02-24T15:22:48Z</time>
      </trkpt>
      <trkpt lat="45.33195" lon="5.65249">
        <ele>690.884</ele>
        <time>2019-02-24T15:22:58Z</time>
      </trkpt>
      <trkpt lat="45.33113" lon="5.65346">
        <ele>683.44</ele>
        <time>2019-02-24T15:23:09Z</time>
      </trkpt>
      <trkpt lat="45.3304" lon="5.65477">
        <ele>677.676</ele>
        <time>2019-02-24T15:23:20Z</time>
      </trkpt>
      <trkpt lat="45.32948" lon="5.65578">
        <ele>674.141</ele>
        <time>2019-02-24T15:23:31Z</time>
      </trkpt>
      <trkpt lat="45.32922" lon="5.65634">
        <ele>668.846</ele>
        <time>2019-02-24T15:23:42Z</time>
      </trkpt>
      <trkpt lat="45.32998" lon="5.65688">
        <ele>663.708</ele>
        <time>2019-02-24T15:23:52Z</time>
      </trkpt>
      <trkpt lat="45.33011" lon="5.65786">
        <ele>654.26</ele>
        <time>2019-02-24T15:24:03Z</time>
      </trkpt>
      <trkpt lat="45.32959" lon="5.65827">
        <ele>644.467</ele>
        <time>2019-02-24T15:24:14Z</time>
      </trkpt>
      <trkpt lat="45.32894" lon="5.65766">
        <ele>640.015</ele>
        <time>2019-02-24T15:24:24Z</time>
      </trkpt>
      <trkpt lat="45.32788" lon="5.65687">
        <ele>637.872</ele>
        <time>2019-02-24T15:24:35Z</time>
      </trkpt>
      <trkpt lat="45.32658" lon="5.65669">
        <ele>631.784</ele>
        <time>2019-02-24T15:24:46Z</time>
      </trkpt>
      <trkpt lat="45.32525" lon="5.65603">
        <ele>625.566</ele>
        <time>2019-02-24T15:24:57Z</time>
      </trkpt>
      <trkpt lat="45.32401" lon="5.6552">
        <ele>620.305</ele>
        <time>2019-02-24T15:25:08Z</time>
      </trkpt>
      <trkpt lat="45.32295" lon="5.65428">
        <ele>610.162</ele>
        <time>2019-02-24T15:25:18Z</time>
      </trkpt>
      <trkpt lat="45.32162" lon="5.65366">
        <ele>594.361</ele>
        <time>2019-02-24T15:25:29Z</time>
      </trkpt>
      <trkpt lat="45.32012" lon="5.65331">
        <ele>579.567</ele>
        <time>2019-02-24T15:25:40Z</time>
      </trkpt>
      <trkpt lat="45.31891" lon="5.65286">
        <ele>572.535</ele>
        <time>2019-02-24T15:25:50Z</time>
      </trkpt>
      <trkpt lat="45.31784" lon="5.65253">
        <ele>565.193</ele>
        <time>2019-02-24T15:26:00Z</time>
      </trkpt>
      <trkpt lat="45.31681" lon="5.65187">
        <ele>555.167</ele>
        <time>2019-02-24T15:26:11Z</time>
      </trkpt>
      <trkpt lat="45.31584" lon="5.65124">
        <ele>549.28</ele>
        <time>2019-02-24T15:26:22Z</time>
      </trkpt>
      <trkpt lat="45.31487" lon="5.65053">
        <ele>544.704</ele>
        <time>2019-02-24T15:26:33Z</time>
      </trkpt>
      <trkpt lat="45.31402" lon="5.64974">
        <ele>541.12</ele>
        <time>2019-02-24T15:26:44Z</time>
      </trkpt>
      <trkpt lat="45.31348" lon="5.6487">
        <ele>540.377</ele>
        <time>2019-02-24T15:26:54Z</time>
      </trkpt>
      <trkpt lat="45.31272" lon="5.64822">
        <ele>537.518</ele>
        <time>2019-02-24T15:27:05Z</time>
      </trkpt>
      <trkpt lat="45.31191" lon="5.64769">
        <ele>534.513</ele>
        <time>2019-02-24T15:27:16Z</time>
      </trkpt>
      <trkpt lat="45.31114" lon="5.64659">
        <ele>532.356</ele>
        <time>2019-02-24T15:27:27Z</time>
      </trkpt>
      <trkpt lat="45.31048" lon="5.64522">
        <ele>529.804</ele>
        <time>2019-02-24T15:27:38Z</time>
      </trkpt>
      <trkpt lat="45.31006" lon="5.64365">
        <ele>525.707</ele>
        <time>2019-02-24T15:27:48Z</time>
      </trkpt>
      <trkpt lat="45.30946" lon="5.64218">
        <ele>517.008</ele>
        <time>2019-02-24T15:27:59Z</time>
      </trkpt>
      <trkpt lat="45.30995" lon="5.64094">
        <ele>493.148</ele>
        <time>2019-02-24T15:28:10Z</time>
      </trkpt>
      <trkpt lat="45.30911" lon="5.6395">
        <ele>471.366</ele>
        <time>2019-02-24T15:28:20Z</time>
      </trkpt>
      <trkpt lat="45.30811" lon="5.63799">
        <ele>460.161</ele>
        <time>2019-02-24T15:28:31Z</time>
      </trkpt>
      <trkpt lat="45.30703" lon="5.63709">
        <ele>451.798</ele>
        <time>2019-02-24T15:28:41Z</time>
      </trkpt>
      <trkpt lat="45.30596" lon="5.63621">
        <ele>443.559</ele>
        <time>2019-02-24T15:28:52Z</time>
      </trkpt>
      <trkpt lat="45.30486" lon="5.63589">
        <ele>430.085</ele>
        <time>2019-02-24T15:29:02Z</time>
      </trkpt>
      <trkpt lat="45.30368" lon="5.63524">
        <ele>419.176</ele>
        <time>2019-02-24T15:29:13Z</time>
      </trkpt>
      <trkpt lat="45.30229" lon="5.63526">
        <ele>406.605</ele>
        <time>2019-02-24T15:29:24Z</time>
      </trkpt>
      <trkpt lat="45.30093" lon="5.63477">
        <ele>391.8</ele>
        <time>2019-02-24T15:29:35Z</time>
      </trkpt>
      <trkpt lat="45.301" lon="5.63522">
        <ele>377.686</ele>
        <time>2019-02-24T15:29:46Z</time>
      </trkpt>
      <trkpt lat="45.30193" lon="5.636">
        <ele>371.83</ele>
        <time>2019-02-24T15:29:57Z</time>
      </trkpt>
      <trkpt lat="45.30289" lon="5.63678">
        <ele>364.754</ele>
        <time>2019-02-24T15:30:08Z</time>
      </trkpt>
      <trkpt lat="45.30323" lon="5.63823">
        <ele>353.488</ele>
        <time>2019-02-24T15:30:18Z</time>
      </trkpt>
      <trkpt lat="45.30348" lon="5.63907">
        <ele>344.707</ele>
        <time>2019-02-24T15:30:29Z</time>
      </trkpt>
      <trkpt lat="45.30259" lon="5.6385">
        <ele>343.681</ele>
        <time>2019-02-24T15:30:39Z</time>
      </trkpt>
      <trkpt lat="45.30141" lon="5.63815">
        <ele>333.886</ele>
        <time>2019-02-24T15:30:49Z</time>
      </trkpt>
      <trkpt lat="45.30005" lon="5.63796">
        <ele>321.115</ele>
        <time>2019-02-24T15:31:00Z</time>
      </trkpt>
      <trkpt lat="45.2988" lon="5.63787">
        <ele>311.686</ele>
        <time>2019-02-24T15:31:10Z</time>
      </trkpt>
      <trkpt lat="45.29815" lon="5.63667">
        <ele>304.171</ele>
        <time>2019-02-24T15:31:21Z</time>
      </trkpt>
      <trkpt lat="45.2978" lon="5.63637">
        <ele>302.925</ele>
        <time>2019-02-24T15:31:32Z</time>
      </trkpt>
      <trkpt lat="45.29733" lon="5.6357">
        <ele>298.223</ele>
        <time>2019-02-24T15:31:43Z</time>
      </trkpt>
      <trkpt lat="45.29687" lon="5.63518">
        <ele>294.413</ele>
        <time>2019-02-24T15:31:53Z</time>
      </trkpt>
      <trkpt lat="45.29622" lon="5.63455">
        <ele>291.215</ele>
        <time>2019-02-24T15:32:03Z</time>
      </trkpt>
      <trkpt lat="45.29546" lon="5.63402">
        <ele>287.414</ele>
        <time>2019-02-24T15:32:13Z</time>
      </trkpt>
      <trkpt lat="45.29472" lon="5.63346">
        <ele>283.954</ele>
        <time>2019-02-24T15:32:24Z</time>
      </trkpt>
      <trkpt lat="45.29413" lon="5.63264">
        <ele>280.222</ele>
        <time>2019-02-24T15:32:34Z</time>
      </trkpt>
      <trkpt lat="45.2935" lon="5.63184">
        <ele>273.94</ele>
        <time>2019-02-24T15:32:45Z</time>
      </trkpt>
      <trkpt lat="45.29321" lon="5.6314">
        <ele>267.503</ele>
        <time>2019-02-24T15:32:55Z</time>
      </trkpt>
      <trkpt lat="45.2928" lon="5.6311">
        <ele>263.196</ele>
        <time>2019-02-24T15:33:06Z</time>
      </trkpt>
      <trkpt lat="45.29276" lon="5.63119">
        <ele>263.019</ele>
        <time>2019-02-24T15:33:17Z</time>
      </trkpt>
      <trkpt lat="45.29276" lon="5.63119">
        <ele>262.968</ele>
        <time>2019-02-24T15:33:28Z</time>
      </trkpt>
      <trkpt lat="45.29276" lon="5.63119">
        <ele>262.931</ele>
        <time>2019-02-24T15:33:38Z</time>
      </trkpt>
      <trkpt lat="45.29276" lon="5.63119">
        <ele>262.887</ele>
        <time>2019-02-24T15:33:49Z</time>
      </trkpt>
      <trkpt lat="45.29276" lon="5.63119">
        <ele>262.837</ele>
        <time>2019-02-24T15:33:59Z</time>
      </trkpt>
      <trkpt lat="45.29276" lon="5.63119">
        <ele>262.788</ele>
        <time>2019-02-24T15:34:10Z</time>
      </trkpt>
      <trkpt lat="45.29276" lon="5.63119">
        <ele>262.749</ele>
        <time>2019-02-24T15:34:21Z</time>
      </trkpt>
      <trkpt lat="45.29276" lon="5.63119">
        <ele>262.662</ele>
        <time>2019-02-24T15:34:31Z</time>
      </trkpt>
      <trkpt lat="45.29276" lon="5.63119">
        <ele>262.654</ele>
        <time>2019-02-24T15:34:42Z</time>
      </trkpt>
      <trkpt lat="45.29276" lon="5.63119">
        <ele>262.645</ele>
        <time>2019-02-24T15:34:53Z</time>
      </trkpt>
      <trkpt lat="45.29274" lon="5.63113">
        <ele>262.639</ele>
        <time>2019-02-24T15:35:03Z</time>
      </trkpt>
      <trkpt lat="45.29288" lon="5.63083">
        <ele>262.496</ele>
        <time>2019-02-24T15:35:14Z</time>
      </trkpt>
      <trkpt lat="45.29302" lon="5.63079">
        <ele>262.133</ele>
        <time>2019-02-24T15:35:24Z</time>
      </trkpt>
      <trkpt lat="45.2932" lon="5.63065">
        <ele>261.69</ele>
        <time>2019-02-24T15:35:35Z</time>
      </trkpt>
      <trkpt lat="45.29348" lon="5.63035">
        <ele>261.344</ele>
        <time>2019-02-24T15:35:45Z</time>
      </trkpt>
      <trkpt lat="45.29383" lon="5.63001">
        <ele>261.238</ele>
        <time>2019-02-24T15:35:56Z</time>
      </trkpt>
      <trkpt lat="45.29423" lon="5.6297">
        <ele>261.816</ele>
        <time>2019-02-24T15:36:07Z</time>
      </trkpt>
      <trkpt lat="45.29462" lon="5.62944">
        <ele>262.556</ele>
        <time>2019-02-24T15:36:18Z</time>
      </trkpt>
      <trkpt lat="45.29494" lon="5.62923">
        <ele>262.816</ele>
        <time>2019-02-24T15:36:29Z</time>
      </trkpt>
      <trkpt lat="45.29494" lon="5.62876">
        <ele>264.756</ele>
        <time>2019-02-24T15:36:40Z</time>
      </trkpt>
      <trkpt lat="45.29483" lon="5.62774">
        <ele>265.944</ele>
        <time>2019-02-24T15:36:51Z</time>
      </trkpt>
      <trkpt lat="45.29494" lon="5.62731">
        <ele>265.824</ele>
        <time>2019-02-24T15:37:02Z</time>
      </trkpt>
      <trkpt lat="45.29478" lon="5.62701">
        <ele>262.238</ele>
        <time>2019-02-24T15:37:13Z</time>
      </trkpt>
      <trkpt lat="45.29467" lon="5.62652">
        <ele>260.937</ele>
        <time>2019-02-24T15:37:24Z</time>
      </trkpt>
      <trkpt lat="45.29462" lon="5.62618">
        <ele>260.73</ele>
        <time>2019-02-24T15:37:35Z</time>
      </trkpt>
      <trkpt lat="45.29461" lon="5.62602">
        <ele>260.47</ele>
        <time>2019-02-24T15:37:46Z</time>
      </trkpt>
      <trkpt lat="45.29461" lon="5.62602">
        <ele>260.445</ele>
        <time>2019-02-24T15:37:57Z</time>
      </trkpt>
      <trkpt lat="45.29461" lon="5.62602">
        <ele>260.449</ele>
        <time>2019-02-24T15:38:07Z</time>
      </trkpt>
      <trkpt lat="45.29465" lon="5.62591">
        <ele>260.347</ele>
        <time>2019-02-24T15:38:17Z</time>
      </trkpt>
      <trkpt lat="45.29459" lon="5.62512">
        <ele>257.424</ele>
        <time>2019-02-24T15:38:28Z</time>
      </trkpt>
      <trkpt lat="45.29451" lon="5.62412">
        <ele>254.974</ele>
        <time>2019-02-24T15:38:38Z</time>
      </trkpt>
      <trkpt lat="45.29442" lon="5.62307">
        <ele>253.265</ele>
        <time>2019-02-24T15:38:48Z</time>
      </trkpt>
      <trkpt lat="45.29448" lon="5.62181">
        <ele>251.645</ele>
        <time>2019-02-24T15:38:59Z</time>
      </trkpt>
      <trkpt lat="45.2947" lon="5.62084">
        <ele>250.209</ele>
        <time>2019-02-24T15:39:09Z</time>
      </trkpt>
      <trkpt lat="45.29485" lon="5.62031">
        <ele>247.468</ele>
        <time>2019-02-24T15:39:20Z</time>
      </trkpt>
      <trkpt lat="45.29513" lon="5.61963">
        <ele>242.305</ele>
        <time>2019-02-24T15:39:31Z</time>
      </trkpt>
      <trkpt lat="45.29548" lon="5.61924">
        <ele>241.313</ele>
        <time>2019-02-24T15:39:42Z</time>
      </trkpt>
      <trkpt lat="45.29565" lon="5.61893">
        <ele>241.398</ele>
        <time>2019-02-24T15:39:52Z</time>
      </trkpt>
      <trkpt lat="45.29596" lon="5.61847">
        <ele>244.707</ele>
        <time>2019-02-24T15:40:03Z</time>
      </trkpt>
      <trkpt lat="45.29633" lon="5.61802">
        <ele>246.657</ele>
        <time>2019-02-24T15:40:13Z</time>
      </trkpt>
      <trkpt lat="45.29628" lon="5.61751">
        <ele>246.287</ele>
        <time>2019-02-24T15:40:24Z</time>
      </trkpt>
      <trkpt lat="45.29586" lon="5.6177">
        <ele>245.099</ele>
        <time>2019-02-24T15:40:35Z</time>
      </trkpt>
      <trkpt lat="45.2953" lon="5.61782">
        <ele>231.947</ele>
        <time>2019-02-24T15:40:46Z</time>
      </trkpt>
      <trkpt lat="45.29473" lon="5.61782">
        <ele>227.42</ele>
        <time>2019-02-24T15:40:57Z</time>
      </trkpt>
      <trkpt lat="45.29415" lon="5.6179">
        <ele>227.699</ele>
        <time>2019-02-24T15:41:07Z</time>
      </trkpt>
      <trkpt lat="45.29379" lon="5.61761">
        <ele>226.766</ele>
        <time>2019-02-24T15:41:18Z</time>
      </trkpt>
      <trkpt lat="45.29333" lon="5.61766">
        <ele>230.562</ele>
        <time>2019-02-24T15:41:28Z</time>
      </trkpt>
      <trkpt lat="45.29333" lon="5.61766">
        <ele>230.98</ele>
        <time>2019-02-24T15:41:39Z</time>
      </trkpt>
      <trkpt lat="45.29324" lon="5.61774">
        <ele>231.469</ele>
        <time>2019-02-24T15:41:50Z</time>
      </trkpt>
      <trkpt lat="45.29324" lon="5.61774">
        <ele>231.765</ele>
        <time>2019-02-24T15:42:01Z</time>
      </trkpt>
      <trkpt lat="45.29324" lon="5.61774">
        <ele>232.147</ele>
        <time>2019-02-24T15:42:12Z</time>
      </trkpt>
      <trkpt lat="45.29324" lon="5.61774">
        <ele>232.447</ele>
        <time>2019-02-24T15:42:22Z</time>
      </trkpt>
      <trkpt lat="45.29317" lon="5.61781">
        <ele>233.562</ele>
        <time>2019-02-24T15:42:33Z</time>
      </trkpt>
      <trkpt lat="45.2929" lon="5.61783">
        <ele>235.355</ele>
        <time>2019-02-24T15:42:43Z</time>
      </trkpt>
      <trkpt lat="45.29237" lon="5.61805">
        <ele>235.395</ele>
        <time>2019-02-24T15:42:54Z</time>
      </trkpt>
      <trkpt lat="45.29176" lon="5.6182">
        <ele>233.444</ele>
        <time>2019-02-24T15:43:05Z</time>
      </trkpt>
      <trkpt lat="45.29121" lon="5.61832">
        <ele>237.335</ele>
        <time>2019-02-24T15:43:15Z</time>
      </trkpt>
      <trkpt lat="45.29065" lon="5.61841">
        <ele>238.034</ele>
        <time>2019-02-24T15:43:25Z</time>
      </trkpt>
      <trkpt lat="45.29005" lon="5.61854">
        <ele>237.407</ele>
        <time>2019-02-24T15:43:36Z</time>
      </trkpt>
      <trkpt lat="45.28942" lon="5.61865">
        <ele>234.582</ele>
        <time>2019-02-24T15:43:47Z</time>
      </trkpt>
      <trkpt lat="45.28877" lon="5.61882">
        <ele>238.069</ele>
        <time>2019-02-24T15:43:58Z</time>
      </trkpt>
      <trkpt lat="45.2882" lon="5.61896">
        <ele>239.197</ele>
        <time>2019-02-24T15:44:08Z</time>
      </trkpt>
      <trkpt lat="45.28754" lon="5.6191">
        <ele>238.399</ele>
        <time>2019-02-24T15:44:19Z</time>
      </trkpt>
      <trkpt lat="45.28697" lon="5.61921">
        <ele>239.876</ele>
        <time>2019-02-24T15:44:29Z</time>
      </trkpt>
      <trkpt lat="45.28643" lon="5.61932">
        <ele>240.921</ele>
        <time>2019-02-24T15:44:39Z</time>
      </trkpt>
      <trkpt lat="45.28579" lon="5.61957">
        <ele>236.367</ele>
        <time>2019-02-24T15:44:50Z</time>
      </trkpt>
      <trkpt lat="45.28517" lon="5.61972">
        <ele>231.485</ele>
        <time>2019-02-24T15:45:01Z</time>
      </trkpt>
      <trkpt lat="45.28457" lon="5.61984">
        <ele>225.99</ele>
        <time>2019-02-24T15:45:11Z</time>
      </trkpt>
      <trkpt lat="45.28394" lon="5.61996">
        <ele>226.823</ele>
        <time>2019-02-24T15:45:22Z</time>
      </trkpt>
      <trkpt lat="45.2833" lon="5.62008">
        <ele>230.361</ele>
        <time>2019-02-24T15:45:33Z</time>
      </trkpt>
      <trkpt lat="45.28272" lon="5.62019">
        <ele>238.433</ele>
        <time>2019-02-24T15:45:43Z</time>
      </trkpt>
      <trkpt lat="45.28214" lon="5.62033">
        <ele>238.289</ele>
        <time>2019-02-24T15:45:53Z</time>
      </trkpt>
      <trkpt lat="45.28154" lon="5.62046">
        <ele>241.077</ele>
        <time>2019-02-24T15:46:04Z</time>
      </trkpt>
      <trkpt lat="45.28098" lon="5.62059">
        <ele>240.948</ele>
        <time>2019-02-24T15:46:15Z</time>
      </trkpt>
      <trkpt lat="45.2804" lon="5.62062">
        <ele>242.559</ele>
        <time>2019-02-24T15:46:25Z</time>
      </trkpt>
      <trkpt lat="45.27979" lon="5.62064">
        <ele>244.115</ele>
        <time>2019-02-24T15:46:36Z</time>
      </trkpt>
      <trkpt lat="45.27925" lon="5.62069">
        <ele>243.126</ele>
        <time>2019-02-24T15:46:46Z</time>
      </trkpt>
      <trkpt lat="45.27874" lon="5.62073">
        <ele>238.838</ele>
        <time>2019-02-24T15:46:56Z</time>
      </trkpt>
      <trkpt lat="45.27795" lon="5.62076">
        <ele>236.075</ele>
        <time>2019-02-24T15:47:07Z</time>
      </trkpt>
      <trkpt lat="45.27741" lon="5.62086">
        <ele>239.167</ele>
        <time>2019-02-24T15:47:17Z</time>
      </trkpt>
      <trkpt lat="45.27673" lon="5.62104">
        <ele>236.924</ele>
        <time>2019-02-24T15:47:28Z</time>
      </trkpt>
      <trkpt lat="45.27619" lon="5.62123">
        <ele>236.868</ele>
        <time>2019-02-24T15:47:38Z</time>
      </trkpt>
      <trkpt lat="45.27552" lon="5.62145">
        <ele>246.572</ele>
        <time>2019-02-24T15:47:49Z</time>
      </trkpt>
      <trkpt lat="45.27494" lon="5.62138">
        <ele>250.905</ele>
        <time>2019-02-24T15:47:59Z</time>
      </trkpt>
      <trkpt lat="45.27436" lon="5.62139">
        <ele>249.744</ele>
        <time>2019-02-24T15:48:09Z</time>
      </trkpt>
      <trkpt lat="45.27377" lon="5.62153">
        <ele>247.518</ele>
        <time>2019-02-24T15:48:20Z</time>
      </trkpt>
      <trkpt lat="45.27318" lon="5.62169">
        <ele>242.421</ele>
        <time>2019-02-24T15:48:31Z</time>
      </trkpt>
      <trkpt lat="45.27263" lon="5.622">
        <ele>236.515</ele>
        <time>2019-02-24T15:48:42Z</time>
      </trkpt>
      <trkpt lat="45.27209" lon="5.62216">
        <ele>243.159</ele>
        <time>2019-02-24T15:48:53Z</time>
      </trkpt>
      <trkpt lat="45.27138" lon="5.62254">
        <ele>250.562</ele>
        <time>2019-02-24T15:49:04Z</time>
      </trkpt>
      <trkpt lat="45.27102" lon="5.62287">
        <ele>249.592</ele>
        <time>2019-02-24T15:49:14Z</time>
      </trkpt>
      <trkpt lat="45.27049" lon="5.62317">
        <ele>248.493</ele>
        <time>2019-02-24T15:49:25Z</time>
      </trkpt>
      <trkpt lat="45.26998" lon="5.62342">
        <ele>251.099</ele>
        <time>2019-02-24T15:49:35Z</time>
      </trkpt>
      <trkpt lat="45.26939" lon="5.62376">
        <ele>248.752</ele>
        <time>2019-02-24T15:49:46Z</time>
      </trkpt>
      <trkpt lat="45.26886" lon="5.62417">
        <ele>245.915</ele>
        <time>2019-02-24T15:49:56Z</time>
      </trkpt>
      <trkpt lat="45.26841" lon="5.6246">
        <ele>244.294</ele>
        <time>2019-02-24T15:50:06Z</time>
      </trkpt>
      <trkpt lat="45.2679" lon="5.62503">
        <ele>241.942</ele>
        <time>2019-02-24T15:50:16Z</time>
      </trkpt>
      <trkpt lat="45.26738" lon="5.62553">
        <ele>242.21</ele>
        <time>2019-02-24T15:50:26Z</time>
      </trkpt>
      <trkpt lat="45.26692" lon="5.62604">
        <ele>238.916</ele>
        <time>2019-02-24T15:50:37Z</time>
      </trkpt>
      <trkpt lat="45.26648" lon="5.62652">
        <ele>234.6</ele>
        <time>2019-02-24T15:50:48Z</time>
      </trkpt>
      <trkpt lat="45.26594" lon="5.62697">
        <ele>234.469</ele>
        <time>2019-02-24T15:50:58Z</time>
      </trkpt>
      <trkpt lat="45.26544" lon="5.6274">
        <ele>239.394</ele>
        <time>2019-02-24T15:51:08Z</time>
      </trkpt>
      <trkpt lat="45.26502" lon="5.62784">
        <ele>243.787</ele>
        <time>2019-02-24T15:51:18Z</time>
      </trkpt>
      <trkpt lat="45.26448" lon="5.62844">
        <ele>243.651</ele>
        <time>2019-02-24T15:51:29Z</time>
      </trkpt>
      <trkpt lat="45.26406" lon="5.62895">
        <ele>247.083</ele>
        <time>2019-02-24T15:51:39Z</time>
      </trkpt>
      <trkpt lat="45.26363" lon="5.62951">
        <ele>254.858</ele>
        <time>2019-02-24T15:51:50Z</time>
      </trkpt>
      <trkpt lat="45.26312" lon="5.63012">
        <ele>257.245</ele>
        <time>2019-02-24T15:52:01Z</time>
      </trkpt>
      <trkpt lat="45.26266" lon="5.63065">
        <ele>251.526</ele>
        <time>2019-02-24T15:52:12Z</time>
      </trkpt>
      <trkpt lat="45.26225" lon="5.63113">
        <ele>248.155</ele>
        <time>2019-02-24T15:52:22Z</time>
      </trkpt>
      <trkpt lat="45.26178" lon="5.63176">
        <ele>250.294</ele>
        <time>2019-02-24T15:52:33Z</time>
      </trkpt>
      <trkpt lat="45.26129" lon="5.63229">
        <ele>248.468</ele>
        <time>2019-02-24T15:52:44Z</time>
      </trkpt>
      <trkpt lat="45.26094" lon="5.63273">
        <ele>245.255</ele>
        <time>2019-02-24T15:52:54Z</time>
      </trkpt>
      <trkpt lat="45.26041" lon="5.63339">
        <ele>247.356</ele>
        <time>2019-02-24T15:53:05Z</time>
      </trkpt>
      <trkpt lat="45.25994" lon="5.63398">
        <ele>248.336</ele>
        <time>2019-02-24T15:53:16Z</time>
      </trkpt>
      <trkpt lat="45.25944" lon="5.63463">
        <ele>260.141</ele>
        <time>2019-02-24T15:53:27Z</time>
      </trkpt>
      <trkpt lat="45.25897" lon="5.63519">
        <ele>259.279</ele>
        <time>2019-02-24T15:53:37Z</time>
      </trkpt>
      <trkpt lat="45.25853" lon="5.63569">
        <ele>260.87</ele>
        <time>2019-02-24T15:53:47Z</time>
      </trkpt>
      <trkpt lat="45.25806" lon="5.63622">
        <ele>256.596</ele>
        <time>2019-02-24T15:53:57Z</time>
      </trkpt>
      <trkpt lat="45.25762" lon="5.63682">
        <ele>254.987</ele>
        <time>2019-02-24T15:54:08Z</time>
      </trkpt>
      <trkpt lat="45.25719" lon="5.63734">
        <ele>258.494</ele>
        <time>2019-02-24T15:54:19Z</time>
      </trkpt>
      <trkpt lat="45.25676" lon="5.63796">
        <ele>258.06</ele>
        <time>2019-02-24T15:54:30Z</time>
      </trkpt>
      <trkpt lat="45.25636" lon="5.63861">
        <ele>263.772</ele>
        <time>2019-02-24T15:54:40Z</time>
      </trkpt>
      <trkpt lat="45.256" lon="5.63936">
        <ele>270.402</ele>
        <time>2019-02-24T15:54:50Z</time>
      </trkpt>
      <trkpt lat="45.2557" lon="5.64015">
        <ele>270.104</ele>
        <time>2019-02-24T15:55:01Z</time>
      </trkpt>
      <trkpt lat="45.25539" lon="5.64088">
        <ele>262.09</ele>
        <time>2019-02-24T15:55:12Z</time>
      </trkpt>
      <trkpt lat="45.25507" lon="5.64155">
        <ele>261.429</ele>
        <time>2019-02-24T15:55:22Z</time>
      </trkpt>
      <trkpt lat="45.25469" lon="5.64225">
        <ele>263.54</ele>
        <time>2019-02-24T15:55:33Z</time>
      </trkpt>
      <trkpt lat="45.25436" lon="5.64286">
        <ele>264.075</ele>
        <time>2019-02-24T15:55:43Z</time>
      </trkpt>
      <trkpt lat="45.25399" lon="5.64341">
        <ele>260.912</ele>
        <time>2019-02-24T15:55:53Z</time>
      </trkpt>
      <trkpt lat="45.25352" lon="5.64394">
        <ele>246.85</ele>
        <time>2019-02-24T15:56:04Z</time>
      </trkpt>
      <trkpt lat="45.25308" lon="5.64447">
        <ele>236.608</ele>
        <time>2019-02-24T15:56:15Z</time>
      </trkpt>
      <trkpt lat="45.25263" lon="5.64518">
        <ele>241.9</ele>
        <time>2019-02-24T15:56:25Z</time>
      </trkpt>
      <trkpt lat="45.25211" lon="5.6458">
        <ele>249.237</ele>
        <time>2019-02-24T15:56:36Z</time>
      </trkpt>
      <trkpt lat="45.25165" lon="5.64646">
        <ele>256.298</ele>
        <time>2019-02-24T15:56:47Z</time>
      </trkpt>
      <trkpt lat="45.25117" lon="5.64707">
        <ele>253.292</ele>
        <time>2019-02-24T15:56:58Z</time>
      </trkpt>
      <trkpt lat="45.25075" lon="5.64764">
        <ele>245.494</ele>
        <time>2019-02-24T15:57:08Z</time>
      </trkpt>
      <trkpt lat="45.2503" lon="5.64824">
        <ele>236.938</ele>
        <time>2019-02-24T15:57:19Z</time>
      </trkpt>
      <trkpt lat="45.2498" lon="5.64889">
        <ele>230.436</ele>
        <time>2019-02-24T15:57:30Z</time>
      </trkpt>
      <trkpt lat="45.24943" lon="5.64934">
        <ele>229.701</ele>
        <time>2019-02-24T15:57:40Z</time>
      </trkpt>
      <trkpt lat="45.24902" lon="5.64991">
        <ele>232.48</ele>
        <time>2019-02-24T15:57:50Z</time>
      </trkpt>
      <trkpt lat="45.24849" lon="5.65059">
        <ele>235.673</ele>
        <time>2019-02-24T15:58:01Z</time>
      </trkpt>
      <trkpt lat="45.24807" lon="5.65119">
        <ele>236.919</ele>
        <time>2019-02-24T15:58:12Z</time>
      </trkpt>
      <trkpt lat="45.24759" lon="5.6518">
        <ele>242.363</ele>
        <time>2019-02-24T15:58:23Z</time>
      </trkpt>
      <trkpt lat="45.24711" lon="5.6523">
        <ele>245.741</ele>
        <time>2019-02-24T15:58:33Z</time>
      </trkpt>
      <trkpt lat="45.24661" lon="5.65271">
        <ele>247.197</ele>
        <time>2019-02-24T15:58:44Z</time>
      </trkpt>
      <trkpt lat="45.24613" lon="5.65304">
        <ele>240.797</ele>
        <time>2019-02-24T15:58:54Z</time>
      </trkpt>
      <trkpt lat="45.24558" lon="5.65346">
        <ele>232.714</ele>
        <time>2019-02-24T15:59:05Z</time>
      </trkpt>
      <trkpt lat="45.24509" lon="5.65378">
        <ele>232.935</ele>
        <time>2019-02-24T15:59:15Z</time>
      </trkpt>
      <trkpt lat="45.24456" lon="5.65415">
        <ele>213.83</ele>
        <time>2019-02-24T15:59:26Z</time>
      </trkpt>
      <trkpt lat="45.24393" lon="5.65458">
        <ele>207.298</ele>
        <time>2019-02-24T15:59:36Z</time>
      </trkpt>
      <trkpt lat="45.24329" lon="5.65509">
        <ele>224.966</ele>
        <time>2019-02-24T15:59:47Z</time>
      </trkpt>
      <trkpt lat="45.24269" lon="5.65555">
        <ele>235.062</ele>
        <time>2019-02-24T15:59:58Z</time>
      </trkpt>
      <trkpt lat="45.24212" lon="5.65604">
        <ele>239.288</ele>
        <time>2019-02-24T16:00:08Z</time>
      </trkpt>
      <trkpt lat="45.24169" lon="5.6563">
        <ele>237.477</ele>
        <time>2019-02-24T16:00:18Z</time>
      </trkpt>
      <trkpt lat="45.24112" lon="5.65666">
        <ele>226.676</ele>
        <time>2019-02-24T16:00:29Z</time>
      </trkpt>
      <trkpt lat="45.24054" lon="5.65714">
        <ele>229.58</ele>
        <time>2019-02-24T16:00:39Z</time>
      </trkpt>
      <trkpt lat="45.23998" lon="5.65756">
        <ele>234.709</ele>
        <time>2019-02-24T16:00:50Z</time>
      </trkpt>
      <trkpt lat="45.23945" lon="5.65796">
        <ele>241.684</ele>
        <time>2019-02-24T16:01:00Z</time>
      </trkpt>
      <trkpt lat="45.23909" lon="5.65837">
        <ele>242.505</ele>
        <time>2019-02-24T16:01:11Z</time>
      </trkpt>
      <trkpt lat="45.23914" lon="5.65908">
        <ele>247.102</ele>
        <time>2019-02-24T16:01:22Z</time>
      </trkpt>
      <trkpt lat="45.23898" lon="5.65959">
        <ele>248.748</ele>
        <time>2019-02-24T16:01:33Z</time>
      </trkpt>
      <trkpt lat="45.23851" lon="5.65986">
        <ele>249.156</ele>
        <time>2019-02-24T16:01:43Z</time>
      </trkpt>
      <trkpt lat="45.23793" lon="5.65968">
        <ele>248.006</ele>
        <time>2019-02-24T16:01:54Z</time>
      </trkpt>
      <trkpt lat="45.23746" lon="5.65957">
        <ele>249.064</ele>
        <time>2019-02-24T16:02:04Z</time>
      </trkpt>
      <trkpt lat="45.23705" lon="5.65974">
        <ele>249.204</ele>
        <time>2019-02-24T16:02:15Z</time>
      </trkpt>
      <trkpt lat="45.23699" lon="5.6602">
        <ele>249.108</ele>
        <time>2019-02-24T16:02:25Z</time>
      </trkpt>
      <trkpt lat="45.23671" lon="5.66049">
        <ele>246.322</ele>
        <time>2019-02-24T16:02:35Z</time>
      </trkpt>
      <trkpt lat="45.23657" lon="5.66068">
        <ele>246.405</ele>
        <time>2019-02-24T16:02:46Z</time>
      </trkpt>
      <trkpt lat="45.23657" lon="5.66068">
        <ele>246.504</ele>
        <time>2019-02-24T16:02:56Z</time>
      </trkpt>
      <trkpt lat="45.23657" lon="5.66068">
        <ele>246.641</ele>
        <time>2019-02-24T16:03:07Z</time>
      </trkpt>
      <trkpt lat="45.23657" lon="5.66068">
        <ele>246.765</ele>
        <time>2019-02-24T16:03:18Z</time>
      </trkpt>
      <trkpt lat="45.23657" lon="5.66068">
        <ele>246.951</ele>
        <time>2019-02-24T16:03:28Z</time>
      </trkpt>
      <trkpt lat="45.23657" lon="5.66068">
        <ele>247.183</ele>
        <time>2019-02-24T16:03:39Z</time>
      </trkpt>
      <trkpt lat="45.23657" lon="5.66068">
        <ele>247.571</ele>
        <time>2019-02-24T16:03:49Z</time>
      </trkpt>
      <trkpt lat="45.23657" lon="5.66068">
        <ele>248.293</ele>
        <time>2019-02-24T16:04:00Z</time>
      </trkpt>
      <trkpt lat="45.23653" lon="5.66076">
        <ele>249.43</ele>
        <time>2019-02-24T16:04:11Z</time>
      </trkpt>
      <trkpt lat="45.2365" lon="5.66122">
        <ele>252.957</ele>
        <time>2019-02-24T16:04:21Z</time>
      </trkpt>
      <trkpt lat="45.23682" lon="5.66154">
        <ele>253.296</ele>
        <time>2019-02-24T16:04:32Z</time>
      </trkpt>
      <trkpt lat="45.23697" lon="5.66204">
        <ele>254.888</ele>
        <time>2019-02-24T16:04:42Z</time>
      </trkpt>
      <trkpt lat="45.23703" lon="5.66279">
        <ele>254.324</ele>
        <time>2019-02-24T16:04:53Z</time>
      </trkpt>
      <trkpt lat="45.23637" lon="5.66296">
        <ele>249.425</ele>
        <time>2019-02-24T16:05:04Z</time>
      </trkpt>
      <trkpt lat="45.23674" lon="5.66323">
        <ele>250.031</ele>
        <time>2019-02-24T16:05:15Z</time>
      </trkpt>
      <trkpt lat="45.23713" lon="5.6634">
        <ele>250.965</ele>
        <time>2019-02-24T16:05:26Z</time>
      </trkpt>
      <trkpt lat="45.23749" lon="5.6639">
        <ele>251.089</ele>
        <time>2019-02-24T16:05:37Z</time>
      </trkpt>
      <trkpt lat="45.23799" lon="5.66466">
        <ele>250.157</ele>
        <time>2019-02-24T16:05:48Z</time>
      </trkpt>
      <trkpt lat="45.23857" lon="5.66528">
        <ele>249.277</ele>
        <time>2019-02-24T16:05:59Z</time>
      </trkpt>
      <trkpt lat="45.23895" lon="5.66566">
        <ele>248.734</ele>
        <time>2019-02-24T16:06:09Z</time>
      </trkpt>
      <trkpt lat="45.23895" lon="5.66566">
        <ele>248.678</ele>
        <time>2019-02-24T16:06:20Z</time>
      </trkpt>
      <trkpt lat="45.23895" lon="5.66566">
        <ele>248.682</ele>
        <time>2019-02-24T16:06:30Z</time>
      </trkpt>
      <trkpt lat="45.23895" lon="5.66566">
        <ele>248.766</ele>
        <time>2019-02-24T16:06:40Z</time>
      </trkpt>
      <trkpt lat="45.23895" lon="5.66566">
        <ele>249.058</ele>
        <time>2019-02-24T16:06:51Z</time>
      </trkpt>
      <trkpt lat="45.23881" lon="5.66547">
        <ele>249.664</ele>
        <time>2019-02-24T16:07:01Z</time>
      </trkpt>
      <trkpt lat="45.23844" lon="5.66514">
        <ele>251.928</ele>
        <time>2019-02-24T16:07:12Z</time>
      </trkpt>
      <trkpt lat="45.23811" lon="5.66477">
        <ele>252.63</ele>
        <time>2019-02-24T16:07:22Z</time>
      </trkpt>
      <trkpt lat="45.2378" lon="5.66433">
        <ele>252.666</ele>
        <time>2019-02-24T16:07:33Z</time>
      </trkpt>
      <trkpt lat="45.23754" lon="5.6639">
        <ele>253.284</ele>
        <time>2019-02-24T16:07:43Z</time>
      </trkpt>
      <trkpt lat="45.23726" lon="5.66347">
        <ele>253.263</ele>
        <time>2019-02-24T16:07:54Z</time>
      </trkpt>
      <trkpt lat="45.23673" lon="5.6633">
        <ele>253.476</ele>
        <time>2019-02-24T16:08:05Z</time>
      </trkpt>
      <trkpt lat="45.23652" lon="5.663">
        <ele>252.658</ele>
        <time>2019-02-24T16:08:15Z</time>
      </trkpt>
      <trkpt lat="45.23683" lon="5.66286">
        <ele>252.467</ele>
        <time>2019-02-24T16:08:26Z</time>
      </trkpt>
      <trkpt lat="45.23709" lon="5.66266">
        <ele>252.529</ele>
        <time>2019-02-24T16:08:37Z</time>
      </trkpt>
      <trkpt lat="45.23701" lon="5.66219">
        <ele>252.877</ele>
        <time>2019-02-24T16:08:48Z</time>
      </trkpt>
      <trkpt lat="45.2369" lon="5.66167">
        <ele>253.203</ele>
        <time>2019-02-24T16:08:59Z</time>
      </trkpt>
      <trkpt lat="45.23651" lon="5.66116">
        <ele>254.459</ele>
        <time>2019-02-24T16:09:10Z</time>
      </trkpt>
      <trkpt lat="45.23656" lon="5.66051">
        <ele>255.947</ele>
        <time>2019-02-24T16:09:21Z</time>
      </trkpt>
      <trkpt lat="45.23614" lon="5.66053">
        <ele>257.167</ele>
        <time>2019-02-24T16:09:32Z</time>
      </trkpt>
      <trkpt lat="45.23571" lon="5.66076">
        <ele>258.592</ele>
        <time>2019-02-24T16:09:43Z</time>
      </trkpt>
      <trkpt lat="45.23522" lon="5.66111">
        <ele>255.971</ele>
        <time>2019-02-24T16:09:53Z</time>
      </trkpt>
      <trkpt lat="45.23471" lon="5.6615">
        <ele>253.862</ele>
        <time>2019-02-24T16:10:04Z</time>
      </trkpt>
      <trkpt lat="45.2342" lon="5.66185">
        <ele>252.579</ele>
        <time>2019-02-24T16:10:15Z</time>
      </trkpt>
      <trkpt lat="45.23374" lon="5.66209">
        <ele>252.349</ele>
        <time>2019-02-24T16:10:26Z</time>
      </trkpt>
      <trkpt lat="45.23334" lon="5.66233">
        <ele>247.439</ele>
        <time>2019-02-24T16:10:36Z</time>
      </trkpt>
      <trkpt lat="45.23266" lon="5.66277">
        <ele>240.402</ele>
        <time>2019-02-24T16:10:47Z</time>
      </trkpt>
      <trkpt lat="45.2321" lon="5.66322">
        <ele>227.567</ele>
        <time>2019-02-24T16:10:58Z</time>
      </trkpt>
      <trkpt lat="45.23161" lon="5.66373">
        <ele>230.61</ele>
        <time>2019-02-24T16:11:08Z</time>
      </trkpt>
      <trkpt lat="45.23112" lon="5.664">
        <ele>228.999</ele>
        <time>2019-02-24T16:11:19Z</time>
      </trkpt>
      <trkpt lat="45.23059" lon="5.6644">
        <ele>219.351</ele>
        <time>2019-02-24T16:11:30Z</time>
      </trkpt>
      <trkpt lat="45.2301" lon="5.66464">
        <ele>207.723</ele>
        <time>2019-02-24T16:11:41Z</time>
      </trkpt>
      <trkpt lat="45.22956" lon="5.66497">
        <ele>194.17</ele>
        <time>2019-02-24T16:11:52Z</time>
      </trkpt>
      <trkpt lat="45.22905" lon="5.66533">
        <ele>192.35</ele>
        <time>2019-02-24T16:12:02Z</time>
      </trkpt>
      <trkpt lat="45.22858" lon="5.66561">
        <ele>189.684</ele>
        <time>2019-02-24T16:12:13Z</time>
      </trkpt>
      <trkpt lat="45.22809" lon="5.66588">
        <ele>182.85</ele>
        <time>2019-02-24T16:12:23Z</time>
      </trkpt>
      <trkpt lat="45.22753" lon="5.6663">
        <ele>169.846</ele>
        <time>2019-02-24T16:12:34Z</time>
      </trkpt>
      <trkpt lat="45.22692" lon="5.6668">
        <ele>175.745</ele>
        <time>2019-02-24T16:12:45Z</time>
      </trkpt>
      <trkpt lat="45.22637" lon="5.66728">
        <ele>183.793</ele>
        <time>2019-02-24T16:12:56Z</time>
      </trkpt>
      <trkpt lat="45.22579" lon="5.66771">
        <ele>190.665</ele>
        <time>2019-02-24T16:13:07Z</time>
      </trkpt>
      <trkpt lat="45.22519" lon="5.66817">
        <ele>203.582</ele>
        <time>2019-02-24T16:13:18Z</time>
      </trkpt>
      <trkpt lat="45.22469" lon="5.66851">
        <ele>205.919</ele>
        <time>2019-02-24T16:13:28Z</time>
      </trkpt>
      <trkpt lat="45.22415" lon="5.66898">
        <ele>211.458</ele>
        <time>2019-02-24T16:13:39Z</time>
      </trkpt>
      <trkpt lat="45.2236" lon="5.66936">
        <ele>215.636</ele>
        <time>2019-02-24T16:13:50Z</time>
      </trkpt>
      <trkpt lat="45.22308" lon="5.6698">
        <ele>220.642</ele>
        <time>2019-02-24T16:14:01Z</time>
      </trkpt>
      <trkpt lat="45.22256" lon="5.67019">
        <ele>225.2</ele>
        <time>2019-02-24T16:14:11Z</time>
      </trkpt>
      <trkpt lat="45.22205" lon="5.67059">
        <ele>224.194</ele>
        <time>2019-02-24T16:14:22Z</time>
      </trkpt>
      <trkpt lat="45.22156" lon="5.6709">
        <ele>218.332</ele>
        <time>2019-02-24T16:14:32Z</time>
      </trkpt>
      <trkpt lat="45.22098" lon="5.67128">
        <ele>218.323</ele>
        <time>2019-02-24T16:14:43Z</time>
      </trkpt>
      <trkpt lat="45.22053" lon="5.67162">
        <ele>217.287</ele>
        <time>2019-02-24T16:14:53Z</time>
      </trkpt>
      <trkpt lat="45.21992" lon="5.67208">
        <ele>221.935</ele>
        <time>2019-02-24T16:15:04Z</time>
      </trkpt>
      <trkpt lat="45.21942" lon="5.67249">
        <ele>223.332</ele>
        <time>2019-02-24T16:15:14Z</time>
      </trkpt>
      <trkpt lat="45.21894" lon="5.6728">
        <ele>222.252</ele>
        <time>2019-02-24T16:15:24Z</time>
      </trkpt>
      <trkpt lat="45.21851" lon="5.67321">
        <ele>221.632</ele>
        <time>2019-02-24T16:15:34Z</time>
      </trkpt>
      <trkpt lat="45.21797" lon="5.67383">
        <ele>219.913</ele>
        <time>2019-02-24T16:15:45Z</time>
      </trkpt>
      <trkpt lat="45.21747" lon="5.67452">
        <ele>230.763</ele>
        <time>2019-02-24T16:15:55Z</time>
      </trkpt>
      <trkpt lat="45.21712" lon="5.67507">
        <ele>241.094</ele>
        <time>2019-02-24T16:16:05Z</time>
      </trkpt>
      <trkpt lat="45.21678" lon="5.6756">
        <ele>242.129</ele>
        <time>2019-02-24T16:16:16Z</time>
      </trkpt>
      <trkpt lat="45.21645" lon="5.67607">
        <ele>237.168</ele>
        <time>2019-02-24T16:16:26Z</time>
      </trkpt>
      <trkpt lat="45.21611" lon="5.67678">
        <ele>232.041</ele>
        <time>2019-02-24T16:16:37Z</time>
      </trkpt>
      <trkpt lat="45.21583" lon="5.67745">
        <ele>231.529</ele>
        <time>2019-02-24T16:16:47Z</time>
      </trkpt>
      <trkpt lat="45.21544" lon="5.67822">
        <ele>225.579</ele>
        <time>2019-02-24T16:16:58Z</time>
      </trkpt>
      <trkpt lat="45.21505" lon="5.67899">
        <ele>230.327</ele>
        <time>2019-02-24T16:17:08Z</time>
      </trkpt>
      <trkpt lat="45.21464" lon="5.67972">
        <ele>236.453</ele>
        <time>2019-02-24T16:17:19Z</time>
      </trkpt>
      <trkpt lat="45.21428" lon="5.68043">
        <ele>240.002</ele>
        <time>2019-02-24T16:17:29Z</time>
      </trkpt>
      <trkpt lat="45.2139" lon="5.68114">
        <ele>241.379</ele>
        <time>2019-02-24T16:17:40Z</time>
      </trkpt>
      <trkpt lat="45.21356" lon="5.68181">
        <ele>244.166</ele>
        <time>2019-02-24T16:17:50Z</time>
      </trkpt>
      <trkpt lat="45.21321" lon="5.68241">
        <ele>246.947</ele>
        <time>2019-02-24T16:18:00Z</time>
      </trkpt>
      <trkpt lat="45.21285" lon="5.6831">
        <ele>252.267</ele>
        <time>2019-02-24T16:18:10Z</time>
      </trkpt>
      <trkpt lat="45.21248" lon="5.68392">
        <ele>257.408</ele>
        <time>2019-02-24T16:18:21Z</time>
      </trkpt>
      <trkpt lat="45.21219" lon="5.6848">
        <ele>261.437</ele>
        <time>2019-02-24T16:18:31Z</time>
      </trkpt>
      <trkpt lat="45.21203" lon="5.68559">
        <ele>263.885</ele>
        <time>2019-02-24T16:18:41Z</time>
      </trkpt>
      <trkpt lat="45.21191" lon="5.68624">
        <ele>262.152</ele>
        <time>2019-02-24T16:18:52Z</time>
      </trkpt>
      <trkpt lat="45.21177" lon="5.68693">
        <ele>261.012</ele>
        <time>2019-02-24T16:19:02Z</time>
      </trkpt>
      <trkpt lat="45.2116" lon="5.68766">
        <ele>256.775</ele>
        <time>2019-02-24T16:19:13Z</time>
      </trkpt>
      <trkpt lat="45.21143" lon="5.68848">
        <ele>249.336</ele>
        <time>2019-02-24T16:19:24Z</time>
      </trkpt>
      <trkpt lat="45.21128" lon="5.68942">
        <ele>246.972</ele>
        <time>2019-02-24T16:19:35Z</time>
      </trkpt>
      <trkpt lat="45.21113" lon="5.69024">
        <ele>244.787</ele>
        <time>2019-02-24T16:19:46Z</time>
      </trkpt>
      <trkpt lat="45.21101" lon="5.69128">
        <ele>246.159</ele>
        <time>2019-02-24T16:19:57Z</time>
      </trkpt>
      <trkpt lat="45.2109" lon="5.69221">
        <ele>250.109</ele>
        <time>2019-02-24T16:20:07Z</time>
      </trkpt>
      <trkpt lat="45.21079" lon="5.69318">
        <ele>250.061</ele>
        <time>2019-02-24T16:20:18Z</time>
      </trkpt>
      <trkpt lat="45.21067" lon="5.69398">
        <ele>254.249</ele>
        <time>2019-02-24T16:20:28Z</time>
      </trkpt>
      <trkpt lat="45.21054" lon="5.69489">
        <ele>255.188</ele>
        <time>2019-02-24T16:20:39Z</time>
      </trkpt>
      <trkpt lat="45.21035" lon="5.69575">
        <ele>256.349</ele>
        <time>2019-02-24T16:20:50Z</time>
      </trkpt>
      <trkpt lat="45.21014" lon="5.69653">
        <ele>255.185</ele>
        <time>2019-02-24T16:21:00Z</time>
      </trkpt>
      <trkpt lat="45.20989" lon="5.69735">
        <ele>256.102</ele>
        <time>2019-02-24T16:21:11Z</time>
      </trkpt>
      <trkpt lat="45.20965" lon="5.69819">
        <ele>259.295</ele>
        <time>2019-02-24T16:21:22Z</time>
      </trkpt>
      <trkpt lat="45.20937" lon="5.699">
        <ele>258.757</ele>
        <time>2019-02-24T16:21:33Z</time>
      </trkpt>
      <trkpt lat="45.20909" lon="5.69975">
        <ele>257.248</ele>
        <time>2019-02-24T16:21:43Z</time>
      </trkpt>
      <trkpt lat="45.20875" lon="5.70055">
        <ele>255.474</ele>
        <time>2019-02-24T16:21:54Z</time>
      </trkpt>
      <trkpt lat="45.20838" lon="5.70136">
        <ele>256.328</ele>
        <time>2019-02-24T16:22:04Z</time>
      </trkpt>
      <trkpt lat="45.20788" lon="5.70222">
        <ele>255.14</ele>
        <time>2019-02-24T16:22:15Z</time>
      </trkpt>
      <trkpt lat="45.20765" lon="5.70308">
        <ele>256.158</ele>
        <time>2019-02-24T16:22:26Z</time>
      </trkpt>
      <trkpt lat="45.20754" lon="5.70368">
        <ele>254.899</ele>
        <time>2019-02-24T16:22:36Z</time>
      </trkpt>
      <trkpt lat="45.20733" lon="5.70425">
        <ele>250.974</ele>
        <time>2019-02-24T16:22:46Z</time>
      </trkpt>
      <trkpt lat="45.20711" lon="5.70475">
        <ele>248.674</ele>
        <time>2019-02-24T16:22:57Z</time>
      </trkpt>
      <trkpt lat="45.20687" lon="5.70539">
        <ele>243.797</ele>
        <time>2019-02-24T16:23:07Z</time>
      </trkpt>
      <trkpt lat="45.20667" lon="5.70592">
        <ele>229.839</ele>
        <time>2019-02-24T16:23:17Z</time>
      </trkpt>
      <trkpt lat="45.20636" lon="5.70668">
        <ele>198.148</ele>
        <time>2019-02-24T16:23:28Z</time>
      </trkpt>
      <trkpt lat="45.20608" lon="5.70766">
        <ele>186.056</ele>
        <time>2019-02-24T16:23:39Z</time>
      </trkpt>
      <trkpt lat="45.20571" lon="5.7089">
        <ele>212.901</ele>
        <time>2019-02-24T16:23:50Z</time>
      </trkpt>
      <trkpt lat="45.2054" lon="5.70988">
        <ele>239.954</ele>
        <time>2019-02-24T16:24:01Z</time>
      </trkpt>
      <trkpt lat="45.20506" lon="5.71062">
        <ele>244.86</ele>
        <time>2019-02-24T16:24:12Z</time>
      </trkpt>
      <trkpt lat="45.20474" lon="5.71133">
        <ele>246.189</ele>
        <time>2019-02-24T16:24:23Z</time>
      </trkpt>
      <trkpt lat="45.20443" lon="5.71177">
        <ele>243.11</ele>
        <time>2019-02-24T16:24:33Z</time>
      </trkpt>
      <trkpt lat="45.20396" lon="5.71237">
        <ele>211.974</ele>
        <time>2019-02-24T16:24:44Z</time>
      </trkpt>
      <trkpt lat="45.20344" lon="5.71301">
        <ele>205.784</ele>
        <time>2019-02-24T16:24:55Z</time>
      </trkpt>
      <trkpt lat="45.20287" lon="5.71383">
        <ele>221.766</ele>
        <time>2019-02-24T16:25:06Z</time>
      </trkpt>
      <trkpt lat="45.20241" lon="5.71432">
        <ele>230.207</ele>
        <time>2019-02-24T16:25:16Z</time>
      </trkpt>
      <trkpt lat="45.20194" lon="5.71478">
        <ele>223.928</ele>
        <time>2019-02-24T16:25:27Z</time>
      </trkpt>
      <trkpt lat="45.20147" lon="5.71528">
        <ele>213.243</ele>
        <time>2019-02-24T16:25:38Z</time>
      </trkpt>
      <trkpt lat="45.20084" lon="5.71577">
        <ele>216.093</ele>
        <time>2019-02-24T16:25:49Z</time>
      </trkpt>
      <trkpt lat="45.20027" lon="5.71592">
        <ele>223.423</ele>
        <time>2019-02-24T16:25:59Z</time>
      </trkpt>
      <trkpt lat="45.19954" lon="5.71608">
        <ele>241.492</ele>
        <time>2019-02-24T16:26:10Z</time>
      </trkpt>
      <trkpt lat="45.19901" lon="5.716">
        <ele>252.768</ele>
        <time>2019-02-24T16:26:20Z</time>
      </trkpt>
      <trkpt lat="45.19836" lon="5.71588">
        <ele>250.787</ele>
        <time>2019-02-24T16:26:31Z</time>
      </trkpt>
      <trkpt lat="45.19778" lon="5.71574">
        <ele>250.146</ele>
        <time>2019-02-24T16:26:41Z</time>
      </trkpt>
      <trkpt lat="45.19715" lon="5.71562">
        <ele>250.291</ele>
        <time>2019-02-24T16:26:52Z</time>
      </trkpt>
      <trkpt lat="45.19652" lon="5.71563">
        <ele>243.126</ele>
        <time>2019-02-24T16:27:03Z</time>
      </trkpt>
      <trkpt lat="45.19591" lon="5.71572">
        <ele>239.282</ele>
        <time>2019-02-24T16:27:13Z</time>
      </trkpt>
      <trkpt lat="45.19531" lon="5.7158">
        <ele>230.039</ele>
        <time>2019-02-24T16:27:24Z</time>
      </trkpt>
      <trkpt lat="45.19476" lon="5.71609">
        <ele>221.335</ele>
        <time>2019-02-24T16:27:35Z</time>
      </trkpt>
      <trkpt lat="45.19427" lon="5.71664">
        <ele>222.36</ele>
        <time>2019-02-24T16:27:45Z</time>
      </trkpt>
      <trkpt lat="45.19406" lon="5.71719">
        <ele>221.97</ele>
        <time>2019-02-24T16:27:56Z</time>
      </trkpt>
      <trkpt lat="45.19385" lon="5.71775">
        <ele>221.148</ele>
        <time>2019-02-24T16:28:06Z</time>
      </trkpt>
      <trkpt lat="45.19368" lon="5.71816">
        <ele>223.56</ele>
        <time>2019-02-24T16:28:16Z</time>
      </trkpt>
      <trkpt lat="45.19368" lon="5.71816">
        <ele>224.588</ele>
        <time>2019-02-24T16:28:27Z</time>
      </trkpt>
      <trkpt lat="45.19368" lon="5.71816">
        <ele>225.182</ele>
        <time>2019-02-24T16:28:37Z</time>
      </trkpt>
      <trkpt lat="45.19368" lon="5.71816">
        <ele>226.403</ele>
        <time>2019-02-24T16:28:48Z</time>
      </trkpt>
      <trkpt lat="45.19361" lon="5.71824">
        <ele>227.625</ele>
        <time>2019-02-24T16:28:59Z</time>
      </trkpt>
      <trkpt lat="45.19361" lon="5.71824">
        <ele>228.357</ele>
        <time>2019-02-24T16:29:10Z</time>
      </trkpt>
      <trkpt lat="45.19361" lon="5.71824">
        <ele>229.735</ele>
        <time>2019-02-24T16:29:21Z</time>
      </trkpt>
      <trkpt lat="45.19361" lon="5.71824">
        <ele>230.391</ele>
        <time>2019-02-24T16:29:31Z</time>
      </trkpt>
      <trkpt lat="45.19361" lon="5.71824">
        <ele>231.109</ele>
        <time>2019-02-24T16:29:42Z</time>
      </trkpt>
      <trkpt lat="45.19361" lon="5.71824">
        <ele>231.793</ele>
        <time>2019-02-24T16:29:53Z</time>
      </trkpt>
      <trkpt lat="45.19357" lon="5.71845">
        <ele>236.375</ele>
        <time>2019-02-24T16:30:04Z</time>
      </trkpt>
      <trkpt lat="45.19344" lon="5.71901">
        <ele>245.513</ele>
        <time>2019-02-24T16:30:15Z</time>
      </trkpt>
      <trkpt lat="45.19326" lon="5.71956">
        <ele>252.679</ele>
        <time>2019-02-24T16:30:25Z</time>
      </trkpt>
      <trkpt lat="45.19284" lon="5.71988">
        <ele>254.85</ele>
        <time>2019-02-24T16:30:35Z</time>
      </trkpt>
      <trkpt lat="45.19239" lon="5.72016">
        <ele>259.252</ele>
        <time>2019-02-24T16:30:46Z</time>
      </trkpt>
      <trkpt lat="45.19222" lon="5.72018">
        <ele>259.405</ele>
        <time>2019-02-24T16:30:57Z</time>
      </trkpt>
      <trkpt lat="45.19181" lon="5.71997">
        <ele>259.307</ele>
        <time>2019-02-24T16:31:08Z</time>
      </trkpt>
      <trkpt lat="45.19126" lon="5.71974">
        <ele>252.073</ele>
        <time>2019-02-24T16:31:18Z</time>
      </trkpt>
      <trkpt lat="45.19093" lon="5.71975">
        <ele>252.663</ele>
        <time>2019-02-24T16:31:29Z</time>
      </trkpt>
      <trkpt lat="45.19042" lon="5.7195">
        <ele>250.785</ele>
        <time>2019-02-24T16:31:39Z</time>
      </trkpt>
      <trkpt lat="45.18995" lon="5.71923">
        <ele>248.696</ele>
        <time>2019-02-24T16:31:49Z</time>
      </trkpt>
      <trkpt lat="45.1895" lon="5.7191">
        <ele>245.485</ele>
        <time>2019-02-24T16:31:59Z</time>
      </trkpt>
      <trkpt lat="45.18895" lon="5.71887">
        <ele>243.567</ele>
        <time>2019-02-24T16:32:10Z</time>
      </trkpt>
      <trkpt lat="45.18848" lon="5.7186">
        <ele>240.685</ele>
        <time>2019-02-24T16:32:20Z</time>
      </trkpt>
      <trkpt lat="45.18817" lon="5.71855">
        <ele>240.587</ele>
        <time>2019-02-24T16:32:31Z</time>
      </trkpt>
      <trkpt lat="45.18769" lon="5.71839">
        <ele>240.389</ele>
        <time>2019-02-24T16:32:42Z</time>
      </trkpt>
      <trkpt lat="45.18725" lon="5.71811">
        <ele>239.289</ele>
        <time>2019-02-24T16:32:53Z</time>
      </trkpt>
      <trkpt lat="45.18661" lon="5.71791">
        <ele>230.185</ele>
        <time>2019-02-24T16:33:04Z</time>
      </trkpt>
      <trkpt lat="45.18586" lon="5.71772">
        <ele>228.046</ele>
        <time>2019-02-24T16:33:15Z</time>
      </trkpt>
      <trkpt lat="45.18534" lon="5.71745">
        <ele>227.392</ele>
        <time>2019-02-24T16:33:25Z</time>
      </trkpt>
      <trkpt lat="45.18474" lon="5.71721">
        <ele>224.383</ele>
        <time>2019-02-24T16:33:36Z</time>
      </trkpt>
      <trkpt lat="45.18406" lon="5.71713">
        <ele>223.905</ele>
        <time>2019-02-24T16:33:47Z</time>
      </trkpt>
      <trkpt lat="45.18391" lon="5.71724">
        <ele>224.678</ele>
        <time>2019-02-24T16:33:58Z</time>
      </trkpt>
      <trkpt lat="45.18387" lon="5.71738">
        <ele>226.456</ele>
        <time>2019-02-24T16:34:08Z</time>
      </trkpt>
      <trkpt lat="45.18382" lon="5.71749">
        <ele>228.737</ele>
        <time>2019-02-24T16:34:19Z</time>
      </trkpt>
      <trkpt lat="45.1835" lon="5.71772">
        <ele>227.153</ele>
        <time>2019-02-24T16:34:30Z</time>
      </trkpt>
      <trkpt lat="45.18313" lon="5.71785">
        <ele>222.29</ele>
        <time>2019-02-24T16:34:41Z</time>
      </trkpt>
      <trkpt lat="45.1827" lon="5.71811">
        <ele>213.998</ele>
        <time>2019-02-24T16:34:51Z</time>
      </trkpt>
      <trkpt lat="45.18211" lon="5.71841">
        <ele>219.203</ele>
        <time>2019-02-24T16:35:02Z</time>
      </trkpt>
      <trkpt lat="45.18156" lon="5.71874">
        <ele>233.495</ele>
        <time>2019-02-24T16:35:13Z</time>
      </trkpt>
      <trkpt lat="45.18097" lon="5.71908">
        <ele>243.577</ele>
        <time>2019-02-24T16:35:23Z</time>
      </trkpt>
      <trkpt lat="45.18017" lon="5.7195">
        <ele>247.452</ele>
        <time>2019-02-24T16:35:35Z</time>
      </trkpt>
      <trkpt lat="45.17959" lon="5.72">
        <ele>257.673</ele>
        <time>2019-02-24T16:35:45Z</time>
      </trkpt>
      <trkpt lat="45.1791" lon="5.72039">
        <ele>260.548</ele>
        <time>2019-02-24T16:35:55Z</time>
      </trkpt>
      <trkpt lat="45.17857" lon="5.72079">
        <ele>261.733</ele>
        <time>2019-02-24T16:36:06Z</time>
      </trkpt>
      <trkpt lat="45.17796" lon="5.72132">
        <ele>262.429</ele>
        <time>2019-02-24T16:36:16Z</time>
      </trkpt>
      <trkpt lat="45.17751" lon="5.72193">
        <ele>260.986</ele>
        <time>2019-02-24T16:36:26Z</time>
      </trkpt>
      <trkpt lat="45.17702" lon="5.72247">
        <ele>254.755</ele>
        <time>2019-02-24T16:36:37Z</time>
      </trkpt>
      <trkpt lat="45.17653" lon="5.72311">
        <ele>249.477</ele>
        <time>2019-02-24T16:36:48Z</time>
      </trkpt>
      <trkpt lat="45.17604" lon="5.72385">
        <ele>250.635</ele>
        <time>2019-02-24T16:36:59Z</time>
      </trkpt>
      <trkpt lat="45.17571" lon="5.72439">
        <ele>248.79</ele>
        <time>2019-02-24T16:37:09Z</time>
      </trkpt>
      <trkpt lat="45.1753" lon="5.72514">
        <ele>248.207</ele>
        <time>2019-02-24T16:37:20Z</time>
      </trkpt>
      <trkpt lat="45.17467" lon="5.72524">
        <ele>260.765</ele>
        <time>2019-02-24T16:37:31Z</time>
      </trkpt>
      <trkpt lat="45.17399" lon="5.7251">
        <ele>265.873</ele>
        <time>2019-02-24T16:37:42Z</time>
      </trkpt>
      <trkpt lat="45.1733" lon="5.72471">
        <ele>270.849</ele>
        <time>2019-02-24T16:37:53Z</time>
      </trkpt>
      <trkpt lat="45.17269" lon="5.72454">
        <ele>271.165</ele>
        <time>2019-02-24T16:38:03Z</time>
      </trkpt>
      <trkpt lat="45.17208" lon="5.72441">
        <ele>269.991</ele>
        <time>2019-02-24T16:38:14Z</time>
      </trkpt>
      <trkpt lat="45.17179" lon="5.72433">
        <ele>268.991</ele>
        <time>2019-02-24T16:38:24Z</time>
      </trkpt>
      <trkpt lat="45.17124" lon="5.72395">
        <ele>268.763</ele>
        <time>2019-02-24T16:38:35Z</time>
      </trkpt>
      <trkpt lat="45.17068" lon="5.72354">
        <ele>267.339</ele>
        <time>2019-02-24T16:38:46Z</time>
      </trkpt>
      <trkpt lat="45.1702" lon="5.72308">
        <ele>263.645</ele>
        <time>2019-02-24T16:38:56Z</time>
      </trkpt>
      <trkpt lat="45.16996" lon="5.72305">
        <ele>262.896</ele>
        <time>2019-02-24T16:39:07Z</time>
      </trkpt>
      <trkpt lat="45.1694" lon="5.72312">
        <ele>263.691</ele>
        <time>2019-02-24T16:39:18Z</time>
      </trkpt>
      <trkpt lat="45.16879" lon="5.72313">
        <ele>266.123</ele>
        <time>2019-02-24T16:39:29Z</time>
      </trkpt>
      <trkpt lat="45.16805" lon="5.72335">
        <ele>273.959</ele>
        <time>2019-02-24T16:39:40Z</time>
      </trkpt>
      <trkpt lat="45.16744" lon="5.72339">
        <ele>275.493</ele>
        <time>2019-02-24T16:39:51Z</time>
      </trkpt>
      <trkpt lat="45.16695" lon="5.72347">
        <ele>271.269</ele>
        <time>2019-02-24T16:40:02Z</time>
      </trkpt>
      <trkpt lat="45.1666" lon="5.72334">
        <ele>270.202</ele>
        <time>2019-02-24T16:40:13Z</time>
      </trkpt>
      <trkpt lat="45.1663" lon="5.72293">
        <ele>270.305</ele>
        <time>2019-02-24T16:40:24Z</time>
      </trkpt>
      <trkpt lat="45.16596" lon="5.72255">
        <ele>270.891</ele>
        <time>2019-02-24T16:40:35Z</time>
      </trkpt>
      <trkpt lat="45.16549" lon="5.72205">
        <ele>275.855</ele>
        <time>2019-02-24T16:40:46Z</time>
      </trkpt>
      <trkpt lat="45.16506" lon="5.72159">
        <ele>277.457</ele>
        <time>2019-02-24T16:40:56Z</time>
      </trkpt>
      <trkpt lat="45.16461" lon="5.72141">
        <ele>275.467</ele>
        <time>2019-02-24T16:41:07Z</time>
      </trkpt>
      <trkpt lat="45.16441" lon="5.72086">
        <ele>271.518</ele>
        <time>2019-02-24T16:41:17Z</time>
      </trkpt>
      <trkpt lat="45.16401" lon="5.72042">
        <ele>268.956</ele>
        <time>2019-02-24T16:41:28Z</time>
      </trkpt>
      <trkpt lat="45.16358" lon="5.71981">
        <ele>273.396</ele>
        <time>2019-02-24T16:41:39Z</time>
      </trkpt>
      <trkpt lat="45.16312" lon="5.71929">
        <ele>275.778</ele>
        <time>2019-02-24T16:41:50Z</time>
      </trkpt>
      <trkpt lat="45.16304" lon="5.71924">
        <ele>275.838</ele>
        <time>2019-02-24T16:42:01Z</time>
      </trkpt>
      <trkpt lat="45.16304" lon="5.71924">
        <ele>275.516</ele>
        <time>2019-02-24T16:42:11Z</time>
      </trkpt>
      <trkpt lat="45.16304" lon="5.71924">
        <ele>275.017</ele>
        <time>2019-02-24T16:42:21Z</time>
      </trkpt>
      <trkpt lat="45.16304" lon="5.71924">
        <ele>274.385</ele>
        <time>2019-02-24T16:42:32Z</time>
      </trkpt>
      <trkpt lat="45.16304" lon="5.71924">
        <ele>273.779</ele>
        <time>2019-02-24T16:42:43Z</time>
      </trkpt>
      <trkpt lat="45.16304" lon="5.71924">
        <ele>273.167</ele>
        <time>2019-02-24T16:42:53Z</time>
      </trkpt>
      <trkpt lat="45.16294" lon="5.71931">
        <ele>271.649</ele>
        <time>2019-02-24T16:43:03Z</time>
      </trkpt>
      <trkpt lat="45.16269" lon="5.71945">
        <ele>268.574</ele>
        <time>2019-02-24T16:43:14Z</time>
      </trkpt>
      <trkpt lat="45.1626" lon="5.71949">
        <ele>258.855</ele>
        <time>2019-02-24T16:43:24Z</time>
      </trkpt>
      <trkpt lat="45.16258" lon="5.71949">
        <ele>257.071</ele>
        <time>2019-02-24T16:43:35Z</time>
      </trkpt>
      <trkpt lat="45.16247" lon="5.71947">
        <ele>248.028</ele>
        <time>2019-02-24T16:43:47Z</time>
      </trkpt>
      <trkpt lat="45.16243" lon="5.71946">
        <ele>248.645</ele>
        <time>2019-02-24T16:43:57Z</time>
      </trkpt>
      <trkpt lat="45.16239" lon="5.71958">
        <ele>250.344</ele>
        <time>2019-02-24T16:44:08Z</time>
      </trkpt>
      <trkpt lat="45.16237" lon="5.7197">
        <ele>251.577</ele>
        <time>2019-02-24T16:44:19Z</time>
      </trkpt>
      <trkpt lat="45.16237" lon="5.7197">
        <ele>251.622</ele>
        <time>2019-02-24T16:44:30Z</time>
      </trkpt>
      <trkpt lat="45.16205" lon="5.71963">
        <ele>246.294</ele>
        <time>2019-02-24T16:44:40Z</time>
      </trkpt>
      <trkpt lat="45.16175" lon="5.71966">
        <ele>248.677</ele>
        <time>2019-02-24T16:44:50Z</time>
      </trkpt>
      <trkpt lat="45.16248" lon="5.71969">
        <ele>255.648</ele>
        <time>2019-02-24T16:46:06Z</time>
      </trkpt>
      <trkpt lat="45.16239" lon="5.7197">
        <ele>254.599</ele>
        <time>2019-02-24T16:46:16Z</time>
      </trkpt>
      <trkpt lat="45.16232" lon="5.71986">
        <ele>247.375</ele>
        <time>2019-02-24T16:46:30Z</time>
      </trkpt>
      <trkpt lat="45.16236" lon="5.71981">
        <ele>245.133</ele>
        <time>2019-02-24T16:46:40Z</time>
      </trkpt>
      <trkpt lat="45.16236" lon="5.71979">
        <ele>244.933</ele>
        <time>2019-02-24T16:46:51Z</time>
      </trkpt>
      <trkpt lat="45.16234" lon="5.71971">
        <ele>246.105</ele>
        <time>2019-02-24T16:47:02Z</time>
      </trkpt>
      <trkpt lat="45.16238" lon="5.71969">
        <ele>247.195</ele>
        <time>2019-02-24T16:47:12Z</time>
      </trkpt>
      <trkpt lat="45.16239" lon="5.71966">
        <ele>247.547</ele>
        <time>2019-02-24T16:47:22Z</time>
      </trkpt>
      <trkpt lat="45.16239" lon="5.71965">
        <ele>248.739</ele>
        <time>2019-02-24T16:47:33Z</time>
      </trkpt>
      <trkpt lat="45.1624" lon="5.71963">
        <ele>251.457</ele>
        <time>2019-02-24T16:47:43Z</time>
      </trkpt>
      <trkpt lat="45.16248" lon="5.71963">
        <ele>253.088</ele>
        <time>2019-02-24T16:47:54Z</time>
      </trkpt>
      <trkpt lat="45.16244" lon="5.71962">
        <ele>254.708</ele>
        <time>2019-02-24T16:48:05Z</time>
      </trkpt>
      <trkpt lat="45.16237" lon="5.71969">
        <ele>255.163</ele>
        <time>2019-02-24T16:48:16Z</time>
      </trkpt>
      <trkpt lat="45.16238" lon="5.7197">
        <ele>254.469</ele>
        <time>2019-02-24T16:48:26Z</time>
      </trkpt>
      <trkpt lat="45.16241" lon="5.71971">
        <ele>253.534</ele>
        <time>2019-02-24T16:48:36Z</time>
      </trkpt>
      <trkpt lat="45.16247" lon="5.71975">
        <ele>251.922</ele>
        <time>2019-02-24T16:48:47Z</time>
      </trkpt>
      <trkpt lat="45.16263" lon="5.71975">
        <ele>236.939</ele>
        <time>2019-02-24T16:49:00Z</time>
      </trkpt>
      <trkpt lat="45.16276" lon="5.71984">
        <ele>234.303</ele>
        <time>2019-02-24T16:49:11Z</time>
      </trkpt>
      <trkpt lat="45.1625" lon="5.71965">
        <ele>253.126</ele>
        <time>2019-02-24T16:50:08Z</time>
      </trkpt>
      <trkpt lat="45.16237" lon="5.71973">
        <ele>253.384</ele>
        <time>2019-02-24T16:50:18Z</time>
      </trkpt>
      <trkpt lat="45.16232" lon="5.71954">
        <ele>252.863</ele>
        <time>2019-02-24T16:50:29Z</time>
      </trkpt>
    </trkseg>
  </trk>
</gpx>